<?xml version="1.0" encoding="UTF-8" standalone="no" ?>
<gpx xmlns="http://www.topografix.com/GPX/1/1" xmlns:xsi="http://www.w3.org/2001/XMLSchema-instance" xsi:schemaLocation="http://www.topografix.com/GPX/1/1 http://www.topografix.com/GPX/1/1/gpx.xsd" version="1.1" creator="VisuGPX - https://www.visugpx.com">
  <metadata>
    <name>La Rouchonnette</name>
    <desc><![CDATA[la Rouchonnette]]></desc>
  </metadata>
  <trk>
    <name><![CDATA[Rouchonnette 2]]></name>
    <trkseg>
      <trkpt lat="45.43582" lon="4.31969">
        <ele>527.59997558594</ele>
        <time>2011-06-18T07:40:48.000Z</time>
      </trkpt>
      <trkpt lat="45.43588" lon="4.31968">
        <ele>527.59997558594</ele>
        <time>2011-06-18T07:40:53.000Z</time>
      </trkpt>
      <trkpt lat="45.43604" lon="4.31965">
        <ele>527.59997558594</ele>
        <time>2011-06-18T07:40:59.000Z</time>
      </trkpt>
      <trkpt lat="45.43615" lon="4.31964">
        <ele>527.79998779297</ele>
        <time>2011-06-18T07:41:04.000Z</time>
      </trkpt>
      <trkpt lat="45.43626" lon="4.31962">
        <ele>527.79998779297</ele>
        <time>2011-06-18T07:41:09.000Z</time>
      </trkpt>
      <trkpt lat="45.43637" lon="4.31957">
        <ele>527.59997558594</ele>
        <time>2011-06-18T07:41:14.000Z</time>
      </trkpt>
      <trkpt lat="45.43648" lon="4.31956">
        <ele>527.79998779297</ele>
        <time>2011-06-18T07:41:19.000Z</time>
      </trkpt>
      <trkpt lat="45.43668" lon="4.31959">
        <ele>528.59997558594</ele>
        <time>2011-06-18T07:41:27.000Z</time>
      </trkpt>
      <trkpt lat="45.43683" lon="4.31963">
        <ele>529.40002441406</ele>
        <time>2011-06-18T07:41:34.000Z</time>
      </trkpt>
      <trkpt lat="45.43696" lon="4.31963">
        <ele>529.59997558594</ele>
        <time>2011-06-18T07:41:40.000Z</time>
      </trkpt>
      <trkpt lat="45.43706" lon="4.31954">
        <ele>528.40002441406</ele>
        <time>2011-06-18T07:41:45.000Z</time>
      </trkpt>
      <trkpt lat="45.43715" lon="4.31938">
        <ele>526.40002441406</ele>
        <time>2011-06-18T07:41:51.000Z</time>
      </trkpt>
      <trkpt lat="45.43723" lon="4.31918">
        <ele>523.79998779297</ele>
        <time>2011-06-18T07:41:58.000Z</time>
      </trkpt>
      <trkpt lat="45.43728" lon="4.31902">
        <ele>522.79998779297</ele>
        <time>2011-06-18T07:42:03.000Z</time>
      </trkpt>
      <trkpt lat="45.43738" lon="4.31886">
        <ele>522</ele>
        <time>2011-06-18T07:42:09.000Z</time>
      </trkpt>
      <trkpt lat="45.43745" lon="4.31872">
        <ele>521.20001220703</ele>
        <time>2011-06-18T07:42:14.000Z</time>
      </trkpt>
      <trkpt lat="45.43748" lon="4.31858">
        <ele>520.40002441406</ele>
        <time>2011-06-18T07:42:18.000Z</time>
      </trkpt>
      <trkpt lat="45.43747" lon="4.31836">
        <ele>519</ele>
        <time>2011-06-18T07:42:24.000Z</time>
      </trkpt>
      <trkpt lat="45.43746" lon="4.31816">
        <ele>520</ele>
        <time>2011-06-18T07:42:30.000Z</time>
      </trkpt>
      <trkpt lat="45.43744" lon="4.31796">
        <ele>521</ele>
        <time>2011-06-18T07:42:36.000Z</time>
      </trkpt>
      <trkpt lat="45.43745" lon="4.31779">
        <ele>522</ele>
        <time>2011-06-18T07:42:41.000Z</time>
      </trkpt>
      <trkpt lat="45.43752" lon="4.31767">
        <ele>522.79998779297</ele>
        <time>2011-06-18T07:42:46.000Z</time>
      </trkpt>
      <trkpt lat="45.43765" lon="4.31761">
        <ele>523</ele>
        <time>2011-06-18T07:42:52.000Z</time>
      </trkpt>
      <trkpt lat="45.43774" lon="4.31759">
        <ele>523</ele>
        <time>2011-06-18T07:42:56.000Z</time>
      </trkpt>
      <trkpt lat="45.43787" lon="4.31755">
        <ele>522.79998779297</ele>
        <time>2011-06-18T07:43:03.000Z</time>
      </trkpt>
      <trkpt lat="45.438" lon="4.31752">
        <ele>522.59997558594</ele>
        <time>2011-06-18T07:43:09.000Z</time>
      </trkpt>
      <trkpt lat="45.43813" lon="4.31747">
        <ele>522.79998779297</ele>
        <time>2011-06-18T07:43:15.000Z</time>
      </trkpt>
      <trkpt lat="45.43831" lon="4.3174">
        <ele>523.40002441406</ele>
        <time>2011-06-18T07:43:23.000Z</time>
      </trkpt>
      <trkpt lat="45.43843" lon="4.31735">
        <ele>523.79998779297</ele>
        <time>2011-06-18T07:43:29.000Z</time>
      </trkpt>
      <trkpt lat="45.43858" lon="4.31726">
        <ele>524.79998779297</ele>
        <time>2011-06-18T07:43:36.000Z</time>
      </trkpt>
      <trkpt lat="45.43869" lon="4.31718">
        <ele>525.40002441406</ele>
        <time>2011-06-18T07:43:42.000Z</time>
      </trkpt>
      <trkpt lat="45.4388" lon="4.31709">
        <ele>526.20001220703</ele>
        <time>2011-06-18T07:43:48.000Z</time>
      </trkpt>
      <trkpt lat="45.43891" lon="4.31698">
        <ele>527</ele>
        <time>2011-06-18T07:43:55.000Z</time>
      </trkpt>
      <trkpt lat="45.43901" lon="4.31688">
        <ele>527.59997558594</ele>
        <time>2011-06-18T07:44:01.000Z</time>
      </trkpt>
      <trkpt lat="45.43912" lon="4.31677">
        <ele>528.20001220703</ele>
        <time>2011-06-18T07:44:08.000Z</time>
      </trkpt>
      <trkpt lat="45.43925" lon="4.31667">
        <ele>528.20001220703</ele>
        <time>2011-06-18T07:44:15.000Z</time>
      </trkpt>
      <trkpt lat="45.43935" lon="4.31658">
        <ele>528.40002441406</ele>
        <time>2011-06-18T07:44:21.000Z</time>
      </trkpt>
      <trkpt lat="45.43943" lon="4.31645">
        <ele>529</ele>
        <time>2011-06-18T07:44:27.000Z</time>
      </trkpt>
      <trkpt lat="45.43951" lon="4.31631">
        <ele>530</ele>
        <time>2011-06-18T07:44:33.000Z</time>
      </trkpt>
      <trkpt lat="45.43959" lon="4.31612">
        <ele>531.20001220703</ele>
        <time>2011-06-18T07:44:40.000Z</time>
      </trkpt>
      <trkpt lat="45.43966" lon="4.31592">
        <ele>532.79998779297</ele>
        <time>2011-06-18T07:44:47.000Z</time>
      </trkpt>
      <trkpt lat="45.43971" lon="4.31578">
        <ele>534</ele>
        <time>2011-06-18T07:44:52.000Z</time>
      </trkpt>
      <trkpt lat="45.43979" lon="4.31555">
        <ele>535.59997558594</ele>
        <time>2011-06-18T07:45:00.000Z</time>
      </trkpt>
      <trkpt lat="45.43985" lon="4.31539">
        <ele>536.79998779297</ele>
        <time>2011-06-18T07:45:06.000Z</time>
      </trkpt>
      <trkpt lat="45.43988" lon="4.31534">
        <ele>537</ele>
        <time>2011-06-18T07:45:08.000Z</time>
      </trkpt>
      <trkpt lat="45.44" lon="4.31528">
        <ele>536.20001220703</ele>
        <time>2011-06-18T07:45:14.000Z</time>
      </trkpt>
      <trkpt lat="45.44011" lon="4.31528">
        <ele>536</ele>
        <time>2011-06-18T07:45:19.000Z</time>
      </trkpt>
      <trkpt lat="45.44013" lon="4.31528">
        <ele>536</ele>
        <time>2011-06-18T07:45:20.000Z</time>
      </trkpt>
      <trkpt lat="45.44034" lon="4.31527">
        <ele>536</ele>
        <time>2011-06-18T07:45:29.000Z</time>
      </trkpt>
      <trkpt lat="45.44045" lon="4.31525">
        <ele>536</ele>
        <time>2011-06-18T07:45:34.000Z</time>
      </trkpt>
      <trkpt lat="45.44059" lon="4.31521">
        <ele>536.20001220703</ele>
        <time>2011-06-18T07:45:40.000Z</time>
      </trkpt>
      <trkpt lat="45.44073" lon="4.31519">
        <ele>536</ele>
        <time>2011-06-18T07:45:46.000Z</time>
      </trkpt>
      <trkpt lat="45.4409" lon="4.31521">
        <ele>535.40002441406</ele>
        <time>2011-06-18T07:45:53.000Z</time>
      </trkpt>
      <trkpt lat="45.44104" lon="4.31524">
        <ele>534.59997558594</ele>
        <time>2011-06-18T07:45:59.000Z</time>
      </trkpt>
      <trkpt lat="45.44121" lon="4.31524">
        <ele>533.40002441406</ele>
        <time>2011-06-18T07:46:06.000Z</time>
      </trkpt>
      <trkpt lat="45.44137" lon="4.31526">
        <ele>532.40002441406</ele>
        <time>2011-06-18T07:46:13.000Z</time>
      </trkpt>
      <trkpt lat="45.44152" lon="4.31526">
        <ele>531.59997558594</ele>
        <time>2011-06-18T07:46:19.000Z</time>
      </trkpt>
      <trkpt lat="45.44167" lon="4.31525">
        <ele>530.79998779297</ele>
        <time>2011-06-18T07:46:25.000Z</time>
      </trkpt>
      <trkpt lat="45.4418" lon="4.3152">
        <ele>530.40002441406</ele>
        <time>2011-06-18T07:46:31.000Z</time>
      </trkpt>
      <trkpt lat="45.44193" lon="4.31512">
        <ele>530.59997558594</ele>
        <time>2011-06-18T07:46:37.000Z</time>
      </trkpt>
      <trkpt lat="45.44205" lon="4.31502">
        <ele>530.79998779297</ele>
        <time>2011-06-18T07:46:43.000Z</time>
      </trkpt>
      <trkpt lat="45.44218" lon="4.31491">
        <ele>530.59997558594</ele>
        <time>2011-06-18T07:46:49.000Z</time>
      </trkpt>
      <trkpt lat="45.44229" lon="4.31484">
        <ele>530.20001220703</ele>
        <time>2011-06-18T07:46:54.000Z</time>
      </trkpt>
      <trkpt lat="45.4424" lon="4.31478">
        <ele>529.79998779297</ele>
        <time>2011-06-18T07:46:59.000Z</time>
      </trkpt>
      <trkpt lat="45.44253" lon="4.31474">
        <ele>529</ele>
        <time>2011-06-18T07:47:05.000Z</time>
      </trkpt>
      <trkpt lat="45.44266" lon="4.31472">
        <ele>528.20001220703</ele>
        <time>2011-06-18T07:47:10.000Z</time>
      </trkpt>
      <trkpt lat="45.44287" lon="4.3147">
        <ele>526.59997558594</ele>
        <time>2011-06-18T07:47:19.000Z</time>
      </trkpt>
      <trkpt lat="45.44298" lon="4.3147">
        <ele>525.79998779297</ele>
        <time>2011-06-18T07:47:24.000Z</time>
      </trkpt>
      <trkpt lat="45.44309" lon="4.31476">
        <ele>524.79998779297</ele>
        <time>2011-06-18T07:47:30.000Z</time>
      </trkpt>
      <trkpt lat="45.44321" lon="4.31477">
        <ele>524</ele>
        <time>2011-06-18T07:47:35.000Z</time>
      </trkpt>
      <trkpt lat="45.44333" lon="4.31475">
        <ele>523.20001220703</ele>
        <time>2011-06-18T07:47:40.000Z</time>
      </trkpt>
      <trkpt lat="45.44348" lon="4.31471">
        <ele>522.79998779297</ele>
        <time>2011-06-18T07:47:46.000Z</time>
      </trkpt>
      <trkpt lat="45.44363" lon="4.31466">
        <ele>522.20001220703</ele>
        <time>2011-06-18T07:47:53.000Z</time>
      </trkpt>
      <trkpt lat="45.44383" lon="4.31463">
        <ele>521.59997558594</ele>
        <time>2011-06-18T07:48:01.000Z</time>
      </trkpt>
      <trkpt lat="45.44397" lon="4.31463">
        <ele>521</ele>
        <time>2011-06-18T07:48:07.000Z</time>
      </trkpt>
      <trkpt lat="45.44407" lon="4.31461">
        <ele>520.79998779297</ele>
        <time>2011-06-18T07:48:11.000Z</time>
      </trkpt>
      <trkpt lat="45.44422" lon="4.31453">
        <ele>520.40002441406</ele>
        <time>2011-06-18T07:48:18.000Z</time>
      </trkpt>
      <trkpt lat="45.44433" lon="4.31448">
        <ele>520</ele>
        <time>2011-06-18T07:48:23.000Z</time>
      </trkpt>
      <trkpt lat="45.44445" lon="4.31443">
        <ele>519.59997558594</ele>
        <time>2011-06-18T07:48:28.000Z</time>
      </trkpt>
      <trkpt lat="45.44455" lon="4.31436">
        <ele>519.20001220703</ele>
        <time>2011-06-18T07:48:33.000Z</time>
      </trkpt>
      <trkpt lat="45.44466" lon="4.31427">
        <ele>518.79998779297</ele>
        <time>2011-06-18T07:48:38.000Z</time>
      </trkpt>
      <trkpt lat="45.44473" lon="4.31419">
        <ele>518.40002441406</ele>
        <time>2011-06-18T07:48:42.000Z</time>
      </trkpt>
      <trkpt lat="45.44489" lon="4.31404">
        <ele>517.79998779297</ele>
        <time>2011-06-18T07:48:50.000Z</time>
      </trkpt>
      <trkpt lat="45.44499" lon="4.31394">
        <ele>517.20001220703</ele>
        <time>2011-06-18T07:48:55.000Z</time>
      </trkpt>
      <trkpt lat="45.44513" lon="4.31376">
        <ele>517</ele>
        <time>2011-06-18T07:49:03.000Z</time>
      </trkpt>
      <trkpt lat="45.44523" lon="4.3136">
        <ele>516.79998779297</ele>
        <time>2011-06-18T07:49:09.000Z</time>
      </trkpt>
      <trkpt lat="45.44533" lon="4.31345">
        <ele>516.59997558594</ele>
        <time>2011-06-18T07:49:15.000Z</time>
      </trkpt>
      <trkpt lat="45.44542" lon="4.31333">
        <ele>516.40002441406</ele>
        <time>2011-06-18T07:49:20.000Z</time>
      </trkpt>
      <trkpt lat="45.44552" lon="4.31319">
        <ele>516</ele>
        <time>2011-06-18T07:49:26.000Z</time>
      </trkpt>
      <trkpt lat="45.44565" lon="4.31303">
        <ele>515.40002441406</ele>
        <time>2011-06-18T07:49:33.000Z</time>
      </trkpt>
      <trkpt lat="45.44579" lon="4.31288">
        <ele>514.59997558594</ele>
        <time>2011-06-18T07:49:40.000Z</time>
      </trkpt>
      <trkpt lat="45.44587" lon="4.31275">
        <ele>514</ele>
        <time>2011-06-18T07:49:45.000Z</time>
      </trkpt>
      <trkpt lat="45.44593" lon="4.31264">
        <ele>513.40002441406</ele>
        <time>2011-06-18T07:49:49.000Z</time>
      </trkpt>
      <trkpt lat="45.44599" lon="4.3125">
        <ele>512.79998779297</ele>
        <time>2011-06-18T07:49:54.000Z</time>
      </trkpt>
      <trkpt lat="45.446" lon="4.31245">
        <ele>512.59997558594</ele>
        <time>2011-06-18T07:49:56.000Z</time>
      </trkpt>
      <trkpt lat="45.44603" lon="4.31225">
        <ele>512.40002441406</ele>
        <time>2011-06-18T07:50:02.000Z</time>
      </trkpt>
      <trkpt lat="45.44611" lon="4.31206">
        <ele>511.79998779297</ele>
        <time>2011-06-18T07:50:09.000Z</time>
      </trkpt>
      <trkpt lat="45.44616" lon="4.31194">
        <ele>511.20001220703</ele>
        <time>2011-06-18T07:50:14.000Z</time>
      </trkpt>
      <trkpt lat="45.44627" lon="4.31176">
        <ele>510.39999389648</ele>
        <time>2011-06-18T07:50:21.000Z</time>
      </trkpt>
      <trkpt lat="45.44634" lon="4.31165">
        <ele>509.60000610352</ele>
        <time>2011-06-18T07:50:26.000Z</time>
      </trkpt>
      <trkpt lat="45.44642" lon="4.31149">
        <ele>508.39999389648</ele>
        <time>2011-06-18T07:50:32.000Z</time>
      </trkpt>
      <trkpt lat="45.44648" lon="4.31136">
        <ele>507.39999389648</ele>
        <time>2011-06-18T07:50:37.000Z</time>
      </trkpt>
      <trkpt lat="45.44655" lon="4.31122">
        <ele>506.39999389648</ele>
        <time>2011-06-18T07:50:42.000Z</time>
      </trkpt>
      <trkpt lat="45.44663" lon="4.31105">
        <ele>505</ele>
        <time>2011-06-18T07:50:48.000Z</time>
      </trkpt>
      <trkpt lat="45.44673" lon="4.31091">
        <ele>503.60000610352</ele>
        <time>2011-06-18T07:50:54.000Z</time>
      </trkpt>
      <trkpt lat="45.44684" lon="4.31082">
        <ele>502.79998779297</ele>
        <time>2011-06-18T07:50:59.000Z</time>
      </trkpt>
      <trkpt lat="45.44699" lon="4.31077">
        <ele>502</ele>
        <time>2011-06-18T07:51:05.000Z</time>
      </trkpt>
      <trkpt lat="45.4471" lon="4.31072">
        <ele>501.39999389648</ele>
        <time>2011-06-18T07:51:10.000Z</time>
      </trkpt>
      <trkpt lat="45.44722" lon="4.31064">
        <ele>501</ele>
        <time>2011-06-18T07:51:16.000Z</time>
      </trkpt>
      <trkpt lat="45.44739" lon="4.3106">
        <ele>499.79998779297</ele>
        <time>2011-06-18T07:51:23.000Z</time>
      </trkpt>
      <trkpt lat="45.44747" lon="4.31062">
        <ele>499.20001220703</ele>
        <time>2011-06-18T07:51:27.000Z</time>
      </trkpt>
      <trkpt lat="45.44755" lon="4.31067">
        <ele>499</ele>
        <time>2011-06-18T07:51:31.000Z</time>
      </trkpt>
      <trkpt lat="45.44764" lon="4.31074">
        <ele>499.39999389648</ele>
        <time>2011-06-18T07:51:36.000Z</time>
      </trkpt>
      <trkpt lat="45.44774" lon="4.31081">
        <ele>499.79998779297</ele>
        <time>2011-06-18T07:51:41.000Z</time>
      </trkpt>
      <trkpt lat="45.44783" lon="4.31085">
        <ele>500.20001220703</ele>
        <time>2011-06-18T07:51:45.000Z</time>
      </trkpt>
      <trkpt lat="45.44792" lon="4.31089">
        <ele>500.60000610352</ele>
        <time>2011-06-18T07:51:50.000Z</time>
      </trkpt>
      <trkpt lat="45.44803" lon="4.31088">
        <ele>501.39999389648</ele>
        <time>2011-06-18T07:51:55.000Z</time>
      </trkpt>
      <trkpt lat="45.44812" lon="4.31088">
        <ele>502</ele>
        <time>2011-06-18T07:52:00.000Z</time>
      </trkpt>
      <trkpt lat="45.44819" lon="4.31084">
        <ele>502.79998779297</ele>
        <time>2011-06-18T07:52:04.000Z</time>
      </trkpt>
      <trkpt lat="45.4482" lon="4.31078">
        <ele>503.20001220703</ele>
        <time>2011-06-18T07:52:08.000Z</time>
      </trkpt>
      <trkpt lat="45.44819" lon="4.31068">
        <ele>503.79998779297</ele>
        <time>2011-06-18T07:52:12.000Z</time>
      </trkpt>
      <trkpt lat="45.44819" lon="4.31056">
        <ele>504.39999389648</ele>
        <time>2011-06-18T07:52:17.000Z</time>
      </trkpt>
      <trkpt lat="45.44818" lon="4.31054">
        <ele>504.60000610352</ele>
        <time>2011-06-18T07:52:18.000Z</time>
      </trkpt>
      <trkpt lat="45.44816" lon="4.31051">
        <ele>504.60000610352</ele>
        <time>2011-06-18T07:52:20.000Z</time>
      </trkpt>
      <trkpt lat="45.44807" lon="4.31035">
        <ele>504.60000610352</ele>
        <time>2011-06-18T07:52:27.000Z</time>
      </trkpt>
      <trkpt lat="45.44798" lon="4.31025">
        <ele>504.60000610352</ele>
        <time>2011-06-18T07:52:33.000Z</time>
      </trkpt>
      <trkpt lat="45.4479" lon="4.31021">
        <ele>504.20001220703</ele>
        <time>2011-06-18T07:52:37.000Z</time>
      </trkpt>
      <trkpt lat="45.4478" lon="4.31011">
        <ele>503.79998779297</ele>
        <time>2011-06-18T07:52:43.000Z</time>
      </trkpt>
      <trkpt lat="45.4477" lon="4.31001">
        <ele>503.60000610352</ele>
        <time>2011-06-18T07:52:49.000Z</time>
      </trkpt>
      <trkpt lat="45.44761" lon="4.30994">
        <ele>503.39999389648</ele>
        <time>2011-06-18T07:52:54.000Z</time>
      </trkpt>
      <trkpt lat="45.44755" lon="4.30982">
        <ele>504.20001220703</ele>
        <time>2011-06-18T07:52:59.000Z</time>
      </trkpt>
      <trkpt lat="45.44743" lon="4.30972">
        <ele>505</ele>
        <time>2011-06-18T07:53:05.000Z</time>
      </trkpt>
      <trkpt lat="45.44741" lon="4.30971">
        <ele>505</ele>
        <time>2011-06-18T07:53:06.000Z</time>
      </trkpt>
      <trkpt lat="45.44737" lon="4.30963">
        <ele>506</ele>
        <time>2011-06-18T07:53:09.000Z</time>
      </trkpt>
      <trkpt lat="45.44733" lon="4.30948">
        <ele>507.20001220703</ele>
        <time>2011-06-18T07:53:14.000Z</time>
      </trkpt>
      <trkpt lat="45.44723" lon="4.30923">
        <ele>508.79998779297</ele>
        <time>2011-06-18T07:53:22.000Z</time>
      </trkpt>
      <trkpt lat="45.44715" lon="4.30911">
        <ele>509.39999389648</ele>
        <time>2011-06-18T07:53:28.000Z</time>
      </trkpt>
      <trkpt lat="45.44704" lon="4.30898">
        <ele>509.60000610352</ele>
        <time>2011-06-18T07:53:34.000Z</time>
      </trkpt>
      <trkpt lat="45.44699" lon="4.30889">
        <ele>509.79998779297</ele>
        <time>2011-06-18T07:53:38.000Z</time>
      </trkpt>
      <trkpt lat="45.44694" lon="4.30873">
        <ele>510</ele>
        <time>2011-06-18T07:53:44.000Z</time>
      </trkpt>
      <trkpt lat="45.44689" lon="4.30854">
        <ele>510.20001220703</ele>
        <time>2011-06-18T07:53:50.000Z</time>
      </trkpt>
      <trkpt lat="45.44687" lon="4.30844">
        <ele>510.20001220703</ele>
        <time>2011-06-18T07:53:53.000Z</time>
      </trkpt>
      <trkpt lat="45.44684" lon="4.30824">
        <ele>510</ele>
        <time>2011-06-18T07:53:59.000Z</time>
      </trkpt>
      <trkpt lat="45.44683" lon="4.30806">
        <ele>509.60000610352</ele>
        <time>2011-06-18T07:54:04.000Z</time>
      </trkpt>
      <trkpt lat="45.44689" lon="4.30786">
        <ele>509.79998779297</ele>
        <time>2011-06-18T07:54:11.000Z</time>
      </trkpt>
      <trkpt lat="45.44697" lon="4.30768">
        <ele>510</ele>
        <time>2011-06-18T07:54:18.000Z</time>
      </trkpt>
      <trkpt lat="45.44707" lon="4.30757">
        <ele>510.20001220703</ele>
        <time>2011-06-18T07:54:24.000Z</time>
      </trkpt>
      <trkpt lat="45.44716" lon="4.30748">
        <ele>510.20001220703</ele>
        <time>2011-06-18T07:54:30.000Z</time>
      </trkpt>
      <trkpt lat="45.44725" lon="4.30735">
        <ele>509.39999389648</ele>
        <time>2011-06-18T07:54:36.000Z</time>
      </trkpt>
      <trkpt lat="45.44733" lon="4.30726">
        <ele>508.79998779297</ele>
        <time>2011-06-18T07:54:41.000Z</time>
      </trkpt>
      <trkpt lat="45.44743" lon="4.30717">
        <ele>508</ele>
        <time>2011-06-18T07:54:47.000Z</time>
      </trkpt>
      <trkpt lat="45.44751" lon="4.30707">
        <ele>507.20001220703</ele>
        <time>2011-06-18T07:54:52.000Z</time>
      </trkpt>
      <trkpt lat="45.44762" lon="4.30693">
        <ele>508.79998779297</ele>
        <time>2011-06-18T07:54:59.000Z</time>
      </trkpt>
      <trkpt lat="45.44769" lon="4.30683">
        <ele>509.79998779297</ele>
        <time>2011-06-18T07:55:04.000Z</time>
      </trkpt>
      <trkpt lat="45.44776" lon="4.30668">
        <ele>510.20001220703</ele>
        <time>2011-06-18T07:55:10.000Z</time>
      </trkpt>
      <trkpt lat="45.44782" lon="4.30653">
        <ele>511</ele>
        <time>2011-06-18T07:55:16.000Z</time>
      </trkpt>
      <trkpt lat="45.44786" lon="4.30638">
        <ele>511.20001220703</ele>
        <time>2011-06-18T07:55:21.000Z</time>
      </trkpt>
      <trkpt lat="45.44791" lon="4.30627">
        <ele>511.79998779297</ele>
        <time>2011-06-18T07:55:26.000Z</time>
      </trkpt>
      <trkpt lat="45.44795" lon="4.30615">
        <ele>512.20001220703</ele>
        <time>2011-06-18T07:55:31.000Z</time>
      </trkpt>
      <trkpt lat="45.448" lon="4.306">
        <ele>512</ele>
        <time>2011-06-18T07:55:37.000Z</time>
      </trkpt>
      <trkpt lat="45.44804" lon="4.30588">
        <ele>512.20001220703</ele>
        <time>2011-06-18T07:55:41.000Z</time>
      </trkpt>
      <trkpt lat="45.44808" lon="4.30573">
        <ele>511.39999389648</ele>
        <time>2011-06-18T07:55:46.000Z</time>
      </trkpt>
      <trkpt lat="45.44814" lon="4.30562">
        <ele>511.20001220703</ele>
        <time>2011-06-18T07:55:51.000Z</time>
      </trkpt>
      <trkpt lat="45.4482" lon="4.30549">
        <ele>511</ele>
        <time>2011-06-18T07:55:57.000Z</time>
      </trkpt>
      <trkpt lat="45.44822" lon="4.30546">
        <ele>510.79998779297</ele>
        <time>2011-06-18T07:55:59.000Z</time>
      </trkpt>
      <trkpt lat="45.44819" lon="4.30529">
        <ele>508.39999389648</ele>
        <time>2011-06-18T07:56:05.000Z</time>
      </trkpt>
      <trkpt lat="45.44819" lon="4.30509">
        <ele>505.79998779297</ele>
        <time>2011-06-18T07:56:11.000Z</time>
      </trkpt>
      <trkpt lat="45.44819" lon="4.30487">
        <ele>503.60000610352</ele>
        <time>2011-06-18T07:56:18.000Z</time>
      </trkpt>
      <trkpt lat="45.44816" lon="4.30468">
        <ele>501.60000610352</ele>
        <time>2011-06-18T07:56:23.000Z</time>
      </trkpt>
      <trkpt lat="45.44814" lon="4.30455">
        <ele>500.39999389648</ele>
        <time>2011-06-18T07:56:27.000Z</time>
      </trkpt>
      <trkpt lat="45.44814" lon="4.30436">
        <ele>499</ele>
        <time>2011-06-18T07:56:33.000Z</time>
      </trkpt>
      <trkpt lat="45.44812" lon="4.30419">
        <ele>497.60000610352</ele>
        <time>2011-06-18T07:56:39.000Z</time>
      </trkpt>
      <trkpt lat="45.44805" lon="4.30411">
        <ele>497</ele>
        <time>2011-06-18T07:56:44.000Z</time>
      </trkpt>
      <trkpt lat="45.44795" lon="4.30402">
        <ele>496.79998779297</ele>
        <time>2011-06-18T07:56:50.000Z</time>
      </trkpt>
      <trkpt lat="45.44785" lon="4.30394">
        <ele>496.60000610352</ele>
        <time>2011-06-18T07:56:55.000Z</time>
      </trkpt>
      <trkpt lat="45.44778" lon="4.30385">
        <ele>496.79998779297</ele>
        <time>2011-06-18T07:57:00.000Z</time>
      </trkpt>
      <trkpt lat="45.4477" lon="4.30376">
        <ele>496.79998779297</ele>
        <time>2011-06-18T07:57:05.000Z</time>
      </trkpt>
      <trkpt lat="45.44762" lon="4.30368">
        <ele>497</ele>
        <time>2011-06-18T07:57:10.000Z</time>
      </trkpt>
      <trkpt lat="45.4476" lon="4.30366">
        <ele>497</ele>
        <time>2011-06-18T07:57:11.000Z</time>
      </trkpt>
      <trkpt lat="45.44752" lon="4.30351">
        <ele>497.60000610352</ele>
        <time>2011-06-18T07:57:18.000Z</time>
      </trkpt>
      <trkpt lat="45.44746" lon="4.30337">
        <ele>498.20001220703</ele>
        <time>2011-06-18T07:57:24.000Z</time>
      </trkpt>
      <trkpt lat="45.44744" lon="4.30325">
        <ele>498.20001220703</ele>
        <time>2011-06-18T07:57:29.000Z</time>
      </trkpt>
      <trkpt lat="45.44746" lon="4.30313">
        <ele>498.20001220703</ele>
        <time>2011-06-18T07:57:34.000Z</time>
      </trkpt>
      <trkpt lat="45.44748" lon="4.30311">
        <ele>498.20001220703</ele>
        <time>2011-06-18T07:57:35.000Z</time>
      </trkpt>
      <trkpt lat="45.44759" lon="4.30305">
        <ele>499</ele>
        <time>2011-06-18T07:57:42.000Z</time>
      </trkpt>
      <trkpt lat="45.44769" lon="4.30298">
        <ele>499.79998779297</ele>
        <time>2011-06-18T07:57:49.000Z</time>
      </trkpt>
      <trkpt lat="45.44779" lon="4.30289">
        <ele>500.60000610352</ele>
        <time>2011-06-18T07:57:56.000Z</time>
      </trkpt>
      <trkpt lat="45.44789" lon="4.30279">
        <ele>502</ele>
        <time>2011-06-18T07:58:03.000Z</time>
      </trkpt>
      <trkpt lat="45.44796" lon="4.30272">
        <ele>503.20001220703</ele>
        <time>2011-06-18T07:58:08.000Z</time>
      </trkpt>
      <trkpt lat="45.44807" lon="4.30265">
        <ele>505</ele>
        <time>2011-06-18T07:58:15.000Z</time>
      </trkpt>
      <trkpt lat="45.44818" lon="4.30256">
        <ele>507</ele>
        <time>2011-06-18T07:58:22.000Z</time>
      </trkpt>
      <trkpt lat="45.44829" lon="4.3025">
        <ele>509.20001220703</ele>
        <time>2011-06-18T07:58:29.000Z</time>
      </trkpt>
      <trkpt lat="45.44839" lon="4.30246">
        <ele>510.39999389648</ele>
        <time>2011-06-18T07:58:35.000Z</time>
      </trkpt>
      <trkpt lat="45.44851" lon="4.30239">
        <ele>511.39999389648</ele>
        <time>2011-06-18T07:58:43.000Z</time>
      </trkpt>
      <trkpt lat="45.4486" lon="4.30236">
        <ele>512.20001220703</ele>
        <time>2011-06-18T07:58:49.000Z</time>
      </trkpt>
      <trkpt lat="45.44872" lon="4.30231">
        <ele>513.59997558594</ele>
        <time>2011-06-18T07:58:56.000Z</time>
      </trkpt>
      <trkpt lat="45.4488" lon="4.30227">
        <ele>514.59997558594</ele>
        <time>2011-06-18T07:59:01.000Z</time>
      </trkpt>
      <trkpt lat="45.4489" lon="4.30224">
        <ele>516</ele>
        <time>2011-06-18T07:59:06.000Z</time>
      </trkpt>
      <trkpt lat="45.44901" lon="4.30218">
        <ele>517.59997558594</ele>
        <time>2011-06-18T07:59:13.000Z</time>
      </trkpt>
      <trkpt lat="45.44909" lon="4.30211">
        <ele>519.20001220703</ele>
        <time>2011-06-18T07:59:18.000Z</time>
      </trkpt>
      <trkpt lat="45.44919" lon="4.30204">
        <ele>521</ele>
        <time>2011-06-18T07:59:24.000Z</time>
      </trkpt>
      <trkpt lat="45.4493" lon="4.30195">
        <ele>522.59997558594</ele>
        <time>2011-06-18T07:59:31.000Z</time>
      </trkpt>
      <trkpt lat="45.44938" lon="4.30187">
        <ele>524.20001220703</ele>
        <time>2011-06-18T07:59:37.000Z</time>
      </trkpt>
      <trkpt lat="45.44944" lon="4.3018">
        <ele>525.40002441406</ele>
        <time>2011-06-18T07:59:42.000Z</time>
      </trkpt>
      <trkpt lat="45.44951" lon="4.30169">
        <ele>527.40002441406</ele>
        <time>2011-06-18T07:59:48.000Z</time>
      </trkpt>
      <trkpt lat="45.44958" lon="4.30161">
        <ele>528.79998779297</ele>
        <time>2011-06-18T07:59:53.000Z</time>
      </trkpt>
      <trkpt lat="45.44969" lon="4.30153">
        <ele>530.59997558594</ele>
        <time>2011-06-18T08:00:00.000Z</time>
      </trkpt>
      <trkpt lat="45.44978" lon="4.30145">
        <ele>532.40002441406</ele>
        <time>2011-06-18T08:00:06.000Z</time>
      </trkpt>
      <trkpt lat="45.44988" lon="4.30135">
        <ele>534.59997558594</ele>
        <time>2011-06-18T08:00:14.000Z</time>
      </trkpt>
      <trkpt lat="45.44993" lon="4.30126">
        <ele>536.20001220703</ele>
        <time>2011-06-18T08:00:20.000Z</time>
      </trkpt>
      <trkpt lat="45.45002" lon="4.30117">
        <ele>538.40002441406</ele>
        <time>2011-06-18T08:00:28.000Z</time>
      </trkpt>
      <trkpt lat="45.45011" lon="4.30107">
        <ele>539.79998779297</ele>
        <time>2011-06-18T08:00:35.000Z</time>
      </trkpt>
      <trkpt lat="45.4502" lon="4.30098">
        <ele>541.40002441406</ele>
        <time>2011-06-18T08:00:42.000Z</time>
      </trkpt>
      <trkpt lat="45.45027" lon="4.3009">
        <ele>542.59997558594</ele>
        <time>2011-06-18T08:00:47.000Z</time>
      </trkpt>
      <trkpt lat="45.45035" lon="4.30082">
        <ele>544</ele>
        <time>2011-06-18T08:00:53.000Z</time>
      </trkpt>
      <trkpt lat="45.45043" lon="4.30074">
        <ele>545.20001220703</ele>
        <time>2011-06-18T08:00:59.000Z</time>
      </trkpt>
      <trkpt lat="45.45051" lon="4.30065">
        <ele>546.40002441406</ele>
        <time>2011-06-18T08:01:05.000Z</time>
      </trkpt>
      <trkpt lat="45.45059" lon="4.30055">
        <ele>548</ele>
        <time>2011-06-18T08:01:12.000Z</time>
      </trkpt>
      <trkpt lat="45.45069" lon="4.30045">
        <ele>550</ele>
        <time>2011-06-18T08:01:19.000Z</time>
      </trkpt>
      <trkpt lat="45.45078" lon="4.30038">
        <ele>551.79998779297</ele>
        <time>2011-06-18T08:01:25.000Z</time>
      </trkpt>
      <trkpt lat="45.45086" lon="4.3003">
        <ele>553.40002441406</ele>
        <time>2011-06-18T08:01:31.000Z</time>
      </trkpt>
      <trkpt lat="45.45094" lon="4.30024">
        <ele>554.59997558594</ele>
        <time>2011-06-18T08:01:38.000Z</time>
      </trkpt>
      <trkpt lat="45.45102" lon="4.30018">
        <ele>555.79998779297</ele>
        <time>2011-06-18T08:01:47.000Z</time>
      </trkpt>
      <trkpt lat="45.45111" lon="4.3001">
        <ele>557</ele>
        <time>2011-06-18T08:01:55.000Z</time>
      </trkpt>
      <trkpt lat="45.45119" lon="4.30006">
        <ele>558</ele>
        <time>2011-06-18T08:02:02.000Z</time>
      </trkpt>
      <trkpt lat="45.45129" lon="4.29997">
        <ele>559.20001220703</ele>
        <time>2011-06-18T08:02:10.000Z</time>
      </trkpt>
      <trkpt lat="45.45142" lon="4.29986">
        <ele>559.79998779297</ele>
        <time>2011-06-18T08:02:17.000Z</time>
      </trkpt>
      <trkpt lat="45.45149" lon="4.29979">
        <ele>560.20001220703</ele>
        <time>2011-06-18T08:02:21.000Z</time>
      </trkpt>
      <trkpt lat="45.45149" lon="4.2997">
        <ele>560.20001220703</ele>
        <time>2011-06-18T08:02:28.000Z</time>
      </trkpt>
      <trkpt lat="45.45148" lon="4.2997">
        <ele>560.20001220703</ele>
        <time>2011-06-18T08:02:29.000Z</time>
      </trkpt>
      <trkpt lat="45.45148" lon="4.29942">
        <ele>560.40002441406</ele>
        <time>2011-06-18T08:03:20.000Z</time>
      </trkpt>
      <trkpt lat="45.45148" lon="4.29931">
        <ele>560.40002441406</ele>
        <time>2011-06-18T08:03:25.000Z</time>
      </trkpt>
      <trkpt lat="45.45148" lon="4.29923">
        <ele>560.59997558594</ele>
        <time>2011-06-18T08:03:29.000Z</time>
      </trkpt>
      <trkpt lat="45.45149" lon="4.29908">
        <ele>560.20001220703</ele>
        <time>2011-06-18T08:03:37.000Z</time>
      </trkpt>
      <trkpt lat="45.45148" lon="4.29895">
        <ele>559.79998779297</ele>
        <time>2011-06-18T08:03:43.000Z</time>
      </trkpt>
      <trkpt lat="45.45149" lon="4.29877">
        <ele>559.20001220703</ele>
        <time>2011-06-18T08:03:49.000Z</time>
      </trkpt>
      <trkpt lat="45.45152" lon="4.29858">
        <ele>558.79998779297</ele>
        <time>2011-06-18T08:03:55.000Z</time>
      </trkpt>
      <trkpt lat="45.45158" lon="4.2984">
        <ele>558.79998779297</ele>
        <time>2011-06-18T08:04:01.000Z</time>
      </trkpt>
      <trkpt lat="45.45166" lon="4.29831">
        <ele>559.79998779297</ele>
        <time>2011-06-18T08:04:06.000Z</time>
      </trkpt>
      <trkpt lat="45.45178" lon="4.29825">
        <ele>559.79998779297</ele>
        <time>2011-06-18T08:04:12.000Z</time>
      </trkpt>
      <trkpt lat="45.45192" lon="4.29821">
        <ele>559.79998779297</ele>
        <time>2011-06-18T08:04:18.000Z</time>
      </trkpt>
      <trkpt lat="45.45205" lon="4.29816">
        <ele>560</ele>
        <time>2011-06-18T08:04:24.000Z</time>
      </trkpt>
      <trkpt lat="45.45216" lon="4.29811">
        <ele>560</ele>
        <time>2011-06-18T08:04:29.000Z</time>
      </trkpt>
      <trkpt lat="45.4523" lon="4.29805">
        <ele>560</ele>
        <time>2011-06-18T08:04:35.000Z</time>
      </trkpt>
      <trkpt lat="45.45243" lon="4.29799">
        <ele>560.20001220703</ele>
        <time>2011-06-18T08:04:41.000Z</time>
      </trkpt>
      <trkpt lat="45.45256" lon="4.29793">
        <ele>560</ele>
        <time>2011-06-18T08:04:47.000Z</time>
      </trkpt>
      <trkpt lat="45.4527" lon="4.29787">
        <ele>560</ele>
        <time>2011-06-18T08:04:53.000Z</time>
      </trkpt>
      <trkpt lat="45.45285" lon="4.2978">
        <ele>559.79998779297</ele>
        <time>2011-06-18T08:05:00.000Z</time>
      </trkpt>
      <trkpt lat="45.45302" lon="4.29775">
        <ele>560</ele>
        <time>2011-06-18T08:05:07.000Z</time>
      </trkpt>
      <trkpt lat="45.45304" lon="4.29774">
        <ele>560</ele>
        <time>2011-06-18T08:05:08.000Z</time>
      </trkpt>
      <trkpt lat="45.45315" lon="4.29773">
        <ele>560.20001220703</ele>
        <time>2011-06-18T08:05:13.000Z</time>
      </trkpt>
      <trkpt lat="45.45336" lon="4.29763">
        <ele>560.40002441406</ele>
        <time>2011-06-18T08:05:23.000Z</time>
      </trkpt>
      <trkpt lat="45.45344" lon="4.29761">
        <ele>560.59997558594</ele>
        <time>2011-06-18T08:05:27.000Z</time>
      </trkpt>
      <trkpt lat="45.45354" lon="4.29773">
        <ele>561</ele>
        <time>2011-06-18T08:05:33.000Z</time>
      </trkpt>
      <trkpt lat="45.4536" lon="4.29788">
        <ele>561.40002441406</ele>
        <time>2011-06-18T08:05:38.000Z</time>
      </trkpt>
      <trkpt lat="45.45362" lon="4.2981">
        <ele>561.59997558594</ele>
        <time>2011-06-18T08:05:45.000Z</time>
      </trkpt>
      <trkpt lat="45.45365" lon="4.29832">
        <ele>561.79998779297</ele>
        <time>2011-06-18T08:05:52.000Z</time>
      </trkpt>
      <trkpt lat="45.45366" lon="4.29846">
        <ele>562.40002441406</ele>
        <time>2011-06-18T08:05:57.000Z</time>
      </trkpt>
      <trkpt lat="45.45369" lon="4.29862">
        <ele>562.79998779297</ele>
        <time>2011-06-18T08:06:02.000Z</time>
      </trkpt>
      <trkpt lat="45.45371" lon="4.2988">
        <ele>563.40002441406</ele>
        <time>2011-06-18T08:06:08.000Z</time>
      </trkpt>
      <trkpt lat="45.45372" lon="4.29896">
        <ele>563.79998779297</ele>
        <time>2011-06-18T08:06:13.000Z</time>
      </trkpt>
      <trkpt lat="45.45374" lon="4.29912">
        <ele>564.20001220703</ele>
        <time>2011-06-18T08:06:18.000Z</time>
      </trkpt>
      <trkpt lat="45.45377" lon="4.29938">
        <ele>564.20001220703</ele>
        <time>2011-06-18T08:06:26.000Z</time>
      </trkpt>
      <trkpt lat="45.45378" lon="4.29954">
        <ele>564.20001220703</ele>
        <time>2011-06-18T08:06:31.000Z</time>
      </trkpt>
      <trkpt lat="45.45378" lon="4.29977">
        <ele>564</ele>
        <time>2011-06-18T08:06:38.000Z</time>
      </trkpt>
      <trkpt lat="45.45379" lon="4.29997">
        <ele>563.79998779297</ele>
        <time>2011-06-18T08:06:44.000Z</time>
      </trkpt>
      <trkpt lat="45.45379" lon="4.30014">
        <ele>563.59997558594</ele>
        <time>2011-06-18T08:06:49.000Z</time>
      </trkpt>
      <trkpt lat="45.45376" lon="4.30033">
        <ele>563.20001220703</ele>
        <time>2011-06-18T08:06:55.000Z</time>
      </trkpt>
      <trkpt lat="45.45371" lon="4.30054">
        <ele>563.20001220703</ele>
        <time>2011-06-18T08:07:02.000Z</time>
      </trkpt>
      <trkpt lat="45.45365" lon="4.30069">
        <ele>563.20001220703</ele>
        <time>2011-06-18T08:07:07.000Z</time>
      </trkpt>
      <trkpt lat="45.45361" lon="4.30084">
        <ele>563.20001220703</ele>
        <time>2011-06-18T08:07:13.000Z</time>
      </trkpt>
      <trkpt lat="45.45353" lon="4.30104">
        <ele>564.20001220703</ele>
        <time>2011-06-18T08:07:20.000Z</time>
      </trkpt>
      <trkpt lat="45.45345" lon="4.30129">
        <ele>565.20001220703</ele>
        <time>2011-06-18T08:07:29.000Z</time>
      </trkpt>
      <trkpt lat="45.4534" lon="4.30146">
        <ele>565.79998779297</ele>
        <time>2011-06-18T08:07:35.000Z</time>
      </trkpt>
      <trkpt lat="45.45333" lon="4.30165">
        <ele>566.79998779297</ele>
        <time>2011-06-18T08:07:43.000Z</time>
      </trkpt>
      <trkpt lat="45.45327" lon="4.30182">
        <ele>566</ele>
        <time>2011-06-18T08:07:50.000Z</time>
      </trkpt>
      <trkpt lat="45.45324" lon="4.30199">
        <ele>565.59997558594</ele>
        <time>2011-06-18T08:07:56.000Z</time>
      </trkpt>
      <trkpt lat="45.45324" lon="4.30217">
        <ele>565.40002441406</ele>
        <time>2011-06-18T08:08:02.000Z</time>
      </trkpt>
      <trkpt lat="45.45329" lon="4.30234">
        <ele>565.59997558594</ele>
        <time>2011-06-18T08:08:08.000Z</time>
      </trkpt>
      <trkpt lat="45.45342" lon="4.30243">
        <ele>565.40002441406</ele>
        <time>2011-06-18T08:08:15.000Z</time>
      </trkpt>
      <trkpt lat="45.45355" lon="4.30251">
        <ele>564.40002441406</ele>
        <time>2011-06-18T08:08:21.000Z</time>
      </trkpt>
      <trkpt lat="45.45365" lon="4.30257">
        <ele>563.59997558594</ele>
        <time>2011-06-18T08:08:26.000Z</time>
      </trkpt>
      <trkpt lat="45.45383" lon="4.30267">
        <ele>562.20001220703</ele>
        <time>2011-06-18T08:08:34.000Z</time>
      </trkpt>
      <trkpt lat="45.45393" lon="4.30271">
        <ele>561.59997558594</ele>
        <time>2011-06-18T08:08:39.000Z</time>
      </trkpt>
      <trkpt lat="45.45408" lon="4.30275">
        <ele>560.40002441406</ele>
        <time>2011-06-18T08:08:46.000Z</time>
      </trkpt>
      <trkpt lat="45.45425" lon="4.30279">
        <ele>559.40002441406</ele>
        <time>2011-06-18T08:08:53.000Z</time>
      </trkpt>
      <trkpt lat="45.45437" lon="4.30287">
        <ele>559</ele>
        <time>2011-06-18T08:08:58.000Z</time>
      </trkpt>
      <trkpt lat="45.45449" lon="4.30307">
        <ele>559</ele>
        <time>2011-06-18T08:09:05.000Z</time>
      </trkpt>
      <trkpt lat="45.45456" lon="4.30324">
        <ele>559.59997558594</ele>
        <time>2011-06-18T08:09:11.000Z</time>
      </trkpt>
      <trkpt lat="45.45465" lon="4.30333">
        <ele>559.79998779297</ele>
        <time>2011-06-18T08:09:16.000Z</time>
      </trkpt>
      <trkpt lat="45.45478" lon="4.30329">
        <ele>559.59997558594</ele>
        <time>2011-06-18T08:09:22.000Z</time>
      </trkpt>
      <trkpt lat="45.45491" lon="4.30321">
        <ele>559</ele>
        <time>2011-06-18T08:09:28.000Z</time>
      </trkpt>
      <trkpt lat="45.45504" lon="4.30312">
        <ele>558.40002441406</ele>
        <time>2011-06-18T08:09:34.000Z</time>
      </trkpt>
      <trkpt lat="45.45518" lon="4.30301">
        <ele>558.59997558594</ele>
        <time>2011-06-18T08:09:41.000Z</time>
      </trkpt>
      <trkpt lat="45.45531" lon="4.30292">
        <ele>558.59997558594</ele>
        <time>2011-06-18T08:09:47.000Z</time>
      </trkpt>
      <trkpt lat="45.45541" lon="4.30285">
        <ele>558.59997558594</ele>
        <time>2011-06-18T08:09:52.000Z</time>
      </trkpt>
      <trkpt lat="45.45556" lon="4.30277">
        <ele>558.79998779297</ele>
        <time>2011-06-18T08:09:59.000Z</time>
      </trkpt>
      <trkpt lat="45.45565" lon="4.30275">
        <ele>559</ele>
        <time>2011-06-18T08:10:03.000Z</time>
      </trkpt>
      <trkpt lat="45.4558" lon="4.30276">
        <ele>560.20001220703</ele>
        <time>2011-06-18T08:10:09.000Z</time>
      </trkpt>
      <trkpt lat="45.45593" lon="4.30275">
        <ele>560.79998779297</ele>
        <time>2011-06-18T08:10:15.000Z</time>
      </trkpt>
      <trkpt lat="45.45608" lon="4.30268">
        <ele>560.79998779297</ele>
        <time>2011-06-18T08:10:22.000Z</time>
      </trkpt>
      <trkpt lat="45.45616" lon="4.30262">
        <ele>560.40002441406</ele>
        <time>2011-06-18T08:10:26.000Z</time>
      </trkpt>
      <trkpt lat="45.45626" lon="4.30243">
        <ele>558.79998779297</ele>
        <time>2011-06-18T08:10:33.000Z</time>
      </trkpt>
      <trkpt lat="45.45633" lon="4.30224">
        <ele>557</ele>
        <time>2011-06-18T08:10:39.000Z</time>
      </trkpt>
      <trkpt lat="45.45641" lon="4.30202">
        <ele>555.40002441406</ele>
        <time>2011-06-18T08:10:46.000Z</time>
      </trkpt>
      <trkpt lat="45.4565" lon="4.30184">
        <ele>554.20001220703</ele>
        <time>2011-06-18T08:10:52.000Z</time>
      </trkpt>
      <trkpt lat="45.45658" lon="4.3017">
        <ele>553.40002441406</ele>
        <time>2011-06-18T08:10:57.000Z</time>
      </trkpt>
      <trkpt lat="45.45668" lon="4.30155">
        <ele>553</ele>
        <time>2011-06-18T08:11:03.000Z</time>
      </trkpt>
      <trkpt lat="45.45677" lon="4.30143">
        <ele>553.20001220703</ele>
        <time>2011-06-18T08:11:08.000Z</time>
      </trkpt>
      <trkpt lat="45.45689" lon="4.3013">
        <ele>553.79998779297</ele>
        <time>2011-06-18T08:11:14.000Z</time>
      </trkpt>
      <trkpt lat="45.4569" lon="4.30127">
        <ele>553.79998779297</ele>
        <time>2011-06-18T08:11:15.000Z</time>
      </trkpt>
      <trkpt lat="45.45696" lon="4.30104">
        <ele>553.20001220703</ele>
        <time>2011-06-18T08:11:22.000Z</time>
      </trkpt>
      <trkpt lat="45.45702" lon="4.30086">
        <ele>553</ele>
        <time>2011-06-18T08:11:28.000Z</time>
      </trkpt>
      <trkpt lat="45.45708" lon="4.30065">
        <ele>552.59997558594</ele>
        <time>2011-06-18T08:11:35.000Z</time>
      </trkpt>
      <trkpt lat="45.45715" lon="4.30045">
        <ele>552.59997558594</ele>
        <time>2011-06-18T08:11:42.000Z</time>
      </trkpt>
      <trkpt lat="45.4572" lon="4.30029">
        <ele>552.59997558594</ele>
        <time>2011-06-18T08:11:47.000Z</time>
      </trkpt>
      <trkpt lat="45.45725" lon="4.30011">
        <ele>552.40002441406</ele>
        <time>2011-06-18T08:11:53.000Z</time>
      </trkpt>
      <trkpt lat="45.4573" lon="4.29996">
        <ele>552.40002441406</ele>
        <time>2011-06-18T08:11:58.000Z</time>
      </trkpt>
      <trkpt lat="45.45737" lon="4.29979">
        <ele>552.20001220703</ele>
        <time>2011-06-18T08:12:04.000Z</time>
      </trkpt>
      <trkpt lat="45.45742" lon="4.29962">
        <ele>551.79998779297</ele>
        <time>2011-06-18T08:12:10.000Z</time>
      </trkpt>
      <trkpt lat="45.45748" lon="4.29948">
        <ele>551.59997558594</ele>
        <time>2011-06-18T08:12:15.000Z</time>
      </trkpt>
      <trkpt lat="45.45757" lon="4.29929">
        <ele>551.40002441406</ele>
        <time>2011-06-18T08:12:22.000Z</time>
      </trkpt>
      <trkpt lat="45.45764" lon="4.29912">
        <ele>551.20001220703</ele>
        <time>2011-06-18T08:12:28.000Z</time>
      </trkpt>
      <trkpt lat="45.45772" lon="4.29894">
        <ele>551.40002441406</ele>
        <time>2011-06-18T08:12:34.000Z</time>
      </trkpt>
      <trkpt lat="45.4578" lon="4.29877">
        <ele>551.59997558594</ele>
        <time>2011-06-18T08:12:40.000Z</time>
      </trkpt>
      <trkpt lat="45.45786" lon="4.29866">
        <ele>551.59997558594</ele>
        <time>2011-06-18T08:12:44.000Z</time>
      </trkpt>
      <trkpt lat="45.45793" lon="4.29854">
        <ele>551.79998779297</ele>
        <time>2011-06-18T08:12:49.000Z</time>
      </trkpt>
      <trkpt lat="45.45803" lon="4.29841">
        <ele>552</ele>
        <time>2011-06-18T08:12:55.000Z</time>
      </trkpt>
      <trkpt lat="45.45813" lon="4.29831">
        <ele>552.40002441406</ele>
        <time>2011-06-18T08:13:00.000Z</time>
      </trkpt>
      <trkpt lat="45.45826" lon="4.29824">
        <ele>554</ele>
        <time>2011-06-18T08:13:06.000Z</time>
      </trkpt>
      <trkpt lat="45.45838" lon="4.29826">
        <ele>554.79998779297</ele>
        <time>2011-06-18T08:13:11.000Z</time>
      </trkpt>
      <trkpt lat="45.4585" lon="4.29836">
        <ele>555.20001220703</ele>
        <time>2011-06-18T08:13:17.000Z</time>
      </trkpt>
      <trkpt lat="45.45863" lon="4.29841">
        <ele>556.20001220703</ele>
        <time>2011-06-18T08:13:23.000Z</time>
      </trkpt>
      <trkpt lat="45.45879" lon="4.2984">
        <ele>556.20001220703</ele>
        <time>2011-06-18T08:13:30.000Z</time>
      </trkpt>
      <trkpt lat="45.45892" lon="4.29837">
        <ele>555.79998779297</ele>
        <time>2011-06-18T08:13:36.000Z</time>
      </trkpt>
      <trkpt lat="45.45906" lon="4.29834">
        <ele>555</ele>
        <time>2011-06-18T08:13:42.000Z</time>
      </trkpt>
      <trkpt lat="45.45919" lon="4.2983">
        <ele>554.40002441406</ele>
        <time>2011-06-18T08:13:48.000Z</time>
      </trkpt>
      <trkpt lat="45.45937" lon="4.29823">
        <ele>553.20001220703</ele>
        <time>2011-06-18T08:13:56.000Z</time>
      </trkpt>
      <trkpt lat="45.45952" lon="4.29817">
        <ele>552</ele>
        <time>2011-06-18T08:14:03.000Z</time>
      </trkpt>
      <trkpt lat="45.45967" lon="4.29812">
        <ele>551</ele>
        <time>2011-06-18T08:14:10.000Z</time>
      </trkpt>
      <trkpt lat="45.45982" lon="4.29807">
        <ele>549.79998779297</ele>
        <time>2011-06-18T08:14:16.000Z</time>
      </trkpt>
      <trkpt lat="45.4599" lon="4.29805">
        <ele>549.40002441406</ele>
        <time>2011-06-18T08:14:20.000Z</time>
      </trkpt>
      <trkpt lat="45.46005" lon="4.298">
        <ele>547.59997558594</ele>
        <time>2011-06-18T08:14:27.000Z</time>
      </trkpt>
      <trkpt lat="45.46021" lon="4.29793">
        <ele>545.20001220703</ele>
        <time>2011-06-18T08:14:34.000Z</time>
      </trkpt>
      <trkpt lat="45.4603" lon="4.29789">
        <ele>544</ele>
        <time>2011-06-18T08:14:38.000Z</time>
      </trkpt>
      <trkpt lat="45.46043" lon="4.29783">
        <ele>542.20001220703</ele>
        <time>2011-06-18T08:14:44.000Z</time>
      </trkpt>
      <trkpt lat="45.46056" lon="4.29779">
        <ele>541</ele>
        <time>2011-06-18T08:14:49.000Z</time>
      </trkpt>
      <trkpt lat="45.46065" lon="4.29777">
        <ele>540.40002441406</ele>
        <time>2011-06-18T08:14:53.000Z</time>
      </trkpt>
      <trkpt lat="45.46077" lon="4.29775">
        <ele>539.59997558594</ele>
        <time>2011-06-18T08:14:59.000Z</time>
      </trkpt>
      <trkpt lat="45.46083" lon="4.29775">
        <ele>539.40002441406</ele>
        <time>2011-06-18T08:15:02.000Z</time>
      </trkpt>
      <trkpt lat="45.46094" lon="4.29773">
        <ele>538.40002441406</ele>
        <time>2011-06-18T08:15:07.000Z</time>
      </trkpt>
      <trkpt lat="45.46115" lon="4.2978">
        <ele>537.20001220703</ele>
        <time>2011-06-18T08:15:16.000Z</time>
      </trkpt>
      <trkpt lat="45.46127" lon="4.29792">
        <ele>536.40002441406</ele>
        <time>2011-06-18T08:15:22.000Z</time>
      </trkpt>
      <trkpt lat="45.46134" lon="4.29805">
        <ele>536.20001220703</ele>
        <time>2011-06-18T08:15:27.000Z</time>
      </trkpt>
      <trkpt lat="45.46137" lon="4.29818">
        <ele>536.20001220703</ele>
        <time>2011-06-18T08:15:31.000Z</time>
      </trkpt>
      <trkpt lat="45.4614" lon="4.29838">
        <ele>536.20001220703</ele>
        <time>2011-06-18T08:15:37.000Z</time>
      </trkpt>
      <trkpt lat="45.46139" lon="4.29852">
        <ele>536.59997558594</ele>
        <time>2011-06-18T08:15:41.000Z</time>
      </trkpt>
      <trkpt lat="45.46138" lon="4.29871">
        <ele>537</ele>
        <time>2011-06-18T08:15:46.000Z</time>
      </trkpt>
      <trkpt lat="45.46136" lon="4.29884">
        <ele>537.59997558594</ele>
        <time>2011-06-18T08:15:51.000Z</time>
      </trkpt>
      <trkpt lat="45.46135" lon="4.29901">
        <ele>538</ele>
        <time>2011-06-18T08:15:56.000Z</time>
      </trkpt>
      <trkpt lat="45.46136" lon="4.29903">
        <ele>538</ele>
        <time>2011-06-18T08:15:57.000Z</time>
      </trkpt>
      <trkpt lat="45.46142" lon="4.29915">
        <ele>537.40002441406</ele>
        <time>2011-06-18T08:16:02.000Z</time>
      </trkpt>
      <trkpt lat="45.46154" lon="4.29925">
        <ele>536.59997558594</ele>
        <time>2011-06-18T08:16:08.000Z</time>
      </trkpt>
      <trkpt lat="45.46156" lon="4.29926">
        <ele>536.40002441406</ele>
        <time>2011-06-18T08:16:09.000Z</time>
      </trkpt>
      <trkpt lat="45.46168" lon="4.29931">
        <ele>535.20001220703</ele>
        <time>2011-06-18T08:16:15.000Z</time>
      </trkpt>
      <trkpt lat="45.4617" lon="4.29932">
        <ele>534.79998779297</ele>
        <time>2011-06-18T08:16:16.000Z</time>
      </trkpt>
      <trkpt lat="45.46187" lon="4.29938">
        <ele>533.20001220703</ele>
        <time>2011-06-18T08:16:23.000Z</time>
      </trkpt>
      <trkpt lat="45.46195" lon="4.29953">
        <ele>533.79998779297</ele>
        <time>2011-06-18T08:16:29.000Z</time>
      </trkpt>
      <trkpt lat="45.46197" lon="4.29956">
        <ele>533.79998779297</ele>
        <time>2011-06-18T08:16:30.000Z</time>
      </trkpt>
      <trkpt lat="45.46208" lon="4.29967">
        <ele>533.79998779297</ele>
        <time>2011-06-18T08:16:36.000Z</time>
      </trkpt>
      <trkpt lat="45.46215" lon="4.29975">
        <ele>533.79998779297</ele>
        <time>2011-06-18T08:16:40.000Z</time>
      </trkpt>
      <trkpt lat="45.46224" lon="4.29983">
        <ele>533.59997558594</ele>
        <time>2011-06-18T08:16:45.000Z</time>
      </trkpt>
      <trkpt lat="45.46226" lon="4.29984">
        <ele>533.59997558594</ele>
        <time>2011-06-18T08:16:46.000Z</time>
      </trkpt>
      <trkpt lat="45.4624" lon="4.29993">
        <ele>533</ele>
        <time>2011-06-18T08:16:53.000Z</time>
      </trkpt>
      <trkpt lat="45.46251" lon="4.3">
        <ele>532.79998779297</ele>
        <time>2011-06-18T08:16:58.000Z</time>
      </trkpt>
      <trkpt lat="45.46263" lon="4.30007">
        <ele>531.79998779297</ele>
        <time>2011-06-18T08:17:04.000Z</time>
      </trkpt>
      <trkpt lat="45.46276" lon="4.30013">
        <ele>530</ele>
        <time>2011-06-18T08:17:10.000Z</time>
      </trkpt>
      <trkpt lat="45.46285" lon="4.30018">
        <ele>529.20001220703</ele>
        <time>2011-06-18T08:17:15.000Z</time>
      </trkpt>
      <trkpt lat="45.46291" lon="4.30023">
        <ele>528.40002441406</ele>
        <time>2011-06-18T08:17:19.000Z</time>
      </trkpt>
      <trkpt lat="45.46303" lon="4.30032">
        <ele>527.40002441406</ele>
        <time>2011-06-18T08:17:25.000Z</time>
      </trkpt>
      <trkpt lat="45.46311" lon="4.30037">
        <ele>526.40002441406</ele>
        <time>2011-06-18T08:17:29.000Z</time>
      </trkpt>
      <trkpt lat="45.46321" lon="4.30045">
        <ele>525.20001220703</ele>
        <time>2011-06-18T08:17:34.000Z</time>
      </trkpt>
      <trkpt lat="45.46328" lon="4.30051">
        <ele>524.40002441406</ele>
        <time>2011-06-18T08:17:37.000Z</time>
      </trkpt>
      <trkpt lat="45.46334" lon="4.30058">
        <ele>523.79998779297</ele>
        <time>2011-06-18T08:17:41.000Z</time>
      </trkpt>
      <trkpt lat="45.46343" lon="4.30066">
        <ele>523</ele>
        <time>2011-06-18T08:17:46.000Z</time>
      </trkpt>
      <trkpt lat="45.46351" lon="4.30077">
        <ele>522.59997558594</ele>
        <time>2011-06-18T08:17:52.000Z</time>
      </trkpt>
      <trkpt lat="45.46356" lon="4.30083">
        <ele>522</ele>
        <time>2011-06-18T08:17:55.000Z</time>
      </trkpt>
      <trkpt lat="45.46368" lon="4.30094">
        <ele>520.40002441406</ele>
        <time>2011-06-18T08:18:00.000Z</time>
      </trkpt>
      <trkpt lat="45.46375" lon="4.30099">
        <ele>519.40002441406</ele>
        <time>2011-06-18T08:18:03.000Z</time>
      </trkpt>
      <trkpt lat="45.46384" lon="4.30112">
        <ele>518.40002441406</ele>
        <time>2011-06-18T08:18:09.000Z</time>
      </trkpt>
      <trkpt lat="45.46388" lon="4.30116">
        <ele>518.20001220703</ele>
        <time>2011-06-18T08:18:11.000Z</time>
      </trkpt>
      <trkpt lat="45.46397" lon="4.30126">
        <ele>516.79998779297</ele>
        <time>2011-06-18T08:18:16.000Z</time>
      </trkpt>
      <trkpt lat="45.46402" lon="4.30132">
        <ele>515.79998779297</ele>
        <time>2011-06-18T08:18:19.000Z</time>
      </trkpt>
      <trkpt lat="45.4641" lon="4.30132">
        <ele>513.79998779297</ele>
        <time>2011-06-18T08:18:24.000Z</time>
      </trkpt>
      <trkpt lat="45.4641" lon="4.3013">
        <ele>513.79998779297</ele>
        <time>2011-06-18T08:18:25.000Z</time>
      </trkpt>
      <trkpt lat="45.46405" lon="4.3012">
        <ele>514.40002441406</ele>
        <time>2011-06-18T08:18:30.000Z</time>
      </trkpt>
      <trkpt lat="45.46403" lon="4.30115">
        <ele>514.59997558594</ele>
        <time>2011-06-18T08:18:33.000Z</time>
      </trkpt>
      <trkpt lat="45.46395" lon="4.30103">
        <ele>515.20001220703</ele>
        <time>2011-06-18T08:18:39.000Z</time>
      </trkpt>
      <trkpt lat="45.46394" lon="4.30101">
        <ele>515.40002441406</ele>
        <time>2011-06-18T08:18:40.000Z</time>
      </trkpt>
      <trkpt lat="45.46389" lon="4.30086">
        <ele>515</ele>
        <time>2011-06-18T08:18:46.000Z</time>
      </trkpt>
      <trkpt lat="45.46387" lon="4.3008">
        <ele>515</ele>
        <time>2011-06-18T08:18:48.000Z</time>
      </trkpt>
      <trkpt lat="45.46382" lon="4.30064">
        <ele>515.20001220703</ele>
        <time>2011-06-18T08:18:55.000Z</time>
      </trkpt>
      <trkpt lat="45.46381" lon="4.30054">
        <ele>514.79998779297</ele>
        <time>2011-06-18T08:18:59.000Z</time>
      </trkpt>
      <trkpt lat="45.4638" lon="4.30041">
        <ele>514.20001220703</ele>
        <time>2011-06-18T08:19:04.000Z</time>
      </trkpt>
      <trkpt lat="45.46379" lon="4.30036">
        <ele>514</ele>
        <time>2011-06-18T08:19:06.000Z</time>
      </trkpt>
      <trkpt lat="45.46375" lon="4.3002">
        <ele>513.59997558594</ele>
        <time>2011-06-18T08:19:11.000Z</time>
      </trkpt>
      <trkpt lat="45.46371" lon="4.30002">
        <ele>513</ele>
        <time>2011-06-18T08:19:16.000Z</time>
      </trkpt>
      <trkpt lat="45.4637" lon="4.29988">
        <ele>512.79998779297</ele>
        <time>2011-06-18T08:19:20.000Z</time>
      </trkpt>
      <trkpt lat="45.46365" lon="4.2997">
        <ele>512.79998779297</ele>
        <time>2011-06-18T08:19:26.000Z</time>
      </trkpt>
      <trkpt lat="45.46362" lon="4.29953">
        <ele>512.79998779297</ele>
        <time>2011-06-18T08:19:31.000Z</time>
      </trkpt>
      <trkpt lat="45.46358" lon="4.29944">
        <ele>512.79998779297</ele>
        <time>2011-06-18T08:19:34.000Z</time>
      </trkpt>
      <trkpt lat="45.46355" lon="4.29932">
        <ele>512.59997558594</ele>
        <time>2011-06-18T08:19:39.000Z</time>
      </trkpt>
      <trkpt lat="45.46358" lon="4.29926">
        <ele>512.20001220703</ele>
        <time>2011-06-18T08:19:41.000Z</time>
      </trkpt>
      <trkpt lat="45.46362" lon="4.29914">
        <ele>511.79998779297</ele>
        <time>2011-06-18T08:19:46.000Z</time>
      </trkpt>
      <trkpt lat="45.46369" lon="4.29897">
        <ele>511.20001220703</ele>
        <time>2011-06-18T08:19:52.000Z</time>
      </trkpt>
      <trkpt lat="45.46371" lon="4.29888">
        <ele>511</ele>
        <time>2011-06-18T08:19:55.000Z</time>
      </trkpt>
      <trkpt lat="45.4637" lon="4.29868">
        <ele>510.79998779297</ele>
        <time>2011-06-18T08:20:02.000Z</time>
      </trkpt>
      <trkpt lat="45.46362" lon="4.29851">
        <ele>510.20001220703</ele>
        <time>2011-06-18T08:20:08.000Z</time>
      </trkpt>
      <trkpt lat="45.46359" lon="4.29846">
        <ele>509.79998779297</ele>
        <time>2011-06-18T08:20:10.000Z</time>
      </trkpt>
      <trkpt lat="45.46352" lon="4.29829">
        <ele>508.79998779297</ele>
        <time>2011-06-18T08:20:16.000Z</time>
      </trkpt>
      <trkpt lat="45.46346" lon="4.29815">
        <ele>508</ele>
        <time>2011-06-18T08:20:21.000Z</time>
      </trkpt>
      <trkpt lat="45.4634" lon="4.29796">
        <ele>506.79998779297</ele>
        <time>2011-06-18T08:20:27.000Z</time>
      </trkpt>
      <trkpt lat="45.46337" lon="4.29788">
        <ele>506.20001220703</ele>
        <time>2011-06-18T08:20:30.000Z</time>
      </trkpt>
      <trkpt lat="45.46336" lon="4.29767">
        <ele>505</ele>
        <time>2011-06-18T08:20:37.000Z</time>
      </trkpt>
      <trkpt lat="45.46329" lon="4.29745">
        <ele>504.79998779297</ele>
        <time>2011-06-18T08:20:44.000Z</time>
      </trkpt>
      <trkpt lat="45.46328" lon="4.29725">
        <ele>504.60000610352</ele>
        <time>2011-06-18T08:20:50.000Z</time>
      </trkpt>
      <trkpt lat="45.46327" lon="4.29707">
        <ele>504.20001220703</ele>
        <time>2011-06-18T08:20:55.000Z</time>
      </trkpt>
      <trkpt lat="45.46321" lon="4.29693">
        <ele>505</ele>
        <time>2011-06-18T08:20:59.000Z</time>
      </trkpt>
      <trkpt lat="45.46316" lon="4.29681">
        <ele>505.39999389648</ele>
        <time>2011-06-18T08:21:04.000Z</time>
      </trkpt>
      <trkpt lat="45.46315" lon="4.2966">
        <ele>504.39999389648</ele>
        <time>2011-06-18T08:21:10.000Z</time>
      </trkpt>
      <trkpt lat="45.46315" lon="4.29642">
        <ele>503.20001220703</ele>
        <time>2011-06-18T08:21:15.000Z</time>
      </trkpt>
      <trkpt lat="45.46317" lon="4.29619">
        <ele>501.39999389648</ele>
        <time>2011-06-18T08:21:22.000Z</time>
      </trkpt>
      <trkpt lat="45.4632" lon="4.29604">
        <ele>499.79998779297</ele>
        <time>2011-06-18T08:21:27.000Z</time>
      </trkpt>
      <trkpt lat="45.46326" lon="4.29588">
        <ele>498</ele>
        <time>2011-06-18T08:21:32.000Z</time>
      </trkpt>
      <trkpt lat="45.46332" lon="4.29576">
        <ele>496.79998779297</ele>
        <time>2011-06-18T08:21:38.000Z</time>
      </trkpt>
      <trkpt lat="45.4634" lon="4.29563">
        <ele>497.20001220703</ele>
        <time>2011-06-18T08:21:43.000Z</time>
      </trkpt>
      <trkpt lat="45.46342" lon="4.29561">
        <ele>497.39999389648</ele>
        <time>2011-06-18T08:21:44.000Z</time>
      </trkpt>
      <trkpt lat="45.46344" lon="4.29547">
        <ele>497.20001220703</ele>
        <time>2011-06-18T08:21:49.000Z</time>
      </trkpt>
      <trkpt lat="45.46352" lon="4.29526">
        <ele>497.60000610352</ele>
        <time>2011-06-18T08:21:56.000Z</time>
      </trkpt>
      <trkpt lat="45.4636" lon="4.29515">
        <ele>498.39999389648</ele>
        <time>2011-06-18T08:22:01.000Z</time>
      </trkpt>
      <trkpt lat="45.46372" lon="4.29505">
        <ele>499.79998779297</ele>
        <time>2011-06-18T08:22:07.000Z</time>
      </trkpt>
      <trkpt lat="45.46382" lon="4.29491">
        <ele>500.60000610352</ele>
        <time>2011-06-18T08:22:13.000Z</time>
      </trkpt>
      <trkpt lat="45.46388" lon="4.29476">
        <ele>500.60000610352</ele>
        <time>2011-06-18T08:22:18.000Z</time>
      </trkpt>
      <trkpt lat="45.46396" lon="4.29461">
        <ele>500.20001220703</ele>
        <time>2011-06-18T08:22:23.000Z</time>
      </trkpt>
      <trkpt lat="45.464" lon="4.29453">
        <ele>500</ele>
        <time>2011-06-18T08:22:26.000Z</time>
      </trkpt>
      <trkpt lat="45.46404" lon="4.2944">
        <ele>499</ele>
        <time>2011-06-18T08:22:30.000Z</time>
      </trkpt>
      <trkpt lat="45.46409" lon="4.29426">
        <ele>497.79998779297</ele>
        <time>2011-06-18T08:22:35.000Z</time>
      </trkpt>
      <trkpt lat="45.46412" lon="4.29416">
        <ele>497</ele>
        <time>2011-06-18T08:22:38.000Z</time>
      </trkpt>
      <trkpt lat="45.46416" lon="4.29405">
        <ele>496.20001220703</ele>
        <time>2011-06-18T08:22:42.000Z</time>
      </trkpt>
      <trkpt lat="45.46422" lon="4.29386">
        <ele>496.60000610352</ele>
        <time>2011-06-18T08:22:48.000Z</time>
      </trkpt>
      <trkpt lat="45.46429" lon="4.29371">
        <ele>497.60000610352</ele>
        <time>2011-06-18T08:22:53.000Z</time>
      </trkpt>
      <trkpt lat="45.46436" lon="4.29357">
        <ele>498.20001220703</ele>
        <time>2011-06-18T08:22:58.000Z</time>
      </trkpt>
      <trkpt lat="45.46446" lon="4.29334">
        <ele>498</ele>
        <time>2011-06-18T08:23:06.000Z</time>
      </trkpt>
      <trkpt lat="45.46455" lon="4.29316">
        <ele>497.60000610352</ele>
        <time>2011-06-18T08:23:12.000Z</time>
      </trkpt>
      <trkpt lat="45.46461" lon="4.29298">
        <ele>496.20001220703</ele>
        <time>2011-06-18T08:23:18.000Z</time>
      </trkpt>
      <trkpt lat="45.46468" lon="4.29279">
        <ele>494.20001220703</ele>
        <time>2011-06-18T08:23:24.000Z</time>
      </trkpt>
      <trkpt lat="45.46474" lon="4.29263">
        <ele>492</ele>
        <time>2011-06-18T08:23:29.000Z</time>
      </trkpt>
      <trkpt lat="45.4648" lon="4.29248">
        <ele>489.79998779297</ele>
        <time>2011-06-18T08:23:34.000Z</time>
      </trkpt>
      <trkpt lat="45.4649" lon="4.29233">
        <ele>488.20001220703</ele>
        <time>2011-06-18T08:23:40.000Z</time>
      </trkpt>
      <trkpt lat="45.46491" lon="4.2923">
        <ele>488</ele>
        <time>2011-06-18T08:23:41.000Z</time>
      </trkpt>
      <trkpt lat="45.46496" lon="4.29215">
        <ele>486</ele>
        <time>2011-06-18T08:23:46.000Z</time>
      </trkpt>
      <trkpt lat="45.46503" lon="4.29199">
        <ele>484.60000610352</ele>
        <time>2011-06-18T08:23:51.000Z</time>
      </trkpt>
      <trkpt lat="45.46511" lon="4.29182">
        <ele>485</ele>
        <time>2011-06-18T08:23:57.000Z</time>
      </trkpt>
      <trkpt lat="45.4652" lon="4.2917">
        <ele>485.79998779297</ele>
        <time>2011-06-18T08:24:02.000Z</time>
      </trkpt>
      <trkpt lat="45.46527" lon="4.29156">
        <ele>486.60000610352</ele>
        <time>2011-06-18T08:24:07.000Z</time>
      </trkpt>
      <trkpt lat="45.46532" lon="4.2915">
        <ele>487.39999389648</ele>
        <time>2011-06-18T08:24:10.000Z</time>
      </trkpt>
      <trkpt lat="45.46536" lon="4.29148">
        <ele>488</ele>
        <time>2011-06-18T08:24:13.000Z</time>
      </trkpt>
      <trkpt lat="45.46538" lon="4.29146">
        <ele>488.39999389648</ele>
        <time>2011-06-18T08:24:18.000Z</time>
      </trkpt>
      <trkpt lat="45.46542" lon="4.29141">
        <ele>489</ele>
        <time>2011-06-18T08:24:24.000Z</time>
      </trkpt>
      <trkpt lat="45.46554" lon="4.29132">
        <ele>490</ele>
        <time>2011-06-18T08:24:29.000Z</time>
      </trkpt>
      <trkpt lat="45.46567" lon="4.2912">
        <ele>490.79998779297</ele>
        <time>2011-06-18T08:24:36.000Z</time>
      </trkpt>
      <trkpt lat="45.46577" lon="4.29103">
        <ele>489.20001220703</ele>
        <time>2011-06-18T08:24:42.000Z</time>
      </trkpt>
      <trkpt lat="45.46581" lon="4.29089">
        <ele>486.79998779297</ele>
        <time>2011-06-18T08:24:47.000Z</time>
      </trkpt>
      <trkpt lat="45.46583" lon="4.29079">
        <ele>485.39999389648</ele>
        <time>2011-06-18T08:24:54.000Z</time>
      </trkpt>
      <trkpt lat="45.46582" lon="4.29071">
        <ele>484.79998779297</ele>
        <time>2011-06-18T08:24:58.000Z</time>
      </trkpt>
      <trkpt lat="45.46582" lon="4.29064">
        <ele>484.20001220703</ele>
        <time>2011-06-18T08:25:02.000Z</time>
      </trkpt>
      <trkpt lat="45.46583" lon="4.29061">
        <ele>484</ele>
        <time>2011-06-18T08:25:07.000Z</time>
      </trkpt>
      <trkpt lat="45.46586" lon="4.29052">
        <ele>484.20001220703</ele>
        <time>2011-06-18T08:26:33.000Z</time>
      </trkpt>
      <trkpt lat="45.46587" lon="4.29042">
        <ele>483.79998779297</ele>
        <time>2011-06-18T08:26:38.000Z</time>
      </trkpt>
      <trkpt lat="45.46589" lon="4.29032">
        <ele>483.60000610352</ele>
        <time>2011-06-18T08:26:43.000Z</time>
      </trkpt>
      <trkpt lat="45.46591" lon="4.29025">
        <ele>483.60000610352</ele>
        <time>2011-06-18T08:26:47.000Z</time>
      </trkpt>
      <trkpt lat="45.46593" lon="4.2901">
        <ele>482.60000610352</ele>
        <time>2011-06-18T08:26:55.000Z</time>
      </trkpt>
      <trkpt lat="45.46594" lon="4.28996">
        <ele>482</ele>
        <time>2011-06-18T08:27:02.000Z</time>
      </trkpt>
      <trkpt lat="45.46595" lon="4.28983">
        <ele>482.39999389648</ele>
        <time>2011-06-18T08:27:09.000Z</time>
      </trkpt>
      <trkpt lat="45.46597" lon="4.28971">
        <ele>482.79998779297</ele>
        <time>2011-06-18T08:27:15.000Z</time>
      </trkpt>
      <trkpt lat="45.46599" lon="4.28964">
        <ele>483.20001220703</ele>
        <time>2011-06-18T08:27:19.000Z</time>
      </trkpt>
      <trkpt lat="45.46602" lon="4.28947">
        <ele>483.79998779297</ele>
        <time>2011-06-18T08:27:28.000Z</time>
      </trkpt>
      <trkpt lat="45.46604" lon="4.28934">
        <ele>484.39999389648</ele>
        <time>2011-06-18T08:27:35.000Z</time>
      </trkpt>
      <trkpt lat="45.46608" lon="4.28921">
        <ele>485.20001220703</ele>
        <time>2011-06-18T08:27:42.000Z</time>
      </trkpt>
      <trkpt lat="45.46611" lon="4.28912">
        <ele>486</ele>
        <time>2011-06-18T08:27:47.000Z</time>
      </trkpt>
      <trkpt lat="45.46614" lon="4.28903">
        <ele>486.39999389648</ele>
        <time>2011-06-18T08:27:51.000Z</time>
      </trkpt>
      <trkpt lat="45.46617" lon="4.28882">
        <ele>486.79998779297</ele>
        <time>2011-06-18T08:27:57.000Z</time>
      </trkpt>
      <trkpt lat="45.46618" lon="4.28863">
        <ele>486.79998779297</ele>
        <time>2011-06-18T08:28:03.000Z</time>
      </trkpt>
      <trkpt lat="45.46619" lon="4.28847">
        <ele>486.79998779297</ele>
        <time>2011-06-18T08:28:08.000Z</time>
      </trkpt>
      <trkpt lat="45.4662" lon="4.28831">
        <ele>486.60000610352</ele>
        <time>2011-06-18T08:28:13.000Z</time>
      </trkpt>
      <trkpt lat="45.4662" lon="4.28814">
        <ele>486</ele>
        <time>2011-06-18T08:28:18.000Z</time>
      </trkpt>
      <trkpt lat="45.46619" lon="4.28789">
        <ele>485</ele>
        <time>2011-06-18T08:28:25.000Z</time>
      </trkpt>
      <trkpt lat="45.46619" lon="4.2877">
        <ele>484.60000610352</ele>
        <time>2011-06-18T08:28:31.000Z</time>
      </trkpt>
      <trkpt lat="45.4662" lon="4.28764">
        <ele>484.39999389648</ele>
        <time>2011-06-18T08:28:33.000Z</time>
      </trkpt>
      <trkpt lat="45.46622" lon="4.28756">
        <ele>484.20001220703</ele>
        <time>2011-06-18T08:28:37.000Z</time>
      </trkpt>
      <trkpt lat="45.46621" lon="4.28739">
        <ele>484.20001220703</ele>
        <time>2011-06-18T08:28:43.000Z</time>
      </trkpt>
      <trkpt lat="45.46619" lon="4.28721">
        <ele>484.39999389648</ele>
        <time>2011-06-18T08:28:49.000Z</time>
      </trkpt>
      <trkpt lat="45.46617" lon="4.28706">
        <ele>484.60000610352</ele>
        <time>2011-06-18T08:28:54.000Z</time>
      </trkpt>
      <trkpt lat="45.46613" lon="4.2869">
        <ele>484.79998779297</ele>
        <time>2011-06-18T08:29:00.000Z</time>
      </trkpt>
      <trkpt lat="45.46614" lon="4.28672">
        <ele>485</ele>
        <time>2011-06-18T08:29:06.000Z</time>
      </trkpt>
      <trkpt lat="45.46615" lon="4.28654">
        <ele>485.39999389648</ele>
        <time>2011-06-18T08:29:12.000Z</time>
      </trkpt>
      <trkpt lat="45.46617" lon="4.28635">
        <ele>485.79998779297</ele>
        <time>2011-06-18T08:29:18.000Z</time>
      </trkpt>
      <trkpt lat="45.46618" lon="4.28618">
        <ele>486.20001220703</ele>
        <time>2011-06-18T08:29:23.000Z</time>
      </trkpt>
      <trkpt lat="45.46617" lon="4.28603">
        <ele>486.20001220703</ele>
        <time>2011-06-18T08:29:28.000Z</time>
      </trkpt>
      <trkpt lat="45.46615" lon="4.28588">
        <ele>486.20001220703</ele>
        <time>2011-06-18T08:29:33.000Z</time>
      </trkpt>
      <trkpt lat="45.46612" lon="4.28571">
        <ele>485.20001220703</ele>
        <time>2011-06-18T08:29:38.000Z</time>
      </trkpt>
      <trkpt lat="45.46613" lon="4.28568">
        <ele>485.20001220703</ele>
        <time>2011-06-18T08:29:39.000Z</time>
      </trkpt>
      <trkpt lat="45.46617" lon="4.28562">
        <ele>485.60000610352</ele>
        <time>2011-06-18T08:29:42.000Z</time>
      </trkpt>
      <trkpt lat="45.46615" lon="4.28551">
        <ele>484.79998779297</ele>
        <time>2011-06-18T08:29:47.000Z</time>
      </trkpt>
      <trkpt lat="45.46611" lon="4.28536">
        <ele>483.60000610352</ele>
        <time>2011-06-18T08:29:54.000Z</time>
      </trkpt>
      <trkpt lat="45.46611" lon="4.2853">
        <ele>483.39999389648</ele>
        <time>2011-06-18T08:29:56.000Z</time>
      </trkpt>
      <trkpt lat="45.46616" lon="4.28512">
        <ele>483</ele>
        <time>2011-06-18T08:30:02.000Z</time>
      </trkpt>
      <trkpt lat="45.46621" lon="4.28502">
        <ele>482.79998779297</ele>
        <time>2011-06-18T08:30:06.000Z</time>
      </trkpt>
      <trkpt lat="45.46629" lon="4.28489">
        <ele>482.60000610352</ele>
        <time>2011-06-18T08:30:12.000Z</time>
      </trkpt>
      <trkpt lat="45.46639" lon="4.2848">
        <ele>482.20001220703</ele>
        <time>2011-06-18T08:30:18.000Z</time>
      </trkpt>
      <trkpt lat="45.46651" lon="4.28467">
        <ele>481.39999389648</ele>
        <time>2011-06-18T08:30:25.000Z</time>
      </trkpt>
      <trkpt lat="45.46653" lon="4.28465">
        <ele>481.20001220703</ele>
        <time>2011-06-18T08:30:26.000Z</time>
      </trkpt>
      <trkpt lat="45.46664" lon="4.28457">
        <ele>480.39999389648</ele>
        <time>2011-06-18T08:30:32.000Z</time>
      </trkpt>
      <trkpt lat="45.46675" lon="4.28453">
        <ele>481.39999389648</ele>
        <time>2011-06-18T08:30:38.000Z</time>
      </trkpt>
      <trkpt lat="45.46675" lon="4.2844">
        <ele>480</ele>
        <time>2011-06-18T08:30:43.000Z</time>
      </trkpt>
      <trkpt lat="45.46666" lon="4.28436">
        <ele>478</ele>
        <time>2011-06-18T08:30:49.000Z</time>
      </trkpt>
      <trkpt lat="45.46661" lon="4.28431">
        <ele>477.79998779297</ele>
        <time>2011-06-18T08:30:52.000Z</time>
      </trkpt>
      <trkpt lat="45.46656" lon="4.28421">
        <ele>477.20001220703</ele>
        <time>2011-06-18T08:30:56.000Z</time>
      </trkpt>
      <trkpt lat="45.46652" lon="4.28401">
        <ele>477.60000610352</ele>
        <time>2011-06-18T08:31:03.000Z</time>
      </trkpt>
      <trkpt lat="45.46653" lon="4.28394">
        <ele>477.79998779297</ele>
        <time>2011-06-18T08:31:06.000Z</time>
      </trkpt>
      <trkpt lat="45.46652" lon="4.28382">
        <ele>478.20001220703</ele>
        <time>2011-06-18T08:31:11.000Z</time>
      </trkpt>
      <trkpt lat="45.46652" lon="4.28376">
        <ele>478.39999389648</ele>
        <time>2011-06-18T08:31:13.000Z</time>
      </trkpt>
      <trkpt lat="45.46649" lon="4.28361">
        <ele>479</ele>
        <time>2011-06-18T08:31:18.000Z</time>
      </trkpt>
      <trkpt lat="45.46649" lon="4.28357">
        <ele>479.20001220703</ele>
        <time>2011-06-18T08:31:19.000Z</time>
      </trkpt>
      <trkpt lat="45.46649" lon="4.28337">
        <ele>479.79998779297</ele>
        <time>2011-06-18T08:31:25.000Z</time>
      </trkpt>
      <trkpt lat="45.46649" lon="4.28322">
        <ele>479.79998779297</ele>
        <time>2011-06-18T08:31:30.000Z</time>
      </trkpt>
      <trkpt lat="45.46644" lon="4.28302">
        <ele>479.79998779297</ele>
        <time>2011-06-18T08:31:36.000Z</time>
      </trkpt>
      <trkpt lat="45.46645" lon="4.28295">
        <ele>479.60000610352</ele>
        <time>2011-06-18T08:31:38.000Z</time>
      </trkpt>
      <trkpt lat="45.46646" lon="4.28282">
        <ele>479.39999389648</ele>
        <time>2011-06-18T08:31:42.000Z</time>
      </trkpt>
      <trkpt lat="45.46649" lon="4.28267">
        <ele>478.79998779297</ele>
        <time>2011-06-18T08:31:47.000Z</time>
      </trkpt>
      <trkpt lat="45.46653" lon="4.2825">
        <ele>478.20001220703</ele>
        <time>2011-06-18T08:31:53.000Z</time>
      </trkpt>
      <trkpt lat="45.46658" lon="4.28236">
        <ele>477</ele>
        <time>2011-06-18T08:31:58.000Z</time>
      </trkpt>
      <trkpt lat="45.46663" lon="4.28223">
        <ele>475.60000610352</ele>
        <time>2011-06-18T08:32:03.000Z</time>
      </trkpt>
      <trkpt lat="45.46669" lon="4.28207">
        <ele>475.20001220703</ele>
        <time>2011-06-18T08:32:09.000Z</time>
      </trkpt>
      <trkpt lat="45.4667" lon="4.28204">
        <ele>475.39999389648</ele>
        <time>2011-06-18T08:32:10.000Z</time>
      </trkpt>
      <trkpt lat="45.46674" lon="4.28195">
        <ele>476.60000610352</ele>
        <time>2011-06-18T08:32:14.000Z</time>
      </trkpt>
      <trkpt lat="45.46677" lon="4.28185">
        <ele>477.39999389648</ele>
        <time>2011-06-18T08:32:18.000Z</time>
      </trkpt>
      <trkpt lat="45.46674" lon="4.28173">
        <ele>475.20001220703</ele>
        <time>2011-06-18T08:32:24.000Z</time>
      </trkpt>
      <trkpt lat="45.46671" lon="4.28168">
        <ele>473.79998779297</ele>
        <time>2011-06-18T08:32:28.000Z</time>
      </trkpt>
      <trkpt lat="45.4667" lon="4.28164">
        <ele>473.39999389648</ele>
        <time>2011-06-18T08:32:30.000Z</time>
      </trkpt>
      <trkpt lat="45.46669" lon="4.28159">
        <ele>473</ele>
        <time>2011-06-18T08:32:32.000Z</time>
      </trkpt>
      <trkpt lat="45.46664" lon="4.28149">
        <ele>472.60000610352</ele>
        <time>2011-06-18T08:32:38.000Z</time>
      </trkpt>
      <trkpt lat="45.46662" lon="4.28149">
        <ele>472.79998779297</ele>
        <time>2011-06-18T08:32:40.000Z</time>
      </trkpt>
      <trkpt lat="45.4665" lon="4.28149">
        <ele>473.79998779297</ele>
        <time>2011-06-18T08:32:48.000Z</time>
      </trkpt>
      <trkpt lat="45.46649" lon="4.28149">
        <ele>474</ele>
        <time>2011-06-18T08:32:49.000Z</time>
      </trkpt>
      <trkpt lat="45.46641" lon="4.28147">
        <ele>474.60000610352</ele>
        <time>2011-06-18T08:32:53.000Z</time>
      </trkpt>
      <trkpt lat="45.46631" lon="4.2814">
        <ele>475.60000610352</ele>
        <time>2011-06-18T08:33:00.000Z</time>
      </trkpt>
      <trkpt lat="45.46624" lon="4.28136">
        <ele>476</ele>
        <time>2011-06-18T08:33:06.000Z</time>
      </trkpt>
      <trkpt lat="45.46624" lon="4.28135">
        <ele>476.20001220703</ele>
        <time>2011-06-18T08:33:07.000Z</time>
      </trkpt>
      <trkpt lat="45.46617" lon="4.28127">
        <ele>476.60000610352</ele>
        <time>2011-06-18T08:33:14.000Z</time>
      </trkpt>
      <trkpt lat="45.46611" lon="4.28121">
        <ele>476.79998779297</ele>
        <time>2011-06-18T08:33:20.000Z</time>
      </trkpt>
      <trkpt lat="45.4661" lon="4.28117">
        <ele>476.79998779297</ele>
        <time>2011-06-18T08:33:22.000Z</time>
      </trkpt>
      <trkpt lat="45.46605" lon="4.2811">
        <ele>476.79998779297</ele>
        <time>2011-06-18T08:33:27.000Z</time>
      </trkpt>
      <trkpt lat="45.46597" lon="4.28106">
        <ele>477.20001220703</ele>
        <time>2011-06-18T08:33:33.000Z</time>
      </trkpt>
      <trkpt lat="45.4659" lon="4.28106">
        <ele>477.60000610352</ele>
        <time>2011-06-18T08:33:38.000Z</time>
      </trkpt>
      <trkpt lat="45.46582" lon="4.28102">
        <ele>478.20001220703</ele>
        <time>2011-06-18T08:33:44.000Z</time>
      </trkpt>
      <trkpt lat="45.46578" lon="4.28098">
        <ele>478.79998779297</ele>
        <time>2011-06-18T08:33:47.000Z</time>
      </trkpt>
      <trkpt lat="45.46572" lon="4.28086">
        <ele>480.20001220703</ele>
        <time>2011-06-18T08:33:53.000Z</time>
      </trkpt>
      <trkpt lat="45.46569" lon="4.2808">
        <ele>480.60000610352</ele>
        <time>2011-06-18T08:33:57.000Z</time>
      </trkpt>
      <trkpt lat="45.46563" lon="4.2807">
        <ele>481.60000610352</ele>
        <time>2011-06-18T08:34:04.000Z</time>
      </trkpt>
      <trkpt lat="45.46557" lon="4.28063">
        <ele>482.79998779297</ele>
        <time>2011-06-18T08:34:09.000Z</time>
      </trkpt>
      <trkpt lat="45.46551" lon="4.28054">
        <ele>484.20001220703</ele>
        <time>2011-06-18T08:34:14.000Z</time>
      </trkpt>
      <trkpt lat="45.46542" lon="4.28043">
        <ele>486.39999389648</ele>
        <time>2011-06-18T08:34:21.000Z</time>
      </trkpt>
      <trkpt lat="45.46532" lon="4.28031">
        <ele>489.20001220703</ele>
        <time>2011-06-18T08:34:28.000Z</time>
      </trkpt>
      <trkpt lat="45.46529" lon="4.28029">
        <ele>490.20001220703</ele>
        <time>2011-06-18T08:34:30.000Z</time>
      </trkpt>
      <trkpt lat="45.46521" lon="4.28018">
        <ele>492.39999389648</ele>
        <time>2011-06-18T08:34:36.000Z</time>
      </trkpt>
      <trkpt lat="45.46518" lon="4.28015">
        <ele>493.39999389648</ele>
        <time>2011-06-18T08:34:38.000Z</time>
      </trkpt>
      <trkpt lat="45.46512" lon="4.28004">
        <ele>495.39999389648</ele>
        <time>2011-06-18T08:34:44.000Z</time>
      </trkpt>
      <trkpt lat="45.46509" lon="4.27999">
        <ele>496.20001220703</ele>
        <time>2011-06-18T08:34:48.000Z</time>
      </trkpt>
      <trkpt lat="45.46503" lon="4.27989">
        <ele>497.20001220703</ele>
        <time>2011-06-18T08:34:54.000Z</time>
      </trkpt>
      <trkpt lat="45.46494" lon="4.27981">
        <ele>499.39999389648</ele>
        <time>2011-06-18T08:35:00.000Z</time>
      </trkpt>
      <trkpt lat="45.46494" lon="4.27979">
        <ele>499.39999389648</ele>
        <time>2011-06-18T08:35:01.000Z</time>
      </trkpt>
      <trkpt lat="45.46486" lon="4.27971">
        <ele>501.20001220703</ele>
        <time>2011-06-18T08:35:08.000Z</time>
      </trkpt>
      <trkpt lat="45.46477" lon="4.27962">
        <ele>503.39999389648</ele>
        <time>2011-06-18T08:35:14.000Z</time>
      </trkpt>
      <trkpt lat="45.46472" lon="4.27955">
        <ele>504.39999389648</ele>
        <time>2011-06-18T08:35:19.000Z</time>
      </trkpt>
      <trkpt lat="45.4647" lon="4.27951">
        <ele>504.39999389648</ele>
        <time>2011-06-18T08:35:23.000Z</time>
      </trkpt>
      <trkpt lat="45.46466" lon="4.2794">
        <ele>504.79998779297</ele>
        <time>2011-06-18T08:35:35.000Z</time>
      </trkpt>
      <trkpt lat="45.46468" lon="4.27933">
        <ele>503.39999389648</ele>
        <time>2011-06-18T08:36:10.000Z</time>
      </trkpt>
      <trkpt lat="45.46469" lon="4.27932">
        <ele>502.79998779297</ele>
        <time>2011-06-18T08:36:15.000Z</time>
      </trkpt>
      <trkpt lat="45.46449" lon="4.27911">
        <ele>508.39999389648</ele>
        <time>2011-06-18T08:36:52.000Z</time>
      </trkpt>
      <trkpt lat="45.46448" lon="4.2791">
        <ele>508.60000610352</ele>
        <time>2011-06-18T08:36:53.000Z</time>
      </trkpt>
      <trkpt lat="45.46445" lon="4.27904">
        <ele>509.20001220703</ele>
        <time>2011-06-18T08:36:56.000Z</time>
      </trkpt>
      <trkpt lat="45.46442" lon="4.279">
        <ele>510.20001220703</ele>
        <time>2011-06-18T08:36:59.000Z</time>
      </trkpt>
      <trkpt lat="45.46439" lon="4.27893">
        <ele>510.60000610352</ele>
        <time>2011-06-18T08:37:04.000Z</time>
      </trkpt>
      <trkpt lat="45.46433" lon="4.27883">
        <ele>511.60000610352</ele>
        <time>2011-06-18T08:37:09.000Z</time>
      </trkpt>
      <trkpt lat="45.46425" lon="4.2787">
        <ele>513.20001220703</ele>
        <time>2011-06-18T08:37:16.000Z</time>
      </trkpt>
      <trkpt lat="45.46416" lon="4.27858">
        <ele>515</ele>
        <time>2011-06-18T08:37:22.000Z</time>
      </trkpt>
      <trkpt lat="45.4641" lon="4.27849">
        <ele>515</ele>
        <time>2011-06-18T08:37:27.000Z</time>
      </trkpt>
      <trkpt lat="45.46406" lon="4.27845">
        <ele>515.40002441406</ele>
        <time>2011-06-18T08:37:30.000Z</time>
      </trkpt>
      <trkpt lat="45.46395" lon="4.27834">
        <ele>516.40002441406</ele>
        <time>2011-06-18T08:37:37.000Z</time>
      </trkpt>
      <trkpt lat="45.4639" lon="4.27831">
        <ele>516.79998779297</ele>
        <time>2011-06-18T08:37:40.000Z</time>
      </trkpt>
      <trkpt lat="45.46381" lon="4.27828">
        <ele>518.20001220703</ele>
        <time>2011-06-18T08:37:46.000Z</time>
      </trkpt>
      <trkpt lat="45.46375" lon="4.27828">
        <ele>519.59997558594</ele>
        <time>2011-06-18T08:37:51.000Z</time>
      </trkpt>
      <trkpt lat="45.46371" lon="4.27835">
        <ele>521.40002441406</ele>
        <time>2011-06-18T08:37:56.000Z</time>
      </trkpt>
      <trkpt lat="45.46365" lon="4.2784">
        <ele>523.20001220703</ele>
        <time>2011-06-18T08:38:02.000Z</time>
      </trkpt>
      <trkpt lat="45.46365" lon="4.27844">
        <ele>523.79998779297</ele>
        <time>2011-06-18T08:38:06.000Z</time>
      </trkpt>
      <trkpt lat="45.46363" lon="4.27852">
        <ele>525</ele>
        <time>2011-06-18T08:38:14.000Z</time>
      </trkpt>
      <trkpt lat="45.46364" lon="4.27863">
        <ele>526.20001220703</ele>
        <time>2011-06-18T08:38:21.000Z</time>
      </trkpt>
      <trkpt lat="45.46363" lon="4.27867">
        <ele>526.79998779297</ele>
        <time>2011-06-18T08:38:24.000Z</time>
      </trkpt>
      <trkpt lat="45.46365" lon="4.27878">
        <ele>527.79998779297</ele>
        <time>2011-06-18T08:38:31.000Z</time>
      </trkpt>
      <trkpt lat="45.46367" lon="4.2789">
        <ele>529</ele>
        <time>2011-06-18T08:38:37.000Z</time>
      </trkpt>
      <trkpt lat="45.46366" lon="4.27898">
        <ele>530</ele>
        <time>2011-06-18T08:38:41.000Z</time>
      </trkpt>
      <trkpt lat="45.46366" lon="4.27916">
        <ele>532.20001220703</ele>
        <time>2011-06-18T08:38:49.000Z</time>
      </trkpt>
      <trkpt lat="45.46365" lon="4.27928">
        <ele>533</ele>
        <time>2011-06-18T08:38:54.000Z</time>
      </trkpt>
      <trkpt lat="45.46364" lon="4.27938">
        <ele>533.79998779297</ele>
        <time>2011-06-18T08:38:58.000Z</time>
      </trkpt>
      <trkpt lat="45.46365" lon="4.2794">
        <ele>533.79998779297</ele>
        <time>2011-06-18T08:39:00.000Z</time>
      </trkpt>
      <trkpt lat="45.46364" lon="4.27945">
        <ele>534.20001220703</ele>
        <time>2011-06-18T08:39:04.000Z</time>
      </trkpt>
      <trkpt lat="45.46363" lon="4.2795">
        <ele>534.59997558594</ele>
        <time>2011-06-18T08:39:10.000Z</time>
      </trkpt>
      <trkpt lat="45.46359" lon="4.27959">
        <ele>536</ele>
        <time>2011-06-18T08:39:19.000Z</time>
      </trkpt>
      <trkpt lat="45.46355" lon="4.27967">
        <ele>537.20001220703</ele>
        <time>2011-06-18T08:39:28.000Z</time>
      </trkpt>
      <trkpt lat="45.46349" lon="4.27973">
        <ele>538.59997558594</ele>
        <time>2011-06-18T08:39:38.000Z</time>
      </trkpt>
      <trkpt lat="45.46344" lon="4.2798">
        <ele>540</ele>
        <time>2011-06-18T08:39:47.000Z</time>
      </trkpt>
      <trkpt lat="45.4634" lon="4.27984">
        <ele>540.79998779297</ele>
        <time>2011-06-18T08:39:53.000Z</time>
      </trkpt>
      <trkpt lat="45.46336" lon="4.27987">
        <ele>541.79998779297</ele>
        <time>2011-06-18T08:39:58.000Z</time>
      </trkpt>
      <trkpt lat="45.46333" lon="4.27989">
        <ele>542.40002441406</ele>
        <time>2011-06-18T08:40:04.000Z</time>
      </trkpt>
      <trkpt lat="45.46287" lon="4.2799">
        <ele>551</ele>
        <time>2011-06-18T08:43:02.000Z</time>
      </trkpt>
      <trkpt lat="45.46277" lon="4.27989">
        <ele>552.79998779297</ele>
        <time>2011-06-18T08:43:10.000Z</time>
      </trkpt>
      <trkpt lat="45.46265" lon="4.27989">
        <ele>555</ele>
        <time>2011-06-18T08:43:20.000Z</time>
      </trkpt>
      <trkpt lat="45.46256" lon="4.2799">
        <ele>556.79998779297</ele>
        <time>2011-06-18T08:43:27.000Z</time>
      </trkpt>
      <trkpt lat="45.46249" lon="4.27992">
        <ele>558.20001220703</ele>
        <time>2011-06-18T08:43:34.000Z</time>
      </trkpt>
      <trkpt lat="45.46239" lon="4.27997">
        <ele>560.20001220703</ele>
        <time>2011-06-18T08:43:43.000Z</time>
      </trkpt>
      <trkpt lat="45.46229" lon="4.28003">
        <ele>561.79998779297</ele>
        <time>2011-06-18T08:43:53.000Z</time>
      </trkpt>
      <trkpt lat="45.4622" lon="4.28011">
        <ele>562.59997558594</ele>
        <time>2011-06-18T08:43:59.000Z</time>
      </trkpt>
      <trkpt lat="45.46209" lon="4.28019">
        <ele>563.79998779297</ele>
        <time>2011-06-18T08:44:05.000Z</time>
      </trkpt>
      <trkpt lat="45.46197" lon="4.28024">
        <ele>566</ele>
        <time>2011-06-18T08:44:12.000Z</time>
      </trkpt>
      <trkpt lat="45.46185" lon="4.28025">
        <ele>568.59997558594</ele>
        <time>2011-06-18T08:44:19.000Z</time>
      </trkpt>
      <trkpt lat="45.46174" lon="4.28025">
        <ele>571.20001220703</ele>
        <time>2011-06-18T08:44:26.000Z</time>
      </trkpt>
      <trkpt lat="45.46163" lon="4.28026">
        <ele>573</ele>
        <time>2011-06-18T08:44:33.000Z</time>
      </trkpt>
      <trkpt lat="45.46154" lon="4.28027">
        <ele>574</ele>
        <time>2011-06-18T08:44:39.000Z</time>
      </trkpt>
      <trkpt lat="45.46142" lon="4.28028">
        <ele>575.40002441406</ele>
        <time>2011-06-18T08:44:47.000Z</time>
      </trkpt>
      <trkpt lat="45.46136" lon="4.28028">
        <ele>576</ele>
        <time>2011-06-18T08:44:51.000Z</time>
      </trkpt>
      <trkpt lat="45.46126" lon="4.28031">
        <ele>577</ele>
        <time>2011-06-18T08:44:58.000Z</time>
      </trkpt>
      <trkpt lat="45.46118" lon="4.28032">
        <ele>578</ele>
        <time>2011-06-18T08:45:03.000Z</time>
      </trkpt>
      <trkpt lat="45.46109" lon="4.28034">
        <ele>579</ele>
        <time>2011-06-18T08:45:09.000Z</time>
      </trkpt>
      <trkpt lat="45.46097" lon="4.28037">
        <ele>580.59997558594</ele>
        <time>2011-06-18T08:45:17.000Z</time>
      </trkpt>
      <trkpt lat="45.46085" lon="4.28042">
        <ele>582.20001220703</ele>
        <time>2011-06-18T08:45:24.000Z</time>
      </trkpt>
      <trkpt lat="45.46076" lon="4.28046">
        <ele>582.79998779297</ele>
        <time>2011-06-18T08:45:29.000Z</time>
      </trkpt>
      <trkpt lat="45.46065" lon="4.28054">
        <ele>583.79998779297</ele>
        <time>2011-06-18T08:45:36.000Z</time>
      </trkpt>
      <trkpt lat="45.46055" lon="4.28061">
        <ele>584.59997558594</ele>
        <time>2011-06-18T08:45:42.000Z</time>
      </trkpt>
      <trkpt lat="45.46046" lon="4.28069">
        <ele>585.79998779297</ele>
        <time>2011-06-18T08:45:49.000Z</time>
      </trkpt>
      <trkpt lat="45.46036" lon="4.28074">
        <ele>586.79998779297</ele>
        <time>2011-06-18T08:45:56.000Z</time>
      </trkpt>
      <trkpt lat="45.46027" lon="4.28079">
        <ele>587.59997558594</ele>
        <time>2011-06-18T08:46:02.000Z</time>
      </trkpt>
      <trkpt lat="45.46016" lon="4.28085">
        <ele>588.59997558594</ele>
        <time>2011-06-18T08:46:09.000Z</time>
      </trkpt>
      <trkpt lat="45.46004" lon="4.28094">
        <ele>589.20001220703</ele>
        <time>2011-06-18T08:46:17.000Z</time>
      </trkpt>
      <trkpt lat="45.45993" lon="4.28105">
        <ele>589.40002441406</ele>
        <time>2011-06-18T08:46:24.000Z</time>
      </trkpt>
      <trkpt lat="45.4598" lon="4.28117">
        <ele>590.20001220703</ele>
        <time>2011-06-18T08:46:32.000Z</time>
      </trkpt>
      <trkpt lat="45.45967" lon="4.28126">
        <ele>591.20001220703</ele>
        <time>2011-06-18T08:46:39.000Z</time>
      </trkpt>
      <trkpt lat="45.45956" lon="4.28135">
        <ele>592.40002441406</ele>
        <time>2011-06-18T08:46:45.000Z</time>
      </trkpt>
      <trkpt lat="45.45947" lon="4.28143">
        <ele>593.40002441406</ele>
        <time>2011-06-18T08:46:51.000Z</time>
      </trkpt>
      <trkpt lat="45.45933" lon="4.28155">
        <ele>595.20001220703</ele>
        <time>2011-06-18T08:46:59.000Z</time>
      </trkpt>
      <trkpt lat="45.45921" lon="4.28159">
        <ele>597</ele>
        <time>2011-06-18T08:47:06.000Z</time>
      </trkpt>
      <trkpt lat="45.4591" lon="4.28161">
        <ele>598.40002441406</ele>
        <time>2011-06-18T08:47:12.000Z</time>
      </trkpt>
      <trkpt lat="45.45898" lon="4.28168">
        <ele>599.59997558594</ele>
        <time>2011-06-18T08:47:19.000Z</time>
      </trkpt>
      <trkpt lat="45.45885" lon="4.28176">
        <ele>600.20001220703</ele>
        <time>2011-06-18T08:47:27.000Z</time>
      </trkpt>
      <trkpt lat="45.4587" lon="4.28183">
        <ele>601.40002441406</ele>
        <time>2011-06-18T08:47:36.000Z</time>
      </trkpt>
      <trkpt lat="45.45856" lon="4.28189">
        <ele>602.40002441406</ele>
        <time>2011-06-18T08:47:44.000Z</time>
      </trkpt>
      <trkpt lat="45.45846" lon="4.28193">
        <ele>603.40002441406</ele>
        <time>2011-06-18T08:47:50.000Z</time>
      </trkpt>
      <trkpt lat="45.45836" lon="4.28196">
        <ele>604.59997558594</ele>
        <time>2011-06-18T08:47:56.000Z</time>
      </trkpt>
      <trkpt lat="45.45827" lon="4.28201">
        <ele>605.40002441406</ele>
        <time>2011-06-18T08:48:02.000Z</time>
      </trkpt>
      <trkpt lat="45.45817" lon="4.28207">
        <ele>606.20001220703</ele>
        <time>2011-06-18T08:48:08.000Z</time>
      </trkpt>
      <trkpt lat="45.45807" lon="4.28211">
        <ele>607</ele>
        <time>2011-06-18T08:48:14.000Z</time>
      </trkpt>
      <trkpt lat="45.45799" lon="4.28214">
        <ele>607.79998779297</ele>
        <time>2011-06-18T08:48:19.000Z</time>
      </trkpt>
      <trkpt lat="45.4579" lon="4.28217">
        <ele>608.79998779297</ele>
        <time>2011-06-18T08:48:24.000Z</time>
      </trkpt>
      <trkpt lat="45.45779" lon="4.28224">
        <ele>610</ele>
        <time>2011-06-18T08:48:31.000Z</time>
      </trkpt>
      <trkpt lat="45.45767" lon="4.2823">
        <ele>611.40002441406</ele>
        <time>2011-06-18T08:48:38.000Z</time>
      </trkpt>
      <trkpt lat="45.45753" lon="4.28237">
        <ele>613.20001220703</ele>
        <time>2011-06-18T08:48:46.000Z</time>
      </trkpt>
      <trkpt lat="45.45744" lon="4.28243">
        <ele>613.79998779297</ele>
        <time>2011-06-18T08:48:52.000Z</time>
      </trkpt>
      <trkpt lat="45.45743" lon="4.28244">
        <ele>614</ele>
        <time>2011-06-18T08:48:54.000Z</time>
      </trkpt>
      <trkpt lat="45.4574" lon="4.28246">
        <ele>614</ele>
        <time>2011-06-18T08:48:58.000Z</time>
      </trkpt>
      <trkpt lat="45.45736" lon="4.28247">
        <ele>614.20001220703</ele>
        <time>2011-06-18T08:49:07.000Z</time>
      </trkpt>
      <trkpt lat="45.45724" lon="4.28252">
        <ele>614.40002441406</ele>
        <time>2011-06-18T08:52:10.000Z</time>
      </trkpt>
      <trkpt lat="45.45714" lon="4.28255">
        <ele>614.40002441406</ele>
        <time>2011-06-18T08:52:15.000Z</time>
      </trkpt>
      <trkpt lat="45.45698" lon="4.28259">
        <ele>614.59997558594</ele>
        <time>2011-06-18T08:52:23.000Z</time>
      </trkpt>
      <trkpt lat="45.45686" lon="4.28262">
        <ele>614.79998779297</ele>
        <time>2011-06-18T08:52:29.000Z</time>
      </trkpt>
      <trkpt lat="45.45674" lon="4.28265">
        <ele>615</ele>
        <time>2011-06-18T08:52:35.000Z</time>
      </trkpt>
      <trkpt lat="45.45664" lon="4.28266">
        <ele>615</ele>
        <time>2011-06-18T08:52:39.000Z</time>
      </trkpt>
      <trkpt lat="45.45653" lon="4.28271">
        <ele>613.79998779297</ele>
        <time>2011-06-18T08:52:44.000Z</time>
      </trkpt>
      <trkpt lat="45.4564" lon="4.28277">
        <ele>612.59997558594</ele>
        <time>2011-06-18T08:52:50.000Z</time>
      </trkpt>
      <trkpt lat="45.45625" lon="4.28286">
        <ele>611.20001220703</ele>
        <time>2011-06-18T08:52:57.000Z</time>
      </trkpt>
      <trkpt lat="45.45619" lon="4.28303">
        <ele>610</ele>
        <time>2011-06-18T08:53:03.000Z</time>
      </trkpt>
      <trkpt lat="45.45614" lon="4.28312">
        <ele>609.40002441406</ele>
        <time>2011-06-18T08:53:07.000Z</time>
      </trkpt>
      <trkpt lat="45.45604" lon="4.28309">
        <ele>608.79998779297</ele>
        <time>2011-06-18T08:53:12.000Z</time>
      </trkpt>
      <trkpt lat="45.456" lon="4.28305">
        <ele>608.79998779297</ele>
        <time>2011-06-18T08:53:14.000Z</time>
      </trkpt>
      <trkpt lat="45.45591" lon="4.28289">
        <ele>608.59997558594</ele>
        <time>2011-06-18T08:53:21.000Z</time>
      </trkpt>
      <trkpt lat="45.45589" lon="4.28287">
        <ele>608.40002441406</ele>
        <time>2011-06-18T08:53:22.000Z</time>
      </trkpt>
      <trkpt lat="45.45581" lon="4.28286">
        <ele>607.79998779297</ele>
        <time>2011-06-18T08:53:28.000Z</time>
      </trkpt>
      <trkpt lat="45.4558" lon="4.28286">
        <ele>607.59997558594</ele>
        <time>2011-06-18T08:53:31.000Z</time>
      </trkpt>
      <trkpt lat="45.45573" lon="4.28287">
        <ele>606.79998779297</ele>
        <time>2011-06-18T08:53:38.000Z</time>
      </trkpt>
      <trkpt lat="45.45566" lon="4.28287">
        <ele>606</ele>
        <time>2011-06-18T08:53:44.000Z</time>
      </trkpt>
      <trkpt lat="45.45556" lon="4.28277">
        <ele>605</ele>
        <time>2011-06-18T08:53:50.000Z</time>
      </trkpt>
      <trkpt lat="45.45548" lon="4.28255">
        <ele>603.79998779297</ele>
        <time>2011-06-18T08:53:58.000Z</time>
      </trkpt>
      <trkpt lat="45.45543" lon="4.28238">
        <ele>603</ele>
        <time>2011-06-18T08:54:03.000Z</time>
      </trkpt>
      <trkpt lat="45.45534" lon="4.28219">
        <ele>601.20001220703</ele>
        <time>2011-06-18T08:54:10.000Z</time>
      </trkpt>
      <trkpt lat="45.45523" lon="4.28205">
        <ele>599.20001220703</ele>
        <time>2011-06-18T08:54:16.000Z</time>
      </trkpt>
      <trkpt lat="45.45513" lon="4.28195">
        <ele>597.59997558594</ele>
        <time>2011-06-18T08:54:21.000Z</time>
      </trkpt>
      <trkpt lat="45.455" lon="4.28183">
        <ele>595.40002441406</ele>
        <time>2011-06-18T08:54:28.000Z</time>
      </trkpt>
      <trkpt lat="45.45484" lon="4.28176">
        <ele>595.79998779297</ele>
        <time>2011-06-18T08:54:35.000Z</time>
      </trkpt>
      <trkpt lat="45.4547" lon="4.28175">
        <ele>596.40002441406</ele>
        <time>2011-06-18T08:54:41.000Z</time>
      </trkpt>
      <trkpt lat="45.45455" lon="4.28169">
        <ele>596.59997558594</ele>
        <time>2011-06-18T08:54:48.000Z</time>
      </trkpt>
      <trkpt lat="45.45442" lon="4.2816">
        <ele>596.59997558594</ele>
        <time>2011-06-18T08:54:55.000Z</time>
      </trkpt>
      <trkpt lat="45.45433" lon="4.28147">
        <ele>595.79998779297</ele>
        <time>2011-06-18T08:55:01.000Z</time>
      </trkpt>
      <trkpt lat="45.45426" lon="4.28134">
        <ele>594.79998779297</ele>
        <time>2011-06-18T08:55:06.000Z</time>
      </trkpt>
      <trkpt lat="45.45418" lon="4.28123">
        <ele>593.79998779297</ele>
        <time>2011-06-18T08:55:11.000Z</time>
      </trkpt>
      <trkpt lat="45.45411" lon="4.28111">
        <ele>593.20001220703</ele>
        <time>2011-06-18T08:55:16.000Z</time>
      </trkpt>
      <trkpt lat="45.45401" lon="4.28099">
        <ele>592.79998779297</ele>
        <time>2011-06-18T08:55:22.000Z</time>
      </trkpt>
      <trkpt lat="45.45389" lon="4.28084">
        <ele>592.40002441406</ele>
        <time>2011-06-18T08:55:29.000Z</time>
      </trkpt>
      <trkpt lat="45.45373" lon="4.28068">
        <ele>592</ele>
        <time>2011-06-18T08:55:37.000Z</time>
      </trkpt>
      <trkpt lat="45.4536" lon="4.28053">
        <ele>591.20001220703</ele>
        <time>2011-06-18T08:55:44.000Z</time>
      </trkpt>
      <trkpt lat="45.45349" lon="4.2804">
        <ele>590.40002441406</ele>
        <time>2011-06-18T08:55:50.000Z</time>
      </trkpt>
      <trkpt lat="45.45335" lon="4.28027">
        <ele>589.40002441406</ele>
        <time>2011-06-18T08:55:57.000Z</time>
      </trkpt>
      <trkpt lat="45.45321" lon="4.28013">
        <ele>588</ele>
        <time>2011-06-18T08:56:04.000Z</time>
      </trkpt>
      <trkpt lat="45.45313" lon="4.28003">
        <ele>587</ele>
        <time>2011-06-18T08:56:09.000Z</time>
      </trkpt>
      <trkpt lat="45.45301" lon="4.27991">
        <ele>586</ele>
        <time>2011-06-18T08:56:15.000Z</time>
      </trkpt>
      <trkpt lat="45.45291" lon="4.27983">
        <ele>585.40002441406</ele>
        <time>2011-06-18T08:56:20.000Z</time>
      </trkpt>
      <trkpt lat="45.45274" lon="4.27972">
        <ele>584.79998779297</ele>
        <time>2011-06-18T08:56:28.000Z</time>
      </trkpt>
      <trkpt lat="45.4526" lon="4.27964">
        <ele>584.59997558594</ele>
        <time>2011-06-18T08:56:34.000Z</time>
      </trkpt>
      <trkpt lat="45.45246" lon="4.27958">
        <ele>584.59997558594</ele>
        <time>2011-06-18T08:56:40.000Z</time>
      </trkpt>
      <trkpt lat="45.45233" lon="4.27953">
        <ele>585.40002441406</ele>
        <time>2011-06-18T08:56:46.000Z</time>
      </trkpt>
      <trkpt lat="45.45217" lon="4.27941">
        <ele>586.20001220703</ele>
        <time>2011-06-18T08:56:54.000Z</time>
      </trkpt>
      <trkpt lat="45.45204" lon="4.27926">
        <ele>587</ele>
        <time>2011-06-18T08:57:01.000Z</time>
      </trkpt>
      <trkpt lat="45.45193" lon="4.2791">
        <ele>587.79998779297</ele>
        <time>2011-06-18T08:57:08.000Z</time>
      </trkpt>
      <trkpt lat="45.45181" lon="4.27891">
        <ele>588.59997558594</ele>
        <time>2011-06-18T08:57:16.000Z</time>
      </trkpt>
      <trkpt lat="45.4517" lon="4.27875">
        <ele>589</ele>
        <time>2011-06-18T08:57:23.000Z</time>
      </trkpt>
      <trkpt lat="45.4516" lon="4.27864">
        <ele>589.40002441406</ele>
        <time>2011-06-18T08:57:29.000Z</time>
      </trkpt>
      <trkpt lat="45.45148" lon="4.27855">
        <ele>589.79998779297</ele>
        <time>2011-06-18T08:57:35.000Z</time>
      </trkpt>
      <trkpt lat="45.45137" lon="4.27846">
        <ele>590.40002441406</ele>
        <time>2011-06-18T08:57:41.000Z</time>
      </trkpt>
      <trkpt lat="45.45125" lon="4.27837">
        <ele>591</ele>
        <time>2011-06-18T08:57:47.000Z</time>
      </trkpt>
      <trkpt lat="45.45111" lon="4.27824">
        <ele>592.40002441406</ele>
        <time>2011-06-18T08:57:55.000Z</time>
      </trkpt>
      <trkpt lat="45.45101" lon="4.27814">
        <ele>593.59997558594</ele>
        <time>2011-06-18T08:58:01.000Z</time>
      </trkpt>
      <trkpt lat="45.45094" lon="4.27803">
        <ele>594.40002441406</ele>
        <time>2011-06-18T08:58:06.000Z</time>
      </trkpt>
      <trkpt lat="45.45084" lon="4.27788">
        <ele>595.40002441406</ele>
        <time>2011-06-18T08:58:13.000Z</time>
      </trkpt>
      <trkpt lat="45.45075" lon="4.27776">
        <ele>595.79998779297</ele>
        <time>2011-06-18T08:58:19.000Z</time>
      </trkpt>
      <trkpt lat="45.45065" lon="4.27766">
        <ele>596.20001220703</ele>
        <time>2011-06-18T08:58:25.000Z</time>
      </trkpt>
      <trkpt lat="45.45054" lon="4.27755">
        <ele>596.59997558594</ele>
        <time>2011-06-18T08:58:32.000Z</time>
      </trkpt>
      <trkpt lat="45.45041" lon="4.27744">
        <ele>597.20001220703</ele>
        <time>2011-06-18T08:58:40.000Z</time>
      </trkpt>
      <trkpt lat="45.45029" lon="4.27734">
        <ele>598</ele>
        <time>2011-06-18T08:58:47.000Z</time>
      </trkpt>
      <trkpt lat="45.45019" lon="4.27725">
        <ele>598.59997558594</ele>
        <time>2011-06-18T08:58:53.000Z</time>
      </trkpt>
      <trkpt lat="45.4501" lon="4.27715">
        <ele>599.40002441406</ele>
        <time>2011-06-18T08:58:59.000Z</time>
      </trkpt>
      <trkpt lat="45.44996" lon="4.27702">
        <ele>600</ele>
        <time>2011-06-18T08:59:07.000Z</time>
      </trkpt>
      <trkpt lat="45.44986" lon="4.27691">
        <ele>600</ele>
        <time>2011-06-18T08:59:13.000Z</time>
      </trkpt>
      <trkpt lat="45.44974" lon="4.27682">
        <ele>599.59997558594</ele>
        <time>2011-06-18T08:59:21.000Z</time>
      </trkpt>
      <trkpt lat="45.44968" lon="4.27686">
        <ele>599</ele>
        <time>2011-06-18T08:59:25.000Z</time>
      </trkpt>
      <trkpt lat="45.44964" lon="4.27697">
        <ele>598.20001220703</ele>
        <time>2011-06-18T08:59:33.000Z</time>
      </trkpt>
      <trkpt lat="45.44962" lon="4.27709">
        <ele>597.59997558594</ele>
        <time>2011-06-18T08:59:40.000Z</time>
      </trkpt>
      <trkpt lat="45.44963" lon="4.27715">
        <ele>597.40002441406</ele>
        <time>2011-06-18T08:59:43.000Z</time>
      </trkpt>
      <trkpt lat="45.44961" lon="4.27719">
        <ele>597</ele>
        <time>2011-06-18T08:59:45.000Z</time>
      </trkpt>
      <trkpt lat="45.44961" lon="4.27729">
        <ele>596.59997558594</ele>
        <time>2011-06-18T08:59:50.000Z</time>
      </trkpt>
      <trkpt lat="45.44959" lon="4.27747">
        <ele>595.59997558594</ele>
        <time>2011-06-18T08:59:56.000Z</time>
      </trkpt>
      <trkpt lat="45.44957" lon="4.27765">
        <ele>595.40002441406</ele>
        <time>2011-06-18T09:00:02.000Z</time>
      </trkpt>
      <trkpt lat="45.44953" lon="4.27781">
        <ele>595.40002441406</ele>
        <time>2011-06-18T09:00:07.000Z</time>
      </trkpt>
      <trkpt lat="45.44949" lon="4.27799">
        <ele>595.40002441406</ele>
        <time>2011-06-18T09:00:13.000Z</time>
      </trkpt>
      <trkpt lat="45.44944" lon="4.27816">
        <ele>595.40002441406</ele>
        <time>2011-06-18T09:00:19.000Z</time>
      </trkpt>
      <trkpt lat="45.44939" lon="4.27833">
        <ele>595.20001220703</ele>
        <time>2011-06-18T09:00:25.000Z</time>
      </trkpt>
      <trkpt lat="45.44935" lon="4.27847">
        <ele>596.20001220703</ele>
        <time>2011-06-18T09:00:30.000Z</time>
      </trkpt>
      <trkpt lat="45.44932" lon="4.27856">
        <ele>596.79998779297</ele>
        <time>2011-06-18T09:00:34.000Z</time>
      </trkpt>
      <trkpt lat="45.44926" lon="4.27875">
        <ele>598.40002441406</ele>
        <time>2011-06-18T09:00:41.000Z</time>
      </trkpt>
      <trkpt lat="45.4492" lon="4.27892">
        <ele>599.79998779297</ele>
        <time>2011-06-18T09:00:47.000Z</time>
      </trkpt>
      <trkpt lat="45.44914" lon="4.27912">
        <ele>601.20001220703</ele>
        <time>2011-06-18T09:00:54.000Z</time>
      </trkpt>
      <trkpt lat="45.44909" lon="4.27929">
        <ele>602.20001220703</ele>
        <time>2011-06-18T09:01:00.000Z</time>
      </trkpt>
      <trkpt lat="45.44905" lon="4.27942">
        <ele>602.79998779297</ele>
        <time>2011-06-18T09:01:05.000Z</time>
      </trkpt>
      <trkpt lat="45.449" lon="4.27955">
        <ele>603.40002441406</ele>
        <time>2011-06-18T09:01:12.000Z</time>
      </trkpt>
      <trkpt lat="45.44898" lon="4.27965">
        <ele>604.20001220703</ele>
        <time>2011-06-18T09:01:19.000Z</time>
      </trkpt>
      <trkpt lat="45.44895" lon="4.2798">
        <ele>605</ele>
        <time>2011-06-18T09:01:29.000Z</time>
      </trkpt>
      <trkpt lat="45.44895" lon="4.2798">
        <ele>605</ele>
        <time>2011-06-18T09:01:30.000Z</time>
      </trkpt>
      <trkpt lat="45.44895" lon="4.2799">
        <ele>605.79998779297</ele>
        <time>2011-06-18T09:01:38.000Z</time>
      </trkpt>
      <trkpt lat="45.44893" lon="4.28009">
        <ele>606.40002441406</ele>
        <time>2011-06-18T09:01:45.000Z</time>
      </trkpt>
      <trkpt lat="45.44893" lon="4.28029">
        <ele>606.40002441406</ele>
        <time>2011-06-18T09:01:52.000Z</time>
      </trkpt>
      <trkpt lat="45.44892" lon="4.28048">
        <ele>606.40002441406</ele>
        <time>2011-06-18T09:01:58.000Z</time>
      </trkpt>
      <trkpt lat="45.44891" lon="4.28065">
        <ele>606.20001220703</ele>
        <time>2011-06-18T09:02:03.000Z</time>
      </trkpt>
      <trkpt lat="45.4489" lon="4.28082">
        <ele>606.20001220703</ele>
        <time>2011-06-18T09:02:08.000Z</time>
      </trkpt>
      <trkpt lat="45.44888" lon="4.28104">
        <ele>606.20001220703</ele>
        <time>2011-06-18T09:02:14.000Z</time>
      </trkpt>
      <trkpt lat="45.44889" lon="4.2811">
        <ele>606.20001220703</ele>
        <time>2011-06-18T09:02:16.000Z</time>
      </trkpt>
      <trkpt lat="45.44887" lon="4.28127">
        <ele>606</ele>
        <time>2011-06-18T09:02:21.000Z</time>
      </trkpt>
      <trkpt lat="45.44885" lon="4.28136">
        <ele>605.79998779297</ele>
        <time>2011-06-18T09:02:24.000Z</time>
      </trkpt>
      <trkpt lat="45.44881" lon="4.2816">
        <ele>605.40002441406</ele>
        <time>2011-06-18T09:02:31.000Z</time>
      </trkpt>
      <trkpt lat="45.44879" lon="4.28167">
        <ele>605.20001220703</ele>
        <time>2011-06-18T09:02:33.000Z</time>
      </trkpt>
      <trkpt lat="45.44874" lon="4.28185">
        <ele>606</ele>
        <time>2011-06-18T09:02:39.000Z</time>
      </trkpt>
      <trkpt lat="45.44869" lon="4.28199">
        <ele>606.59997558594</ele>
        <time>2011-06-18T09:02:44.000Z</time>
      </trkpt>
      <trkpt lat="45.44859" lon="4.28225">
        <ele>607.20001220703</ele>
        <time>2011-06-18T09:02:53.000Z</time>
      </trkpt>
      <trkpt lat="45.44853" lon="4.2824">
        <ele>607.40002441406</ele>
        <time>2011-06-18T09:02:58.000Z</time>
      </trkpt>
      <trkpt lat="45.44848" lon="4.28256">
        <ele>607.59997558594</ele>
        <time>2011-06-18T09:03:03.000Z</time>
      </trkpt>
      <trkpt lat="45.44842" lon="4.2827">
        <ele>607.20001220703</ele>
        <time>2011-06-18T09:03:08.000Z</time>
      </trkpt>
      <trkpt lat="45.44834" lon="4.2829">
        <ele>606.40002441406</ele>
        <time>2011-06-18T09:03:15.000Z</time>
      </trkpt>
      <trkpt lat="45.44832" lon="4.28305">
        <ele>606.40002441406</ele>
        <time>2011-06-18T09:03:20.000Z</time>
      </trkpt>
      <trkpt lat="45.44832" lon="4.2832">
        <ele>606.40002441406</ele>
        <time>2011-06-18T09:03:25.000Z</time>
      </trkpt>
      <trkpt lat="45.44832" lon="4.28333">
        <ele>606.59997558594</ele>
        <time>2011-06-18T09:03:29.000Z</time>
      </trkpt>
      <trkpt lat="45.44833" lon="4.28352">
        <ele>605</ele>
        <time>2011-06-18T09:03:35.000Z</time>
      </trkpt>
      <trkpt lat="45.44834" lon="4.28355">
        <ele>604.59997558594</ele>
        <time>2011-06-18T09:03:36.000Z</time>
      </trkpt>
      <trkpt lat="45.44837" lon="4.2837">
        <ele>603.59997558594</ele>
        <time>2011-06-18T09:03:41.000Z</time>
      </trkpt>
      <trkpt lat="45.44839" lon="4.28376">
        <ele>603.20001220703</ele>
        <time>2011-06-18T09:03:43.000Z</time>
      </trkpt>
      <trkpt lat="45.44846" lon="4.28397">
        <ele>602</ele>
        <time>2011-06-18T09:03:50.000Z</time>
      </trkpt>
      <trkpt lat="45.44855" lon="4.28411">
        <ele>601.79998779297</ele>
        <time>2011-06-18T09:03:56.000Z</time>
      </trkpt>
      <trkpt lat="45.44866" lon="4.28421">
        <ele>602.20001220703</ele>
        <time>2011-06-18T09:04:01.000Z</time>
      </trkpt>
      <trkpt lat="45.4488" lon="4.28435">
        <ele>602.20001220703</ele>
        <time>2011-06-18T09:04:08.000Z</time>
      </trkpt>
      <trkpt lat="45.44893" lon="4.28449">
        <ele>601.79998779297</ele>
        <time>2011-06-18T09:04:14.000Z</time>
      </trkpt>
      <trkpt lat="45.44902" lon="4.28461">
        <ele>601.20001220703</ele>
        <time>2011-06-18T09:04:19.000Z</time>
      </trkpt>
      <trkpt lat="45.44911" lon="4.28477">
        <ele>599.79998779297</ele>
        <time>2011-06-18T09:04:26.000Z</time>
      </trkpt>
      <trkpt lat="45.44919" lon="4.2849">
        <ele>599</ele>
        <time>2011-06-18T09:04:31.000Z</time>
      </trkpt>
      <trkpt lat="45.44921" lon="4.28493">
        <ele>598.79998779297</ele>
        <time>2011-06-18T09:04:32.000Z</time>
      </trkpt>
      <trkpt lat="45.44929" lon="4.28509">
        <ele>597.40002441406</ele>
        <time>2011-06-18T09:04:38.000Z</time>
      </trkpt>
      <trkpt lat="45.44936" lon="4.28523">
        <ele>596.59997558594</ele>
        <time>2011-06-18T09:04:43.000Z</time>
      </trkpt>
      <trkpt lat="45.44943" lon="4.28536">
        <ele>595.79998779297</ele>
        <time>2011-06-18T09:04:48.000Z</time>
      </trkpt>
      <trkpt lat="45.4495" lon="4.28546">
        <ele>595.40002441406</ele>
        <time>2011-06-18T09:04:52.000Z</time>
      </trkpt>
      <trkpt lat="45.44953" lon="4.28552">
        <ele>595.20001220703</ele>
        <time>2011-06-18T09:04:54.000Z</time>
      </trkpt>
      <trkpt lat="45.44959" lon="4.28567">
        <ele>594.20001220703</ele>
        <time>2011-06-18T09:04:59.000Z</time>
      </trkpt>
      <trkpt lat="45.4496" lon="4.28574">
        <ele>593.59997558594</ele>
        <time>2011-06-18T09:05:01.000Z</time>
      </trkpt>
      <trkpt lat="45.44962" lon="4.2858">
        <ele>592.79998779297</ele>
        <time>2011-06-18T09:05:03.000Z</time>
      </trkpt>
      <trkpt lat="45.44961" lon="4.28599">
        <ele>592.20001220703</ele>
        <time>2011-06-18T09:05:08.000Z</time>
      </trkpt>
      <trkpt lat="45.44958" lon="4.28615">
        <ele>591.59997558594</ele>
        <time>2011-06-18T09:05:13.000Z</time>
      </trkpt>
      <trkpt lat="45.44955" lon="4.28621">
        <ele>591.20001220703</ele>
        <time>2011-06-18T09:05:15.000Z</time>
      </trkpt>
      <trkpt lat="45.44945" lon="4.28643">
        <ele>589.79998779297</ele>
        <time>2011-06-18T09:05:23.000Z</time>
      </trkpt>
      <trkpt lat="45.44938" lon="4.28659">
        <ele>589.20001220703</ele>
        <time>2011-06-18T09:05:29.000Z</time>
      </trkpt>
      <trkpt lat="45.44932" lon="4.28675">
        <ele>589</ele>
        <time>2011-06-18T09:05:35.000Z</time>
      </trkpt>
      <trkpt lat="45.44928" lon="4.28689">
        <ele>589.59997558594</ele>
        <time>2011-06-18T09:05:40.000Z</time>
      </trkpt>
      <trkpt lat="45.44925" lon="4.28708">
        <ele>590.40002441406</ele>
        <time>2011-06-18T09:05:46.000Z</time>
      </trkpt>
      <trkpt lat="45.44923" lon="4.28732">
        <ele>592</ele>
        <time>2011-06-18T09:05:53.000Z</time>
      </trkpt>
      <trkpt lat="45.44923" lon="4.28751">
        <ele>593</ele>
        <time>2011-06-18T09:05:59.000Z</time>
      </trkpt>
      <trkpt lat="45.44922" lon="4.28754">
        <ele>592.79998779297</ele>
        <time>2011-06-18T09:06:03.000Z</time>
      </trkpt>
      <trkpt lat="45.44923" lon="4.28763">
        <ele>592</ele>
        <time>2011-06-18T09:06:50.000Z</time>
      </trkpt>
      <trkpt lat="45.4492" lon="4.28777">
        <ele>590.59997558594</ele>
        <time>2011-06-18T09:06:54.000Z</time>
      </trkpt>
      <trkpt lat="45.44911" lon="4.28787">
        <ele>589.59997558594</ele>
        <time>2011-06-18T09:06:59.000Z</time>
      </trkpt>
      <trkpt lat="45.4491" lon="4.28789">
        <ele>589.40002441406</ele>
        <time>2011-06-18T09:07:00.000Z</time>
      </trkpt>
      <trkpt lat="45.44899" lon="4.28802">
        <ele>588.40002441406</ele>
        <time>2011-06-18T09:07:07.000Z</time>
      </trkpt>
      <trkpt lat="45.44895" lon="4.28819">
        <ele>587.20001220703</ele>
        <time>2011-06-18T09:07:13.000Z</time>
      </trkpt>
      <trkpt lat="45.44893" lon="4.28838">
        <ele>585.79998779297</ele>
        <time>2011-06-18T09:07:19.000Z</time>
      </trkpt>
      <trkpt lat="45.44893" lon="4.28845">
        <ele>584.59997558594</ele>
        <time>2011-06-18T09:07:21.000Z</time>
      </trkpt>
      <trkpt lat="45.44899" lon="4.28861">
        <ele>582</ele>
        <time>2011-06-18T09:07:27.000Z</time>
      </trkpt>
      <trkpt lat="45.44906" lon="4.28866">
        <ele>580.79998779297</ele>
        <time>2011-06-18T09:07:31.000Z</time>
      </trkpt>
      <trkpt lat="45.44919" lon="4.28869">
        <ele>579.79998779297</ele>
        <time>2011-06-18T09:07:36.000Z</time>
      </trkpt>
      <trkpt lat="45.44931" lon="4.28875">
        <ele>578.79998779297</ele>
        <time>2011-06-18T09:07:41.000Z</time>
      </trkpt>
      <trkpt lat="45.44934" lon="4.28877">
        <ele>578.40002441406</ele>
        <time>2011-06-18T09:07:42.000Z</time>
      </trkpt>
      <trkpt lat="45.44945" lon="4.28891">
        <ele>576</ele>
        <time>2011-06-18T09:07:48.000Z</time>
      </trkpt>
      <trkpt lat="45.44955" lon="4.28904">
        <ele>573.40002441406</ele>
        <time>2011-06-18T09:07:53.000Z</time>
      </trkpt>
      <trkpt lat="45.44963" lon="4.28914">
        <ele>571.79998779297</ele>
        <time>2011-06-18T09:07:57.000Z</time>
      </trkpt>
      <trkpt lat="45.44971" lon="4.28931">
        <ele>569.40002441406</ele>
        <time>2011-06-18T09:08:03.000Z</time>
      </trkpt>
      <trkpt lat="45.44974" lon="4.28936">
        <ele>568.59997558594</ele>
        <time>2011-06-18T09:08:05.000Z</time>
      </trkpt>
      <trkpt lat="45.44981" lon="4.28949">
        <ele>567</ele>
        <time>2011-06-18T09:08:10.000Z</time>
      </trkpt>
      <trkpt lat="45.44992" lon="4.28959">
        <ele>565.40002441406</ele>
        <time>2011-06-18T09:08:15.000Z</time>
      </trkpt>
      <trkpt lat="45.45006" lon="4.28968">
        <ele>564.40002441406</ele>
        <time>2011-06-18T09:08:21.000Z</time>
      </trkpt>
      <trkpt lat="45.45021" lon="4.28976">
        <ele>564.20001220703</ele>
        <time>2011-06-18T09:08:27.000Z</time>
      </trkpt>
      <trkpt lat="45.45035" lon="4.28982">
        <ele>564</ele>
        <time>2011-06-18T09:08:33.000Z</time>
      </trkpt>
      <trkpt lat="45.4505" lon="4.28986">
        <ele>564</ele>
        <time>2011-06-18T09:08:39.000Z</time>
      </trkpt>
      <trkpt lat="45.45062" lon="4.28989">
        <ele>564.20001220703</ele>
        <time>2011-06-18T09:08:44.000Z</time>
      </trkpt>
      <trkpt lat="45.45076" lon="4.28994">
        <ele>564.20001220703</ele>
        <time>2011-06-18T09:08:50.000Z</time>
      </trkpt>
      <trkpt lat="45.45088" lon="4.29">
        <ele>564</ele>
        <time>2011-06-18T09:08:55.000Z</time>
      </trkpt>
      <trkpt lat="45.45103" lon="4.29009">
        <ele>564</ele>
        <time>2011-06-18T09:09:01.000Z</time>
      </trkpt>
      <trkpt lat="45.45113" lon="4.29018">
        <ele>563.59997558594</ele>
        <time>2011-06-18T09:09:06.000Z</time>
      </trkpt>
      <trkpt lat="45.45122" lon="4.29028">
        <ele>562.79998779297</ele>
        <time>2011-06-18T09:09:11.000Z</time>
      </trkpt>
      <trkpt lat="45.45129" lon="4.29036">
        <ele>562.20001220703</ele>
        <time>2011-06-18T09:09:15.000Z</time>
      </trkpt>
      <trkpt lat="45.45129" lon="4.29049">
        <ele>561</ele>
        <time>2011-06-18T09:09:20.000Z</time>
      </trkpt>
      <trkpt lat="45.45126" lon="4.2905">
        <ele>561</ele>
        <time>2011-06-18T09:09:21.000Z</time>
      </trkpt>
      <trkpt lat="45.45111" lon="4.29057">
        <ele>560.40002441406</ele>
        <time>2011-06-18T09:09:27.000Z</time>
      </trkpt>
      <trkpt lat="45.45094" lon="4.2907">
        <ele>559.59997558594</ele>
        <time>2011-06-18T09:09:35.000Z</time>
      </trkpt>
      <trkpt lat="45.45084" lon="4.2908">
        <ele>559</ele>
        <time>2011-06-18T09:09:40.000Z</time>
      </trkpt>
      <trkpt lat="45.45076" lon="4.29095">
        <ele>557.59997558594</ele>
        <time>2011-06-18T09:09:46.000Z</time>
      </trkpt>
      <trkpt lat="45.45069" lon="4.29103">
        <ele>556.59997558594</ele>
        <time>2011-06-18T09:09:50.000Z</time>
      </trkpt>
      <trkpt lat="45.45062" lon="4.29114">
        <ele>555.20001220703</ele>
        <time>2011-06-18T09:09:55.000Z</time>
      </trkpt>
      <trkpt lat="45.4505" lon="4.29133">
        <ele>553.20001220703</ele>
        <time>2011-06-18T09:10:02.000Z</time>
      </trkpt>
      <trkpt lat="45.4504" lon="4.29147">
        <ele>551.59997558594</ele>
        <time>2011-06-18T09:10:07.000Z</time>
      </trkpt>
      <trkpt lat="45.45032" lon="4.29155">
        <ele>550.40002441406</ele>
        <time>2011-06-18T09:10:11.000Z</time>
      </trkpt>
      <trkpt lat="45.4503" lon="4.29157">
        <ele>550.20001220703</ele>
        <time>2011-06-18T09:10:12.000Z</time>
      </trkpt>
      <trkpt lat="45.4502" lon="4.29167">
        <ele>548.79998779297</ele>
        <time>2011-06-18T09:10:17.000Z</time>
      </trkpt>
      <trkpt lat="45.45007" lon="4.29174">
        <ele>547.20001220703</ele>
        <time>2011-06-18T09:10:22.000Z</time>
      </trkpt>
      <trkpt lat="45.45004" lon="4.29174">
        <ele>547</ele>
        <time>2011-06-18T09:10:23.000Z</time>
      </trkpt>
      <trkpt lat="45.4499" lon="4.29174">
        <ele>546.59997558594</ele>
        <time>2011-06-18T09:10:28.000Z</time>
      </trkpt>
      <trkpt lat="45.44975" lon="4.29169">
        <ele>546.79998779297</ele>
        <time>2011-06-18T09:10:34.000Z</time>
      </trkpt>
      <trkpt lat="45.44959" lon="4.29164">
        <ele>546.59997558594</ele>
        <time>2011-06-18T09:10:40.000Z</time>
      </trkpt>
      <trkpt lat="45.44945" lon="4.29162">
        <ele>546.40002441406</ele>
        <time>2011-06-18T09:10:45.000Z</time>
      </trkpt>
      <trkpt lat="45.44931" lon="4.29161">
        <ele>546</ele>
        <time>2011-06-18T09:10:50.000Z</time>
      </trkpt>
      <trkpt lat="45.44918" lon="4.29163">
        <ele>545.40002441406</ele>
        <time>2011-06-18T09:10:55.000Z</time>
      </trkpt>
      <trkpt lat="45.44914" lon="4.29166">
        <ele>545</ele>
        <time>2011-06-18T09:10:57.000Z</time>
      </trkpt>
      <trkpt lat="45.44899" lon="4.29169">
        <ele>544.59997558594</ele>
        <time>2011-06-18T09:11:03.000Z</time>
      </trkpt>
      <trkpt lat="45.44887" lon="4.29174">
        <ele>544</ele>
        <time>2011-06-18T09:11:08.000Z</time>
      </trkpt>
      <trkpt lat="45.44878" lon="4.29176">
        <ele>543.79998779297</ele>
        <time>2011-06-18T09:11:12.000Z</time>
      </trkpt>
      <trkpt lat="45.44866" lon="4.2918">
        <ele>543.20001220703</ele>
        <time>2011-06-18T09:11:17.000Z</time>
      </trkpt>
      <trkpt lat="45.44861" lon="4.29181">
        <ele>543.20001220703</ele>
        <time>2011-06-18T09:11:19.000Z</time>
      </trkpt>
      <trkpt lat="45.44844" lon="4.29184">
        <ele>542.79998779297</ele>
        <time>2011-06-18T09:11:26.000Z</time>
      </trkpt>
      <trkpt lat="45.44832" lon="4.29184">
        <ele>542.79998779297</ele>
        <time>2011-06-18T09:11:31.000Z</time>
      </trkpt>
      <trkpt lat="45.44822" lon="4.29184">
        <ele>542.79998779297</ele>
        <time>2011-06-18T09:11:36.000Z</time>
      </trkpt>
      <trkpt lat="45.4481" lon="4.29182">
        <ele>543</ele>
        <time>2011-06-18T09:11:41.000Z</time>
      </trkpt>
      <trkpt lat="45.448" lon="4.29179">
        <ele>543.20001220703</ele>
        <time>2011-06-18T09:11:46.000Z</time>
      </trkpt>
      <trkpt lat="45.44787" lon="4.29175">
        <ele>543.20001220703</ele>
        <time>2011-06-18T09:11:52.000Z</time>
      </trkpt>
      <trkpt lat="45.44772" lon="4.29164">
        <ele>543.59997558594</ele>
        <time>2011-06-18T09:11:58.000Z</time>
      </trkpt>
      <trkpt lat="45.44763" lon="4.29155">
        <ele>543.59997558594</ele>
        <time>2011-06-18T09:12:02.000Z</time>
      </trkpt>
      <trkpt lat="45.4475" lon="4.29143">
        <ele>543.20001220703</ele>
        <time>2011-06-18T09:12:07.000Z</time>
      </trkpt>
      <trkpt lat="45.44737" lon="4.29133">
        <ele>542.59997558594</ele>
        <time>2011-06-18T09:12:12.000Z</time>
      </trkpt>
      <trkpt lat="45.44721" lon="4.29121">
        <ele>541.40002441406</ele>
        <time>2011-06-18T09:12:18.000Z</time>
      </trkpt>
      <trkpt lat="45.4471" lon="4.29113">
        <ele>540.40002441406</ele>
        <time>2011-06-18T09:12:22.000Z</time>
      </trkpt>
      <trkpt lat="45.44691" lon="4.29101">
        <ele>537.79998779297</ele>
        <time>2011-06-18T09:12:29.000Z</time>
      </trkpt>
      <trkpt lat="45.44677" lon="4.29094">
        <ele>535.40002441406</ele>
        <time>2011-06-18T09:12:34.000Z</time>
      </trkpt>
      <trkpt lat="45.44666" lon="4.29089">
        <ele>533.59997558594</ele>
        <time>2011-06-18T09:12:38.000Z</time>
      </trkpt>
      <trkpt lat="45.4465" lon="4.29083">
        <ele>530</ele>
        <time>2011-06-18T09:12:43.000Z</time>
      </trkpt>
      <trkpt lat="45.44639" lon="4.29082">
        <ele>528.20001220703</ele>
        <time>2011-06-18T09:12:47.000Z</time>
      </trkpt>
      <trkpt lat="45.44624" lon="4.2908">
        <ele>526</ele>
        <time>2011-06-18T09:12:52.000Z</time>
      </trkpt>
      <trkpt lat="45.44612" lon="4.29078">
        <ele>524</ele>
        <time>2011-06-18T09:12:56.000Z</time>
      </trkpt>
      <trkpt lat="45.44596" lon="4.29079">
        <ele>521</ele>
        <time>2011-06-18T09:13:01.000Z</time>
      </trkpt>
      <trkpt lat="45.44579" lon="4.29084">
        <ele>517.40002441406</ele>
        <time>2011-06-18T09:13:06.000Z</time>
      </trkpt>
      <trkpt lat="45.44568" lon="4.2909">
        <ele>516.40002441406</ele>
        <time>2011-06-18T09:13:10.000Z</time>
      </trkpt>
      <trkpt lat="45.44558" lon="4.29095">
        <ele>515.40002441406</ele>
        <time>2011-06-18T09:13:13.000Z</time>
      </trkpt>
      <trkpt lat="45.44556" lon="4.29098">
        <ele>515.20001220703</ele>
        <time>2011-06-18T09:13:14.000Z</time>
      </trkpt>
      <trkpt lat="45.44543" lon="4.29113">
        <ele>513</ele>
        <time>2011-06-18T09:13:19.000Z</time>
      </trkpt>
      <trkpt lat="45.44531" lon="4.29126">
        <ele>510</ele>
        <time>2011-06-18T09:13:24.000Z</time>
      </trkpt>
      <trkpt lat="45.44523" lon="4.2914">
        <ele>507.20001220703</ele>
        <time>2011-06-18T09:13:28.000Z</time>
      </trkpt>
      <trkpt lat="45.44516" lon="4.29153">
        <ele>504.20001220703</ele>
        <time>2011-06-18T09:13:32.000Z</time>
      </trkpt>
      <trkpt lat="45.44506" lon="4.2917">
        <ele>499.39999389648</ele>
        <time>2011-06-18T09:13:37.000Z</time>
      </trkpt>
      <trkpt lat="45.44502" lon="4.29177">
        <ele>497.39999389648</ele>
        <time>2011-06-18T09:13:39.000Z</time>
      </trkpt>
      <trkpt lat="45.44503" lon="4.29199">
        <ele>495.79998779297</ele>
        <time>2011-06-18T09:13:44.000Z</time>
      </trkpt>
      <trkpt lat="45.44503" lon="4.29207">
        <ele>495</ele>
        <time>2011-06-18T09:13:46.000Z</time>
      </trkpt>
      <trkpt lat="45.4451" lon="4.29226">
        <ele>495.60000610352</ele>
        <time>2011-06-18T09:13:52.000Z</time>
      </trkpt>
      <trkpt lat="45.44511" lon="4.29228">
        <ele>495.79998779297</ele>
        <time>2011-06-18T09:13:53.000Z</time>
      </trkpt>
      <trkpt lat="45.44516" lon="4.29232">
        <ele>496.79998779297</ele>
        <time>2011-06-18T09:14:00.000Z</time>
      </trkpt>
      <trkpt lat="45.44516" lon="4.29232">
        <ele>496.79998779297</ele>
        <time>2011-06-18T09:14:01.000Z</time>
      </trkpt>
      <trkpt lat="45.44521" lon="4.29241">
        <ele>497.79998779297</ele>
        <time>2011-06-18T09:14:45.000Z</time>
      </trkpt>
      <trkpt lat="45.44531" lon="4.29246">
        <ele>500.60000610352</ele>
        <time>2011-06-18T09:14:48.000Z</time>
      </trkpt>
      <trkpt lat="45.44538" lon="4.29253">
        <ele>502</ele>
        <time>2011-06-18T09:14:52.000Z</time>
      </trkpt>
      <trkpt lat="45.44547" lon="4.29262">
        <ele>503.39999389648</ele>
        <time>2011-06-18T09:14:57.000Z</time>
      </trkpt>
      <trkpt lat="45.44557" lon="4.29274">
        <ele>504</ele>
        <time>2011-06-18T09:15:02.000Z</time>
      </trkpt>
      <trkpt lat="45.44563" lon="4.29288">
        <ele>502.60000610352</ele>
        <time>2011-06-18T09:15:07.000Z</time>
      </trkpt>
      <trkpt lat="45.44573" lon="4.293">
        <ele>502.39999389648</ele>
        <time>2011-06-18T09:15:12.000Z</time>
      </trkpt>
      <trkpt lat="45.44581" lon="4.29314">
        <ele>500.60000610352</ele>
        <time>2011-06-18T09:15:17.000Z</time>
      </trkpt>
      <trkpt lat="45.44586" lon="4.29325">
        <ele>498.79998779297</ele>
        <time>2011-06-18T09:15:21.000Z</time>
      </trkpt>
      <trkpt lat="45.44593" lon="4.29344">
        <ele>497.39999389648</ele>
        <time>2011-06-18T09:15:27.000Z</time>
      </trkpt>
      <trkpt lat="45.44598" lon="4.2936">
        <ele>497</ele>
        <time>2011-06-18T09:15:32.000Z</time>
      </trkpt>
      <trkpt lat="45.446" lon="4.29367">
        <ele>496.39999389648</ele>
        <time>2011-06-18T09:15:34.000Z</time>
      </trkpt>
      <trkpt lat="45.44606" lon="4.29386">
        <ele>495.79998779297</ele>
        <time>2011-06-18T09:15:40.000Z</time>
      </trkpt>
      <trkpt lat="45.44609" lon="4.29393">
        <ele>495.60000610352</ele>
        <time>2011-06-18T09:15:42.000Z</time>
      </trkpt>
      <trkpt lat="45.44609" lon="4.29413">
        <ele>493</ele>
        <time>2011-06-18T09:15:47.000Z</time>
      </trkpt>
      <trkpt lat="45.44606" lon="4.29427">
        <ele>493.20001220703</ele>
        <time>2011-06-18T09:15:52.000Z</time>
      </trkpt>
      <trkpt lat="45.44604" lon="4.29445">
        <ele>495</ele>
        <time>2011-06-18T09:15:58.000Z</time>
      </trkpt>
      <trkpt lat="45.44603" lon="4.29459">
        <ele>496.79998779297</ele>
        <time>2011-06-18T09:16:03.000Z</time>
      </trkpt>
      <trkpt lat="45.44599" lon="4.29472">
        <ele>497.39999389648</ele>
        <time>2011-06-18T09:16:08.000Z</time>
      </trkpt>
      <trkpt lat="45.44595" lon="4.29485">
        <ele>498</ele>
        <time>2011-06-18T09:16:13.000Z</time>
      </trkpt>
      <trkpt lat="45.4459" lon="4.29498">
        <ele>498.39999389648</ele>
        <time>2011-06-18T09:16:17.000Z</time>
      </trkpt>
      <trkpt lat="45.44584" lon="4.29514">
        <ele>499</ele>
        <time>2011-06-18T09:16:22.000Z</time>
      </trkpt>
      <trkpt lat="45.44581" lon="4.29522">
        <ele>499.60000610352</ele>
        <time>2011-06-18T09:16:25.000Z</time>
      </trkpt>
      <trkpt lat="45.44574" lon="4.29542">
        <ele>501.20001220703</ele>
        <time>2011-06-18T09:16:32.000Z</time>
      </trkpt>
      <trkpt lat="45.44568" lon="4.29556">
        <ele>502.20001220703</ele>
        <time>2011-06-18T09:16:37.000Z</time>
      </trkpt>
      <trkpt lat="45.44562" lon="4.29568">
        <ele>502.79998779297</ele>
        <time>2011-06-18T09:16:42.000Z</time>
      </trkpt>
      <trkpt lat="45.44553" lon="4.29581">
        <ele>503</ele>
        <time>2011-06-18T09:16:48.000Z</time>
      </trkpt>
      <trkpt lat="45.44552" lon="4.29583">
        <ele>503</ele>
        <time>2011-06-18T09:16:49.000Z</time>
      </trkpt>
      <trkpt lat="45.44544" lon="4.29594">
        <ele>502.39999389648</ele>
        <time>2011-06-18T09:16:55.000Z</time>
      </trkpt>
      <trkpt lat="45.44544" lon="4.29602">
        <ele>503</ele>
        <time>2011-06-18T09:16:58.000Z</time>
      </trkpt>
      <trkpt lat="45.44542" lon="4.29616">
        <ele>503.60000610352</ele>
        <time>2011-06-18T09:17:02.000Z</time>
      </trkpt>
      <trkpt lat="45.44545" lon="4.2964">
        <ele>505.39999389648</ele>
        <time>2011-06-18T09:17:09.000Z</time>
      </trkpt>
      <trkpt lat="45.44547" lon="4.29652">
        <ele>506.39999389648</ele>
        <time>2011-06-18T09:17:13.000Z</time>
      </trkpt>
      <trkpt lat="45.44548" lon="4.2966">
        <ele>507.20001220703</ele>
        <time>2011-06-18T09:17:16.000Z</time>
      </trkpt>
      <trkpt lat="45.44549" lon="4.29683">
        <ele>507.60000610352</ele>
        <time>2011-06-18T09:17:23.000Z</time>
      </trkpt>
      <trkpt lat="45.44553" lon="4.297">
        <ele>507.79998779297</ele>
        <time>2011-06-18T09:17:28.000Z</time>
      </trkpt>
      <trkpt lat="45.44555" lon="4.29722">
        <ele>507.79998779297</ele>
        <time>2011-06-18T09:17:34.000Z</time>
      </trkpt>
      <trkpt lat="45.44555" lon="4.29735">
        <ele>507.60000610352</ele>
        <time>2011-06-18T09:17:37.000Z</time>
      </trkpt>
      <trkpt lat="45.44558" lon="4.29749">
        <ele>507.39999389648</ele>
        <time>2011-06-18T09:17:40.000Z</time>
      </trkpt>
      <trkpt lat="45.44563" lon="4.29766">
        <ele>506</ele>
        <time>2011-06-18T09:17:44.000Z</time>
      </trkpt>
      <trkpt lat="45.44567" lon="4.2979">
        <ele>503.60000610352</ele>
        <time>2011-06-18T09:17:49.000Z</time>
      </trkpt>
      <trkpt lat="45.44574" lon="4.29811">
        <ele>501</ele>
        <time>2011-06-18T09:17:53.000Z</time>
      </trkpt>
      <trkpt lat="45.44581" lon="4.29826">
        <ele>498</ele>
        <time>2011-06-18T09:17:57.000Z</time>
      </trkpt>
      <trkpt lat="45.44591" lon="4.2984">
        <ele>497.20001220703</ele>
        <time>2011-06-18T09:18:02.000Z</time>
      </trkpt>
      <trkpt lat="45.44603" lon="4.29855">
        <ele>497.39999389648</ele>
        <time>2011-06-18T09:18:07.000Z</time>
      </trkpt>
      <trkpt lat="45.44616" lon="4.29863">
        <ele>497.20001220703</ele>
        <time>2011-06-18T09:18:11.000Z</time>
      </trkpt>
      <trkpt lat="45.44631" lon="4.29873">
        <ele>496.60000610352</ele>
        <time>2011-06-18T09:18:16.000Z</time>
      </trkpt>
      <trkpt lat="45.44642" lon="4.29883">
        <ele>495.79998779297</ele>
        <time>2011-06-18T09:18:20.000Z</time>
      </trkpt>
      <trkpt lat="45.44655" lon="4.29894">
        <ele>494.60000610352</ele>
        <time>2011-06-18T09:18:25.000Z</time>
      </trkpt>
      <trkpt lat="45.4467" lon="4.29894">
        <ele>494.20001220703</ele>
        <time>2011-06-18T09:18:31.000Z</time>
      </trkpt>
      <trkpt lat="45.44678" lon="4.29895">
        <ele>494.60000610352</ele>
        <time>2011-06-18T09:18:35.000Z</time>
      </trkpt>
      <trkpt lat="45.44689" lon="4.29894">
        <ele>495.39999389648</ele>
        <time>2011-06-18T09:18:39.000Z</time>
      </trkpt>
      <trkpt lat="45.44694" lon="4.29893">
        <ele>495.60000610352</ele>
        <time>2011-06-18T09:18:44.000Z</time>
      </trkpt>
      <trkpt lat="45.44695" lon="4.29894">
        <ele>495.60000610352</ele>
        <time>2011-06-18T09:18:46.000Z</time>
      </trkpt>
      <trkpt lat="45.447" lon="4.2989">
        <ele>496.20001220703</ele>
        <time>2011-06-18T09:18:55.000Z</time>
      </trkpt>
      <trkpt lat="45.44697" lon="4.29887">
        <ele>496.39999389648</ele>
        <time>2011-06-18T09:19:03.000Z</time>
      </trkpt>
      <trkpt lat="45.44705" lon="4.29884">
        <ele>497</ele>
        <time>2011-06-18T09:19:18.000Z</time>
      </trkpt>
      <trkpt lat="45.44712" lon="4.29891">
        <ele>496.79998779297</ele>
        <time>2011-06-18T09:19:21.000Z</time>
      </trkpt>
      <trkpt lat="45.44713" lon="4.29893">
        <ele>496.79998779297</ele>
        <time>2011-06-18T09:19:22.000Z</time>
      </trkpt>
      <trkpt lat="45.4472" lon="4.29906">
        <ele>496.39999389648</ele>
        <time>2011-06-18T09:19:28.000Z</time>
      </trkpt>
      <trkpt lat="45.44722" lon="4.29908">
        <ele>496.39999389648</ele>
        <time>2011-06-18T09:19:29.000Z</time>
      </trkpt>
      <trkpt lat="45.44725" lon="4.29915">
        <ele>496.20001220703</ele>
        <time>2011-06-18T09:19:32.000Z</time>
      </trkpt>
      <trkpt lat="45.44726" lon="4.29929">
        <ele>495.60000610352</ele>
        <time>2011-06-18T09:19:37.000Z</time>
      </trkpt>
      <trkpt lat="45.44725" lon="4.29942">
        <ele>495.20001220703</ele>
        <time>2011-06-18T09:19:41.000Z</time>
      </trkpt>
      <trkpt lat="45.44721" lon="4.29959">
        <ele>494.39999389648</ele>
        <time>2011-06-18T09:19:46.000Z</time>
      </trkpt>
      <trkpt lat="45.44717" lon="4.2997">
        <ele>493.79998779297</ele>
        <time>2011-06-18T09:19:50.000Z</time>
      </trkpt>
      <trkpt lat="45.44716" lon="4.29977">
        <ele>493.39999389648</ele>
        <time>2011-06-18T09:19:52.000Z</time>
      </trkpt>
      <trkpt lat="45.44711" lon="4.29995">
        <ele>492.60000610352</ele>
        <time>2011-06-18T09:19:58.000Z</time>
      </trkpt>
      <trkpt lat="45.44708" lon="4.30012">
        <ele>492.20001220703</ele>
        <time>2011-06-18T09:20:03.000Z</time>
      </trkpt>
      <trkpt lat="45.44709" lon="4.30024">
        <ele>491.79998779297</ele>
        <time>2011-06-18T09:20:08.000Z</time>
      </trkpt>
      <trkpt lat="45.44711" lon="4.30028">
        <ele>491.79998779297</ele>
        <time>2011-06-18T09:20:11.000Z</time>
      </trkpt>
      <trkpt lat="45.44711" lon="4.30032">
        <ele>491.60000610352</ele>
        <time>2011-06-18T09:20:17.000Z</time>
      </trkpt>
      <trkpt lat="45.44706" lon="4.30022">
        <ele>491.79998779297</ele>
        <time>2011-06-18T09:20:44.000Z</time>
      </trkpt>
      <trkpt lat="45.44709" lon="4.30026">
        <ele>491.79998779297</ele>
        <time>2011-06-18T09:20:52.000Z</time>
      </trkpt>
      <trkpt lat="45.44711" lon="4.30034">
        <ele>491.60000610352</ele>
        <time>2011-06-18T09:20:58.000Z</time>
      </trkpt>
      <trkpt lat="45.4471" lon="4.30041">
        <ele>491.39999389648</ele>
        <time>2011-06-18T09:21:02.000Z</time>
      </trkpt>
      <trkpt lat="45.44712" lon="4.30044">
        <ele>491.39999389648</ele>
        <time>2011-06-18T09:21:04.000Z</time>
      </trkpt>
      <trkpt lat="45.44712" lon="4.30057">
        <ele>491</ele>
        <time>2011-06-18T09:21:08.000Z</time>
      </trkpt>
      <trkpt lat="45.44712" lon="4.30074">
        <ele>490.60000610352</ele>
        <time>2011-06-18T09:21:14.000Z</time>
      </trkpt>
      <trkpt lat="45.44709" lon="4.30089">
        <ele>490.39999389648</ele>
        <time>2011-06-18T09:21:19.000Z</time>
      </trkpt>
      <trkpt lat="45.44705" lon="4.30102">
        <ele>490.60000610352</ele>
        <time>2011-06-18T09:21:24.000Z</time>
      </trkpt>
      <trkpt lat="45.44698" lon="4.30115">
        <ele>490.79998779297</ele>
        <time>2011-06-18T09:21:30.000Z</time>
      </trkpt>
      <trkpt lat="45.4469" lon="4.30129">
        <ele>491</ele>
        <time>2011-06-18T09:21:36.000Z</time>
      </trkpt>
      <trkpt lat="45.44685" lon="4.3014">
        <ele>491.20001220703</ele>
        <time>2011-06-18T09:21:42.000Z</time>
      </trkpt>
      <trkpt lat="45.44685" lon="4.30143">
        <ele>491.20001220703</ele>
        <time>2011-06-18T09:21:46.000Z</time>
      </trkpt>
      <trkpt lat="45.44682" lon="4.30154">
        <ele>491.39999389648</ele>
        <time>2011-06-18T09:22:25.000Z</time>
      </trkpt>
      <trkpt lat="45.44679" lon="4.30162">
        <ele>491.60000610352</ele>
        <time>2011-06-18T09:22:27.000Z</time>
      </trkpt>
      <trkpt lat="45.44669" lon="4.30168">
        <ele>491.79998779297</ele>
        <time>2011-06-18T09:22:33.000Z</time>
      </trkpt>
      <trkpt lat="45.44659" lon="4.30171">
        <ele>492</ele>
        <time>2011-06-18T09:22:38.000Z</time>
      </trkpt>
      <trkpt lat="45.44649" lon="4.30177">
        <ele>492.20001220703</ele>
        <time>2011-06-18T09:22:43.000Z</time>
      </trkpt>
      <trkpt lat="45.44641" lon="4.30186">
        <ele>492.39999389648</ele>
        <time>2011-06-18T09:22:48.000Z</time>
      </trkpt>
      <trkpt lat="45.44637" lon="4.30192">
        <ele>492.60000610352</ele>
        <time>2011-06-18T09:22:52.000Z</time>
      </trkpt>
      <trkpt lat="45.44634" lon="4.30206">
        <ele>493</ele>
        <time>2011-06-18T09:22:58.000Z</time>
      </trkpt>
      <trkpt lat="45.44625" lon="4.30213">
        <ele>493.20001220703</ele>
        <time>2011-06-18T09:23:05.000Z</time>
      </trkpt>
      <trkpt lat="45.44615" lon="4.30215">
        <ele>493.39999389648</ele>
        <time>2011-06-18T09:23:11.000Z</time>
      </trkpt>
      <trkpt lat="45.44608" lon="4.30215">
        <ele>493.39999389648</ele>
        <time>2011-06-18T09:23:15.000Z</time>
      </trkpt>
      <trkpt lat="45.44604" lon="4.30214">
        <ele>493.39999389648</ele>
        <time>2011-06-18T09:23:17.000Z</time>
      </trkpt>
      <trkpt lat="45.44594" lon="4.30215">
        <ele>493.60000610352</ele>
        <time>2011-06-18T09:23:23.000Z</time>
      </trkpt>
      <trkpt lat="45.44592" lon="4.30215">
        <ele>493.60000610352</ele>
        <time>2011-06-18T09:23:24.000Z</time>
      </trkpt>
      <trkpt lat="45.44578" lon="4.30224">
        <ele>494</ele>
        <time>2011-06-18T09:23:32.000Z</time>
      </trkpt>
      <trkpt lat="45.44568" lon="4.30233">
        <ele>494.60000610352</ele>
        <time>2011-06-18T09:23:38.000Z</time>
      </trkpt>
      <trkpt lat="45.44558" lon="4.30245">
        <ele>495</ele>
        <time>2011-06-18T09:23:45.000Z</time>
      </trkpt>
      <trkpt lat="45.44548" lon="4.30259">
        <ele>496</ele>
        <time>2011-06-18T09:23:53.000Z</time>
      </trkpt>
      <trkpt lat="45.44543" lon="4.30271">
        <ele>496.79998779297</ele>
        <time>2011-06-18T09:23:58.000Z</time>
      </trkpt>
      <trkpt lat="45.44536" lon="4.30288">
        <ele>498.20001220703</ele>
        <time>2011-06-18T09:24:04.000Z</time>
      </trkpt>
      <trkpt lat="45.4453" lon="4.30304">
        <ele>499.60000610352</ele>
        <time>2011-06-18T09:24:10.000Z</time>
      </trkpt>
      <trkpt lat="45.44525" lon="4.30319">
        <ele>501</ele>
        <time>2011-06-18T09:24:16.000Z</time>
      </trkpt>
      <trkpt lat="45.44524" lon="4.30334">
        <ele>502.20001220703</ele>
        <time>2011-06-18T09:24:22.000Z</time>
      </trkpt>
      <trkpt lat="45.44523" lon="4.30339">
        <ele>502.60000610352</ele>
        <time>2011-06-18T09:24:24.000Z</time>
      </trkpt>
      <trkpt lat="45.4452" lon="4.30352">
        <ele>503.79998779297</ele>
        <time>2011-06-18T09:24:29.000Z</time>
      </trkpt>
      <trkpt lat="45.44519" lon="4.30363">
        <ele>504.60000610352</ele>
        <time>2011-06-18T09:24:34.000Z</time>
      </trkpt>
      <trkpt lat="45.44515" lon="4.30374">
        <ele>505.79998779297</ele>
        <time>2011-06-18T09:24:40.000Z</time>
      </trkpt>
      <trkpt lat="45.44508" lon="4.30383">
        <ele>507</ele>
        <time>2011-06-18T09:24:45.000Z</time>
      </trkpt>
      <trkpt lat="45.44499" lon="4.30392">
        <ele>508.20001220703</ele>
        <time>2011-06-18T09:24:51.000Z</time>
      </trkpt>
      <trkpt lat="45.44491" lon="4.30405">
        <ele>509.60000610352</ele>
        <time>2011-06-18T09:24:56.000Z</time>
      </trkpt>
      <trkpt lat="45.44482" lon="4.30418">
        <ele>511</ele>
        <time>2011-06-18T09:25:03.000Z</time>
      </trkpt>
      <trkpt lat="45.44474" lon="4.3043">
        <ele>512.59997558594</ele>
        <time>2011-06-18T09:25:10.000Z</time>
      </trkpt>
      <trkpt lat="45.44466" lon="4.30441">
        <ele>513.79998779297</ele>
        <time>2011-06-18T09:25:16.000Z</time>
      </trkpt>
      <trkpt lat="45.4446" lon="4.30458">
        <ele>515.59997558594</ele>
        <time>2011-06-18T09:25:24.000Z</time>
      </trkpt>
      <trkpt lat="45.44456" lon="4.30473">
        <ele>517</ele>
        <time>2011-06-18T09:25:31.000Z</time>
      </trkpt>
      <trkpt lat="45.44455" lon="4.30482">
        <ele>517.59997558594</ele>
        <time>2011-06-18T09:25:35.000Z</time>
      </trkpt>
      <trkpt lat="45.44453" lon="4.305">
        <ele>519.20001220703</ele>
        <time>2011-06-18T09:25:42.000Z</time>
      </trkpt>
      <trkpt lat="45.44451" lon="4.3051">
        <ele>520.20001220703</ele>
        <time>2011-06-18T09:25:46.000Z</time>
      </trkpt>
      <trkpt lat="45.44453" lon="4.30525">
        <ele>521.59997558594</ele>
        <time>2011-06-18T09:25:52.000Z</time>
      </trkpt>
      <trkpt lat="45.44454" lon="4.30546">
        <ele>523.40002441406</ele>
        <time>2011-06-18T09:26:00.000Z</time>
      </trkpt>
      <trkpt lat="45.44455" lon="4.30551">
        <ele>523.79998779297</ele>
        <time>2011-06-18T09:26:02.000Z</time>
      </trkpt>
      <trkpt lat="45.44457" lon="4.3056">
        <ele>524.79998779297</ele>
        <time>2011-06-18T09:26:09.000Z</time>
      </trkpt>
      <trkpt lat="45.44459" lon="4.30574">
        <ele>526</ele>
        <time>2011-06-18T09:26:18.000Z</time>
      </trkpt>
      <trkpt lat="45.44456" lon="4.3058">
        <ele>526.59997558594</ele>
        <time>2011-06-18T09:26:25.000Z</time>
      </trkpt>
      <trkpt lat="45.44454" lon="4.30587">
        <ele>527.20001220703</ele>
        <time>2011-06-18T09:26:33.000Z</time>
      </trkpt>
      <trkpt lat="45.44455" lon="4.30591">
        <ele>527.59997558594</ele>
        <time>2011-06-18T09:26:39.000Z</time>
      </trkpt>
      <trkpt lat="45.44464" lon="4.30599">
        <ele>527.59997558594</ele>
        <time>2011-06-18T09:28:29.000Z</time>
      </trkpt>
      <trkpt lat="45.44475" lon="4.30601">
        <ele>527.20001220703</ele>
        <time>2011-06-18T09:28:35.000Z</time>
      </trkpt>
      <trkpt lat="45.44482" lon="4.30604">
        <ele>527</ele>
        <time>2011-06-18T09:28:39.000Z</time>
      </trkpt>
      <trkpt lat="45.44483" lon="4.30616">
        <ele>527.20001220703</ele>
        <time>2011-06-18T09:28:45.000Z</time>
      </trkpt>
      <trkpt lat="45.4448" lon="4.30619">
        <ele>527.40002441406</ele>
        <time>2011-06-18T09:28:47.000Z</time>
      </trkpt>
      <trkpt lat="45.44473" lon="4.30627">
        <ele>528.40002441406</ele>
        <time>2011-06-18T09:28:53.000Z</time>
      </trkpt>
      <trkpt lat="45.44463" lon="4.30637">
        <ele>530</ele>
        <time>2011-06-18T09:29:00.000Z</time>
      </trkpt>
      <trkpt lat="45.44452" lon="4.30649">
        <ele>532</ele>
        <time>2011-06-18T09:29:08.000Z</time>
      </trkpt>
      <trkpt lat="45.44445" lon="4.30656">
        <ele>533.59997558594</ele>
        <time>2011-06-18T09:29:13.000Z</time>
      </trkpt>
      <trkpt lat="45.44438" lon="4.30661">
        <ele>535</ele>
        <time>2011-06-18T09:29:18.000Z</time>
      </trkpt>
      <trkpt lat="45.44434" lon="4.30664">
        <ele>536</ele>
        <time>2011-06-18T09:29:21.000Z</time>
      </trkpt>
      <trkpt lat="45.44421" lon="4.30674">
        <ele>537.79998779297</ele>
        <time>2011-06-18T09:29:29.000Z</time>
      </trkpt>
      <trkpt lat="45.44413" lon="4.30679">
        <ele>538.40002441406</ele>
        <time>2011-06-18T09:29:34.000Z</time>
      </trkpt>
      <trkpt lat="45.4441" lon="4.30681">
        <ele>538.40002441406</ele>
        <time>2011-06-18T09:29:36.000Z</time>
      </trkpt>
      <trkpt lat="45.44406" lon="4.30684">
        <ele>538.59997558594</ele>
        <time>2011-06-18T09:29:39.000Z</time>
      </trkpt>
      <trkpt lat="45.44394" lon="4.30692">
        <ele>539</ele>
        <time>2011-06-18T09:29:46.000Z</time>
      </trkpt>
      <trkpt lat="45.44384" lon="4.30703">
        <ele>539.40002441406</ele>
        <time>2011-06-18T09:29:53.000Z</time>
      </trkpt>
      <trkpt lat="45.44379" lon="4.30709">
        <ele>539.79998779297</ele>
        <time>2011-06-18T09:29:58.000Z</time>
      </trkpt>
      <trkpt lat="45.44376" lon="4.30712">
        <ele>540</ele>
        <time>2011-06-18T09:30:03.000Z</time>
      </trkpt>
      <trkpt lat="45.44369" lon="4.30718">
        <ele>540.79998779297</ele>
        <time>2011-06-18T09:30:16.000Z</time>
      </trkpt>
      <trkpt lat="45.44361" lon="4.30725">
        <ele>541.59997558594</ele>
        <time>2011-06-18T09:30:23.000Z</time>
      </trkpt>
      <trkpt lat="45.44354" lon="4.3073">
        <ele>542.40002441406</ele>
        <time>2011-06-18T09:30:31.000Z</time>
      </trkpt>
      <trkpt lat="45.44354" lon="4.30731">
        <ele>542.59997558594</ele>
        <time>2011-06-18T09:30:33.000Z</time>
      </trkpt>
      <trkpt lat="45.44342" lon="4.30744">
        <ele>544.40002441406</ele>
        <time>2011-06-18T09:30:52.000Z</time>
      </trkpt>
      <trkpt lat="45.44335" lon="4.3075">
        <ele>545.59997558594</ele>
        <time>2011-06-18T09:30:57.000Z</time>
      </trkpt>
      <trkpt lat="45.44326" lon="4.30762">
        <ele>546</ele>
        <time>2011-06-18T09:31:07.000Z</time>
      </trkpt>
      <trkpt lat="45.4432" lon="4.30773">
        <ele>546</ele>
        <time>2011-06-18T09:31:17.000Z</time>
      </trkpt>
      <trkpt lat="45.44315" lon="4.30781">
        <ele>546.20001220703</ele>
        <time>2011-06-18T09:31:24.000Z</time>
      </trkpt>
      <trkpt lat="45.44307" lon="4.3079">
        <ele>546.59997558594</ele>
        <time>2011-06-18T09:31:32.000Z</time>
      </trkpt>
      <trkpt lat="45.44305" lon="4.30794">
        <ele>546.79998779297</ele>
        <time>2011-06-18T09:31:34.000Z</time>
      </trkpt>
      <trkpt lat="45.44297" lon="4.30803">
        <ele>547.40002441406</ele>
        <time>2011-06-18T09:31:40.000Z</time>
      </trkpt>
      <trkpt lat="45.44292" lon="4.30807">
        <ele>547.79998779297</ele>
        <time>2011-06-18T09:31:43.000Z</time>
      </trkpt>
      <trkpt lat="45.44283" lon="4.30819">
        <ele>548.59997558594</ele>
        <time>2011-06-18T09:31:49.000Z</time>
      </trkpt>
      <trkpt lat="45.44276" lon="4.30828">
        <ele>549.59997558594</ele>
        <time>2011-06-18T09:31:54.000Z</time>
      </trkpt>
      <trkpt lat="45.44268" lon="4.30835">
        <ele>550.59997558594</ele>
        <time>2011-06-18T09:31:59.000Z</time>
      </trkpt>
      <trkpt lat="45.4426" lon="4.30843">
        <ele>551.79998779297</ele>
        <time>2011-06-18T09:32:04.000Z</time>
      </trkpt>
      <trkpt lat="45.44248" lon="4.30853">
        <ele>553.20001220703</ele>
        <time>2011-06-18T09:32:11.000Z</time>
      </trkpt>
      <trkpt lat="45.44238" lon="4.30864">
        <ele>554.20001220703</ele>
        <time>2011-06-18T09:32:18.000Z</time>
      </trkpt>
      <trkpt lat="45.44228" lon="4.30876">
        <ele>555.20001220703</ele>
        <time>2011-06-18T09:32:25.000Z</time>
      </trkpt>
      <trkpt lat="45.4422" lon="4.30885">
        <ele>555.79998779297</ele>
        <time>2011-06-18T09:32:30.000Z</time>
      </trkpt>
      <trkpt lat="45.44211" lon="4.30895">
        <ele>556.59997558594</ele>
        <time>2011-06-18T09:32:36.000Z</time>
      </trkpt>
      <trkpt lat="45.44201" lon="4.30902">
        <ele>557.40002441406</ele>
        <time>2011-06-18T09:32:42.000Z</time>
      </trkpt>
      <trkpt lat="45.44194" lon="4.30908">
        <ele>558</ele>
        <time>2011-06-18T09:32:47.000Z</time>
      </trkpt>
      <trkpt lat="45.44185" lon="4.30914">
        <ele>558.40002441406</ele>
        <time>2011-06-18T09:32:52.000Z</time>
      </trkpt>
      <trkpt lat="45.44174" lon="4.3092">
        <ele>559</ele>
        <time>2011-06-18T09:32:58.000Z</time>
      </trkpt>
      <trkpt lat="45.44164" lon="4.30927">
        <ele>559.59997558594</ele>
        <time>2011-06-18T09:33:04.000Z</time>
      </trkpt>
      <trkpt lat="45.44155" lon="4.30933">
        <ele>560.20001220703</ele>
        <time>2011-06-18T09:33:09.000Z</time>
      </trkpt>
      <trkpt lat="45.44145" lon="4.3094">
        <ele>560.59997558594</ele>
        <time>2011-06-18T09:33:14.000Z</time>
      </trkpt>
      <trkpt lat="45.44134" lon="4.30946">
        <ele>561</ele>
        <time>2011-06-18T09:33:20.000Z</time>
      </trkpt>
      <trkpt lat="45.44123" lon="4.30952">
        <ele>561.40002441406</ele>
        <time>2011-06-18T09:33:26.000Z</time>
      </trkpt>
      <trkpt lat="45.44112" lon="4.30958">
        <ele>561.59997558594</ele>
        <time>2011-06-18T09:33:32.000Z</time>
      </trkpt>
      <trkpt lat="45.441" lon="4.30967">
        <ele>561.79998779297</ele>
        <time>2011-06-18T09:33:39.000Z</time>
      </trkpt>
      <trkpt lat="45.44091" lon="4.30973">
        <ele>562</ele>
        <time>2011-06-18T09:33:44.000Z</time>
      </trkpt>
      <trkpt lat="45.44081" lon="4.3098">
        <ele>562.20001220703</ele>
        <time>2011-06-18T09:33:50.000Z</time>
      </trkpt>
      <trkpt lat="45.44068" lon="4.30988">
        <ele>562.79998779297</ele>
        <time>2011-06-18T09:33:57.000Z</time>
      </trkpt>
      <trkpt lat="45.44066" lon="4.30989">
        <ele>562.79998779297</ele>
        <time>2011-06-18T09:33:58.000Z</time>
      </trkpt>
      <trkpt lat="45.44054" lon="4.30996">
        <ele>563.40002441406</ele>
        <time>2011-06-18T09:34:05.000Z</time>
      </trkpt>
      <trkpt lat="45.44045" lon="4.31003">
        <ele>563.79998779297</ele>
        <time>2011-06-18T09:34:10.000Z</time>
      </trkpt>
      <trkpt lat="45.44031" lon="4.31011">
        <ele>564</ele>
        <time>2011-06-18T09:34:17.000Z</time>
      </trkpt>
      <trkpt lat="45.4402" lon="4.31015">
        <ele>564.20001220703</ele>
        <time>2011-06-18T09:34:23.000Z</time>
      </trkpt>
      <trkpt lat="45.44006" lon="4.31018">
        <ele>564.59997558594</ele>
        <time>2011-06-18T09:34:29.000Z</time>
      </trkpt>
      <trkpt lat="45.43989" lon="4.31018">
        <ele>565</ele>
        <time>2011-06-18T09:34:37.000Z</time>
      </trkpt>
      <trkpt lat="45.4397" lon="4.31018">
        <ele>565.40002441406</ele>
        <time>2011-06-18T09:34:45.000Z</time>
      </trkpt>
      <trkpt lat="45.43959" lon="4.31023">
        <ele>565.59997558594</ele>
        <time>2011-06-18T09:34:50.000Z</time>
      </trkpt>
      <trkpt lat="45.43947" lon="4.31028">
        <ele>565.79998779297</ele>
        <time>2011-06-18T09:34:55.000Z</time>
      </trkpt>
      <trkpt lat="45.43937" lon="4.31032">
        <ele>566</ele>
        <time>2011-06-18T09:34:59.000Z</time>
      </trkpt>
      <trkpt lat="45.43923" lon="4.31037">
        <ele>566.40002441406</ele>
        <time>2011-06-18T09:35:05.000Z</time>
      </trkpt>
      <trkpt lat="45.43912" lon="4.31039">
        <ele>566.20001220703</ele>
        <time>2011-06-18T09:35:10.000Z</time>
      </trkpt>
      <trkpt lat="45.43902" lon="4.3104">
        <ele>565.79998779297</ele>
        <time>2011-06-18T09:35:14.000Z</time>
      </trkpt>
      <trkpt lat="45.43891" lon="4.3105">
        <ele>565.20001220703</ele>
        <time>2011-06-18T09:35:19.000Z</time>
      </trkpt>
      <trkpt lat="45.43878" lon="4.31055">
        <ele>564.79998779297</ele>
        <time>2011-06-18T09:35:24.000Z</time>
      </trkpt>
      <trkpt lat="45.43863" lon="4.31062">
        <ele>564</ele>
        <time>2011-06-18T09:35:30.000Z</time>
      </trkpt>
      <trkpt lat="45.43844" lon="4.31065">
        <ele>563.40002441406</ele>
        <time>2011-06-18T09:35:37.000Z</time>
      </trkpt>
      <trkpt lat="45.43831" lon="4.31067">
        <ele>562.79998779297</ele>
        <time>2011-06-18T09:35:42.000Z</time>
      </trkpt>
      <trkpt lat="45.43812" lon="4.31072">
        <ele>561.40002441406</ele>
        <time>2011-06-18T09:35:49.000Z</time>
      </trkpt>
      <trkpt lat="45.43796" lon="4.31077">
        <ele>560.20001220703</ele>
        <time>2011-06-18T09:35:55.000Z</time>
      </trkpt>
      <trkpt lat="45.43782" lon="4.31078">
        <ele>559.20001220703</ele>
        <time>2011-06-18T09:36:00.000Z</time>
      </trkpt>
      <trkpt lat="45.43766" lon="4.3108">
        <ele>558</ele>
        <time>2011-06-18T09:36:06.000Z</time>
      </trkpt>
      <trkpt lat="45.43746" lon="4.31084">
        <ele>556.79998779297</ele>
        <time>2011-06-18T09:36:13.000Z</time>
      </trkpt>
      <trkpt lat="45.4373" lon="4.31087">
        <ele>556.20001220703</ele>
        <time>2011-06-18T09:36:19.000Z</time>
      </trkpt>
      <trkpt lat="45.43708" lon="4.31091">
        <ele>555.40002441406</ele>
        <time>2011-06-18T09:36:27.000Z</time>
      </trkpt>
      <trkpt lat="45.43695" lon="4.31094">
        <ele>554.79998779297</ele>
        <time>2011-06-18T09:36:32.000Z</time>
      </trkpt>
      <trkpt lat="45.43678" lon="4.31097">
        <ele>554.20001220703</ele>
        <time>2011-06-18T09:36:38.000Z</time>
      </trkpt>
      <trkpt lat="45.43662" lon="4.31098">
        <ele>553.59997558594</ele>
        <time>2011-06-18T09:36:44.000Z</time>
      </trkpt>
      <trkpt lat="45.43643" lon="4.31098">
        <ele>552.79998779297</ele>
        <time>2011-06-18T09:36:51.000Z</time>
      </trkpt>
      <trkpt lat="45.43624" lon="4.31098">
        <ele>551.79998779297</ele>
        <time>2011-06-18T09:36:58.000Z</time>
      </trkpt>
      <trkpt lat="45.43604" lon="4.311">
        <ele>550.79998779297</ele>
        <time>2011-06-18T09:37:05.000Z</time>
      </trkpt>
      <trkpt lat="45.43585" lon="4.31104">
        <ele>550</ele>
        <time>2011-06-18T09:37:12.000Z</time>
      </trkpt>
      <trkpt lat="45.43567" lon="4.31113">
        <ele>549</ele>
        <time>2011-06-18T09:37:19.000Z</time>
      </trkpt>
      <trkpt lat="45.43565" lon="4.31115">
        <ele>548.79998779297</ele>
        <time>2011-06-18T09:37:20.000Z</time>
      </trkpt>
      <trkpt lat="45.43567" lon="4.31128">
        <ele>549</ele>
        <time>2011-06-18T09:37:24.000Z</time>
      </trkpt>
      <trkpt lat="45.43577" lon="4.31149">
        <ele>549.59997558594</ele>
        <time>2011-06-18T09:37:31.000Z</time>
      </trkpt>
      <trkpt lat="45.43587" lon="4.31167">
        <ele>550</ele>
        <time>2011-06-18T09:37:37.000Z</time>
      </trkpt>
      <trkpt lat="45.43595" lon="4.31182">
        <ele>550.20001220703</ele>
        <time>2011-06-18T09:37:42.000Z</time>
      </trkpt>
      <trkpt lat="45.436" lon="4.31196">
        <ele>550.20001220703</ele>
        <time>2011-06-18T09:37:46.000Z</time>
      </trkpt>
      <trkpt lat="45.43603" lon="4.31217">
        <ele>550</ele>
        <time>2011-06-18T09:37:52.000Z</time>
      </trkpt>
      <trkpt lat="45.43605" lon="4.3123">
        <ele>549.79998779297</ele>
        <time>2011-06-18T09:37:56.000Z</time>
      </trkpt>
      <trkpt lat="45.43609" lon="4.31248">
        <ele>549.79998779297</ele>
        <time>2011-06-18T09:38:01.000Z</time>
      </trkpt>
      <trkpt lat="45.43612" lon="4.31273">
        <ele>549.79998779297</ele>
        <time>2011-06-18T09:38:08.000Z</time>
      </trkpt>
      <trkpt lat="45.43616" lon="4.31287">
        <ele>550</ele>
        <time>2011-06-18T09:38:12.000Z</time>
      </trkpt>
      <trkpt lat="45.43617" lon="4.31301">
        <ele>550</ele>
        <time>2011-06-18T09:38:16.000Z</time>
      </trkpt>
      <trkpt lat="45.43617" lon="4.31303">
        <ele>550</ele>
        <time>2011-06-18T09:38:17.000Z</time>
      </trkpt>
      <trkpt lat="45.43618" lon="4.31313">
        <ele>550</ele>
        <time>2011-06-18T09:38:24.000Z</time>
      </trkpt>
      <trkpt lat="45.43621" lon="4.31328">
        <ele>550</ele>
        <time>2011-06-18T09:38:33.000Z</time>
      </trkpt>
      <trkpt lat="45.43622" lon="4.31341">
        <ele>550.20001220703</ele>
        <time>2011-06-18T09:38:41.000Z</time>
      </trkpt>
      <trkpt lat="45.43623" lon="4.31347">
        <ele>550.20001220703</ele>
        <time>2011-06-18T09:38:44.000Z</time>
      </trkpt>
      <trkpt lat="45.43623" lon="4.3135">
        <ele>550.20001220703</ele>
        <time>2011-06-18T09:38:48.000Z</time>
      </trkpt>
      <trkpt lat="45.43625" lon="4.31365">
        <ele>550.40002441406</ele>
        <time>2011-06-18T09:38:54.000Z</time>
      </trkpt>
      <trkpt lat="45.43628" lon="4.31379">
        <ele>550.59997558594</ele>
        <time>2011-06-18T09:38:59.000Z</time>
      </trkpt>
      <trkpt lat="45.43631" lon="4.31394">
        <ele>551</ele>
        <time>2011-06-18T09:39:04.000Z</time>
      </trkpt>
      <trkpt lat="45.43635" lon="4.31411">
        <ele>551.20001220703</ele>
        <time>2011-06-18T09:39:09.000Z</time>
      </trkpt>
      <trkpt lat="45.43639" lon="4.31437">
        <ele>550.79998779297</ele>
        <time>2011-06-18T09:39:17.000Z</time>
      </trkpt>
      <trkpt lat="45.43644" lon="4.31453">
        <ele>550.59997558594</ele>
        <time>2011-06-18T09:39:22.000Z</time>
      </trkpt>
      <trkpt lat="45.43645" lon="4.31456">
        <ele>550.59997558594</ele>
        <time>2011-06-18T09:39:23.000Z</time>
      </trkpt>
      <trkpt lat="45.43651" lon="4.31468">
        <ele>550.79998779297</ele>
        <time>2011-06-18T09:39:27.000Z</time>
      </trkpt>
      <trkpt lat="45.43659" lon="4.31482">
        <ele>550.79998779297</ele>
        <time>2011-06-18T09:39:33.000Z</time>
      </trkpt>
      <trkpt lat="45.43666" lon="4.31496">
        <ele>551</ele>
        <time>2011-06-18T09:39:38.000Z</time>
      </trkpt>
      <trkpt lat="45.43668" lon="4.31502">
        <ele>550.59997558594</ele>
        <time>2011-06-18T09:39:40.000Z</time>
      </trkpt>
      <trkpt lat="45.43674" lon="4.31515">
        <ele>549.40002441406</ele>
        <time>2011-06-18T09:39:44.000Z</time>
      </trkpt>
      <trkpt lat="45.43677" lon="4.31521">
        <ele>548.79998779297</ele>
        <time>2011-06-18T09:39:46.000Z</time>
      </trkpt>
      <trkpt lat="45.43681" lon="4.31537">
        <ele>547</ele>
        <time>2011-06-18T09:39:51.000Z</time>
      </trkpt>
      <trkpt lat="45.43685" lon="4.31553">
        <ele>545.20001220703</ele>
        <time>2011-06-18T09:39:56.000Z</time>
      </trkpt>
      <trkpt lat="45.43689" lon="4.31568">
        <ele>543.59997558594</ele>
        <time>2011-06-18T09:40:01.000Z</time>
      </trkpt>
      <trkpt lat="45.43693" lon="4.31585">
        <ele>541.79998779297</ele>
        <time>2011-06-18T09:40:06.000Z</time>
      </trkpt>
      <trkpt lat="45.43698" lon="4.31601">
        <ele>540.20001220703</ele>
        <time>2011-06-18T09:40:11.000Z</time>
      </trkpt>
      <trkpt lat="45.43703" lon="4.31621">
        <ele>538.40002441406</ele>
        <time>2011-06-18T09:40:17.000Z</time>
      </trkpt>
      <trkpt lat="45.43707" lon="4.31636">
        <ele>537</ele>
        <time>2011-06-18T09:40:22.000Z</time>
      </trkpt>
      <trkpt lat="45.43712" lon="4.31656">
        <ele>535.20001220703</ele>
        <time>2011-06-18T09:40:28.000Z</time>
      </trkpt>
      <trkpt lat="45.43716" lon="4.3167">
        <ele>533.79998779297</ele>
        <time>2011-06-18T09:40:32.000Z</time>
      </trkpt>
      <trkpt lat="45.43717" lon="4.31673">
        <ele>533.40002441406</ele>
        <time>2011-06-18T09:40:33.000Z</time>
      </trkpt>
      <trkpt lat="45.43717" lon="4.3169">
        <ele>531.20001220703</ele>
        <time>2011-06-18T09:40:38.000Z</time>
      </trkpt>
      <trkpt lat="45.43715" lon="4.31708">
        <ele>528.59997558594</ele>
        <time>2011-06-18T09:40:44.000Z</time>
      </trkpt>
      <trkpt lat="45.43717" lon="4.31727">
        <ele>526.20001220703</ele>
        <time>2011-06-18T09:40:51.000Z</time>
      </trkpt>
      <trkpt lat="45.43718" lon="4.31729">
        <ele>526</ele>
        <time>2011-06-18T09:40:52.000Z</time>
      </trkpt>
      <trkpt lat="45.43723" lon="4.31731">
        <ele>525.79998779297</ele>
        <time>2011-06-18T09:40:55.000Z</time>
      </trkpt>
      <trkpt lat="45.4373" lon="4.31735">
        <ele>525.40002441406</ele>
        <time>2011-06-18T09:40:59.000Z</time>
      </trkpt>
      <trkpt lat="45.43738" lon="4.31747">
        <ele>524</ele>
        <time>2011-06-18T09:41:05.000Z</time>
      </trkpt>
      <trkpt lat="45.4374" lon="4.31763">
        <ele>523</ele>
        <time>2011-06-18T09:41:10.000Z</time>
      </trkpt>
      <trkpt lat="45.43742" lon="4.31781">
        <ele>522</ele>
        <time>2011-06-18T09:41:15.000Z</time>
      </trkpt>
      <trkpt lat="45.43742" lon="4.31784">
        <ele>521.79998779297</ele>
        <time>2011-06-18T09:41:16.000Z</time>
      </trkpt>
      <trkpt lat="45.43743" lon="4.31805">
        <ele>520.59997558594</ele>
        <time>2011-06-18T09:41:22.000Z</time>
      </trkpt>
      <trkpt lat="45.43746" lon="4.31811">
        <ele>520.20001220703</ele>
        <time>2011-06-18T09:41:24.000Z</time>
      </trkpt>
      <trkpt lat="45.43748" lon="4.3184">
        <ele>519.20001220703</ele>
        <time>2011-06-18T09:41:33.000Z</time>
      </trkpt>
      <trkpt lat="45.43749" lon="4.31859">
        <ele>520.40002441406</ele>
        <time>2011-06-18T09:41:39.000Z</time>
      </trkpt>
      <trkpt lat="45.43746" lon="4.31872">
        <ele>521.20001220703</ele>
        <time>2011-06-18T09:41:43.000Z</time>
      </trkpt>
      <trkpt lat="45.4374" lon="4.31883">
        <ele>521.79998779297</ele>
        <time>2011-06-18T09:41:48.000Z</time>
      </trkpt>
      <trkpt lat="45.43733" lon="4.31897">
        <ele>522.59997558594</ele>
        <time>2011-06-18T09:41:54.000Z</time>
      </trkpt>
      <trkpt lat="45.43725" lon="4.31912">
        <ele>523.40002441406</ele>
        <time>2011-06-18T09:42:01.000Z</time>
      </trkpt>
      <trkpt lat="45.4372" lon="4.31928">
        <ele>525.20001220703</ele>
        <time>2011-06-18T09:42:07.000Z</time>
      </trkpt>
      <trkpt lat="45.43716" lon="4.31941">
        <ele>527</ele>
        <time>2011-06-18T09:42:12.000Z</time>
      </trkpt>
      <trkpt lat="45.4371" lon="4.31951">
        <ele>528.20001220703</ele>
        <time>2011-06-18T09:42:17.000Z</time>
      </trkpt>
      <trkpt lat="45.43706" lon="4.31956">
        <ele>528.79998779297</ele>
        <time>2011-06-18T09:42:20.000Z</time>
      </trkpt>
      <trkpt lat="45.43694" lon="4.31967">
        <ele>530</ele>
        <time>2011-06-18T09:42:27.000Z</time>
      </trkpt>
      <trkpt lat="45.43682" lon="4.31968">
        <ele>530</ele>
        <time>2011-06-18T09:42:33.000Z</time>
      </trkpt>
      <trkpt lat="45.43669" lon="4.31962">
        <ele>529</ele>
        <time>2011-06-18T09:42:38.000Z</time>
      </trkpt>
      <trkpt lat="45.43655" lon="4.31959">
        <ele>528.20001220703</ele>
        <time>2011-06-18T09:42:42.000Z</time>
      </trkpt>
      <trkpt lat="45.43637" lon="4.31958">
        <ele>527.59997558594</ele>
        <time>2011-06-18T09:42:47.000Z</time>
      </trkpt>
      <trkpt lat="45.43619" lon="4.31959">
        <ele>527.40002441406</ele>
        <time>2011-06-18T09:42:52.000Z</time>
      </trkpt>
      <trkpt lat="45.43604" lon="4.31963">
        <ele>527.40002441406</ele>
        <time>2011-06-18T09:42:56.000Z</time>
      </trkpt>
      <trkpt lat="45.43589" lon="4.31966">
        <ele>527.40002441406</ele>
        <time>2011-06-18T09:43:01.000Z</time>
      </trkpt>
      <trkpt lat="45.43587" lon="4.31966">
        <ele>527.40002441406</ele>
        <time>2011-06-18T09:43:02.000Z</time>
      </trkpt>
    </trkseg>
  </trk>
</gpx>